id=790978 time=14.11.2019 08:36:01 Vmax=3.5 Vmin=2.7 Vmid=3 Napr=50 uakb=12.46 usb=1.39 temp=-15.83 hum=82.6 prs=1016.45 Log=143316 Err=0
id=790977 time=14.11.2019 08:34:52 Vmax=2.8 Vmin=2.2 Vmid=2.5 Napr=57 uakb=12.46 usb=1.78 temp=-15.82 hum=82.6 prs=1016.46 Log=143315 Err=0
id=790976 time=14.11.2019 08:33:42 Vmax=2.6 Vmin=1.5 Vmid=2 Napr=50 uakb=12.46 usb=1.78 temp=-15.8 hum=82.62 prs=1016.44 Log=143314 Err=0
id=790975 time=14.11.2019 08:32:33 Vmax=3.5 Vmin=1.9 Vmid=2.5 Napr=50 uakb=12.48 usb=2 temp=-15.78 hum=82.63 prs=1016.39 Log=143313 Err=0
id=790974 time=14.11.2019 08:31:24 Vmax=3 Vmin=2.1 Vmid=2.7 Napr=50 uakb=12.46 usb=1.59 temp=-15.79 hum=82.62 prs=1016.37 Log=143312 Err=0
id=790973 time=14.11.2019 08:30:14 Vmax=2.6 Vmin=2 Vmid=2.2 Napr=50 uakb=12.46 usb=0 temp=-15.79 hum=82.62 prs=1016.38 Log=143311 Err=0
id=790972 time=14.11.2019 08:29:04 Vmax=3.3 Vmin=2.5 Vmid=2.8 Napr=45 uakb=12.46 usb=0 temp=-15.79 hum=82.63 prs=1016.35 Log=143310 Err=0
id=790971 time=14.11.2019 08:27:55 Vmax=3.5 Vmin=2.2 Vmid=2.9 Napr=39 uakb=12.46 usb=0 temp=-15.78 hum=82.63 prs=1016.32 Log=143309 Err=0
id=790970 time=14.11.2019 08:26:45 Vmax=3.6 Vmin=2.1 Vmid=2.7 Napr=54 uakb=12.46 usb=0 temp=-15.77 hum=82.62 prs=1016.32 Log=143308 Err=0
id=790969 time=14.11.2019 08:25:36 Vmax=4.3 Vmin=2.5 Vmid=3.3 Napr=49 uakb=12.48 usb=0 temp=-15.74 hum=82.64 prs=1016.25 Log=143307 Err=0
id=790968 time=14.11.2019 08:24:26 Vmax=3.2 Vmin=2.3 Vmid=2.8 Napr=49 uakb=12.48 usb=0 temp=-15.74 hum=82.64 prs=1016.26 Log=143306 Err=0
id=790967 time=14.11.2019 08:23:17 Vmax=2.9 Vmin=2.1 Vmid=2.5 Napr=53 uakb=12.46 usb=0 temp=-15.75 hum=82.65 prs=1016.21 Log=143305 Err=0
id=790966 time=14.11.2019 08:22:07 Vmax=2.8 Vmin=1.5 Vmid=2 Napr=54 uakb=12.48 usb=0 temp=-15.74 hum=82.64 prs=1016.21 Log=143304 Err=0
id=790965 time=14.11.2019 08:20:58 Vmax=3.3 Vmin=2.2 Vmid=2.7 Napr=49 uakb=12.46 usb=0 temp=-15.72 hum=82.63 prs=1016.19 Log=143303 Err=0
id=790964 time=14.11.2019 08:19:48 Vmax=3 Vmin=2 Vmid=2.3 Napr=52 uakb=12.48 usb=0 temp=-15.7 hum=82.65 prs=1016.18 Log=143302 Err=0
id=790963 time=14.11.2019 08:18:38 Vmax=3.6 Vmin=1.8 Vmid=2.5 Napr=53 uakb=12.48 usb=0 temp=-15.7 hum=82.66 prs=1016.2 Log=143301 Err=0
id=790962 time=14.11.2019 08:17:29 Vmax=3 Vmin=1.8 Vmid=2.2 Napr=51 uakb=12.48 usb=0 temp=-15.7 hum=82.64 prs=1016.18 Log=143300 Err=0
id=790961 time=14.11.2019 08:16:19 Vmax=4.2 Vmin=2.3 Vmid=3 Napr=47 uakb=12.48 usb=0 temp=-15.68 hum=82.64 prs=1016.19 Log=143299 Err=0
id=790960 time=14.11.2019 08:15:10 Vmax=3.6 Vmin=2.5 Vmid=2.9 Napr=45 uakb=12.48 usb=0 temp=-15.67 hum=82.67 prs=1016.19 Log=143298 Err=0
id=790959 time=14.11.2019 08:14:00 Vmax=3.7 Vmin=2.7 Vmid=3.2 Napr=47 uakb=12.46 usb=0 temp=-15.67 hum=82.68 prs=1016.16 Log=143297 Err=0
id=790958 time=14.11.2019 08:12:51 Vmax=2.7 Vmin=1.8 Vmid=2.2 Napr=53 uakb=12.48 usb=0 temp=-15.67 hum=82.66 prs=1016.14 Log=143296 Err=0
id=790957 time=14.11.2019 08:11:41 Vmax=4.1 Vmin=2.2 Vmid=3 Napr=51 uakb=12.46 usb=0 temp=-15.64 hum=82.65 prs=1016.12 Log=143295 Err=0
id=790956 time=14.11.2019 08:10:32 Vmax=3.6 Vmin=1.9 Vmid=2.6 Napr=51 uakb=12.48 usb=0 temp=-15.62 hum=82.67 prs=1016.08 Log=143294 Err=0
id=790955 time=14.11.2019 08:09:22 Vmax=3.4 Vmin=2.5 Vmid=2.8 Napr=48 uakb=12.48 usb=0 temp=-15.61 hum=82.68 prs=1016.08 Log=143293 Err=0
id=790954 time=14.11.2019 08:08:13 Vmax=3.5 Vmin=2.2 Vmid=2.7 Napr=47 uakb=12.48 usb=0 temp=-15.61 hum=82.67 prs=1016.1 Log=143292 Err=0
id=790953 time=14.11.2019 08:07:03 Vmax=4.3 Vmin=3.2 Vmid=3.4 Napr=43 uakb=12.48 usb=0 temp=-15.6 hum=82.69 prs=1016.13 Log=143291 Err=0
id=790952 time=14.11.2019 08:05:53 Vmax=3.6 Vmin=2.2 Vmid=3.2 Napr=46 uakb=12.46 usb=0 temp=-15.61 hum=82.69 prs=1016.11 Log=143290 Err=0
id=790951 time=14.11.2019 08:04:44 Vmax=2.8 Vmin=2 Vmid=2.3 Napr=45 uakb=12.46 usb=0 temp=-15.61 hum=82.69 prs=1016.07 Log=143289 Err=0
id=790950 time=14.11.2019 08:03:35 Vmax=2.9 Vmin=2.3 Vmid=2.6 Napr=46 uakb=12.48 usb=0 temp=-15.61 hum=82.69 prs=1016.04 Log=143288 Err=0
id=790949 time=14.11.2019 08:02:26 Vmax=3.7 Vmin=2.5 Vmid=2.9 Napr=48 uakb=12.48 usb=0 temp=-15.6 hum=82.68 prs=1016.06 Log=143287 Err=0
id=790948 time=14.11.2019 08:01:15 Vmax=4.1 Vmin=2.5 Vmid=3.3 Napr=49 uakb=12.48 usb=0 temp=-15.59 hum=82.67 prs=1016.07 Log=143286 Err=0
id=790947 time=14.11.2019 08:00:06 Vmax=4 Vmin=1.9 Vmid=3.2 Napr=47 uakb=12.48 usb=0 temp=-15.57 hum=82.67 prs=1016.07 Log=143285 Err=0
id=790946 time=14.11.2019 07:58:57 Vmax=4.3 Vmin=3.3 Vmid=3.7 Napr=43 uakb=12.48 usb=0 temp=-15.55 hum=82.7 prs=1016.04 Log=143284 Err=0
id=790945 time=14.11.2019 07:57:47 Vmax=3.3 Vmin=2.6 Vmid=2.9 Napr=47 uakb=12.48 usb=0 temp=-15.55 hum=82.68 prs=1016.03 Log=143283 Err=0
id=790944 time=14.11.2019 07:56:37 Vmax=2.7 Vmin=2.3 Vmid=2.5 Napr=45 uakb=12.48 usb=0 temp=-15.55 hum=82.67 prs=1016 Log=143282 Err=0
id=790943 time=14.11.2019 07:55:28 Vmax=3.3 Vmin=1.5 Vmid=2.6 Napr=49 uakb=12.48 usb=0 temp=-15.54 hum=82.69 prs=1016.04 Log=143281 Err=0
id=790942 time=14.11.2019 07:54:18 Vmax=3.5 Vmin=2.6 Vmid=3 Napr=49 uakb=12.48 usb=0 temp=-15.53 hum=82.69 prs=1016.06 Log=143280 Err=0
id=790941 time=14.11.2019 07:53:08 Vmax=4.2 Vmin=3.5 Vmid=3.7 Napr=43 uakb=12.48 usb=0 temp=-15.53 hum=82.71 prs=1016.08 Log=143279 Err=0
id=790940 time=14.11.2019 07:51:59 Vmax=3 Vmin=2.1 Vmid=2.6 Napr=46 uakb=12.48 usb=0 temp=-15.53 hum=82.7 prs=1016.01 Log=143278 Err=0
id=790939 time=14.11.2019 07:50:50 Vmax=3.2 Vmin=2 Vmid=2.5 Napr=49 uakb=12.48 usb=0 temp=-15.53 hum=82.71 prs=1016.05 Log=143277 Err=0
id=790938 time=14.11.2019 07:49:40 Vmax=3.3 Vmin=2.2 Vmid=2.7 Napr=48 uakb=12.48 usb=0 temp=-15.52 hum=82.7 prs=1016.04 Log=143276 Err=0
id=790937 time=14.11.2019 07:48:31 Vmax=3.2 Vmin=2.2 Vmid=2.7 Napr=51 uakb=12.48 usb=0 temp=-15.52 hum=82.72 prs=1016 Log=143275 Err=0
id=790936 time=14.11.2019 07:47:21 Vmax=3.6 Vmin=1.6 Vmid=2.5 Napr=49 uakb=12.48 usb=0 temp=-15.52 hum=82.71 prs=1015.96 Log=143274 Err=0
id=790935 time=14.11.2019 07:46:12 Vmax=4.2 Vmin=3 Vmid=3.5 Napr=45 uakb=12.48 usb=0 temp=-15.52 hum=82.71 prs=1015.96 Log=143273 Err=0
id=790934 time=14.11.2019 07:45:02 Vmax=3.9 Vmin=2.9 Vmid=3.4 Napr=47 uakb=12.48 usb=0 temp=-15.53 hum=82.71 prs=1015.98 Log=143272 Err=0
id=790933 time=14.11.2019 07:43:52 Vmax=3.4 Vmin=1.5 Vmid=2.8 Napr=48 uakb=12.48 usb=0 temp=-15.52 hum=82.71 prs=1015.93 Log=143271 Err=0
id=790932 time=14.11.2019 07:42:43 Vmax=3.2 Vmin=2.3 Vmid=2.7 Napr=47 uakb=12.48 usb=0 temp=-15.51 hum=82.72 prs=1015.94 Log=143270 Err=0
id=790931 time=14.11.2019 07:41:33 Vmax=4 Vmin=2.5 Vmid=2.9 Napr=49 uakb=12.48 usb=0 temp=-15.5 hum=82.7 prs=1015.91 Log=143269 Err=0
id=790930 time=14.11.2019 07:40:24 Vmax=3.7 Vmin=3 Vmid=3.3 Napr=49 uakb=12.48 usb=0 temp=-15.5 hum=82.73 prs=1015.91 Log=143268 Err=0
id=790929 time=14.11.2019 07:39:14 Vmax=4.1 Vmin=2.9 Vmid=3.5 Napr=50 uakb=12.48 usb=0 temp=-15.47 hum=82.71 prs=1015.9 Log=143267 Err=0
id=790928 time=14.11.2019 07:38:05 Vmax=4.3 Vmin=2.3 Vmid=3.2 Napr=48 uakb=12.5 usb=0 temp=-15.46 hum=82.73 prs=1015.91 Log=143266 Err=0
id=790927 time=14.11.2019 07:36:55 Vmax=3.4 Vmin=2.8 Vmid=3 Napr=48 uakb=12.48 usb=0 temp=-15.45 hum=82.71 prs=1015.88 Log=143265 Err=0
id=790926 time=14.11.2019 07:35:46 Vmax=4.6 Vmin=3.2 Vmid=3.9 Napr=54 uakb=12.48 usb=0 temp=-15.43 hum=82.72 prs=1015.87 Log=143264 Err=0
id=790925 time=14.11.2019 07:34:36 Vmax=4.7 Vmin=3 Vmid=3.7 Napr=42 uakb=12.48 usb=0 temp=-15.42 hum=82.72 prs=1015.84 Log=143263 Err=0
id=790924 time=14.11.2019 07:33:27 Vmax=3.7 Vmin=2.9 Vmid=3.3 Napr=37 uakb=12.5 usb=0 temp=-15.39 hum=82.72 prs=1015.85 Log=143262 Err=0
id=790923 time=14.11.2019 07:32:17 Vmax=5.8 Vmin=3.5 Vmid=4.9 Napr=46 uakb=12.48 usb=0 temp=-15.37 hum=82.73 prs=1015.83 Log=143261 Err=0
id=790922 time=14.11.2019 07:31:07 Vmax=4 Vmin=3 Vmid=3.6 Napr=45 uakb=12.48 usb=0 temp=-15.36 hum=82.75 prs=1015.84 Log=143260 Err=0
id=790921 time=14.11.2019 07:29:58 Vmax=5.4 Vmin=4 Vmid=4.6 Napr=44 uakb=12.48 usb=0 temp=-15.34 hum=82.75 prs=1015.84 Log=143259 Err=0
id=790920 time=14.11.2019 07:28:48 Vmax=4 Vmin=3.2 Vmid=3.6 Napr=44 uakb=12.48 usb=0 temp=-15.34 hum=82.75 prs=1015.81 Log=143258 Err=0
id=790919 time=14.11.2019 07:27:39 Vmax=4.6 Vmin=3 Vmid=3.6 Napr=47 uakb=12.5 usb=0 temp=-15.33 hum=82.74 prs=1015.82 Log=143257 Err=0
id=790918 time=14.11.2019 07:26:29 Vmax=4.8 Vmin=3.2 Vmid=4 Napr=48 uakb=12.5 usb=0 temp=-15.32 hum=82.75 prs=1015.8 Log=143256 Err=0
id=790917 time=14.11.2019 07:25:21 Vmax=4.7 Vmin=3.5 Vmid=4 Napr=47 uakb=12.5 usb=0 temp=-15.3 hum=82.76 prs=1015.78 Log=143255 Err=0
id=790916 time=14.11.2019 07:24:10 Vmax=3.9 Vmin=2.8 Vmid=3.4 Napr=51 uakb=12.48 usb=0 temp=-15.29 hum=82.76 prs=1015.72 Log=143254 Err=0
id=790915 time=14.11.2019 07:23:01 Vmax=4.2 Vmin=3.2 Vmid=3.6 Napr=45 uakb=12.48 usb=0 temp=-15.31 hum=82.75 prs=1015.71 Log=143253 Err=0
id=790914 time=14.11.2019 07:21:51 Vmax=4.1 Vmin=3.2 Vmid=3.6 Napr=46 uakb=12.48 usb=0 temp=-15.3 hum=82.76 prs=1015.77 Log=143252 Err=0
id=790913 time=14.11.2019 07:20:41 Vmax=4.8 Vmin=3.5 Vmid=4.2 Napr=46 uakb=12.5 usb=0 temp=-15.28 hum=82.76 prs=1015.77 Log=143251 Err=0
id=790912 time=14.11.2019 07:19:32 Vmax=4.4 Vmin=3.5 Vmid=3.9 Napr=44 uakb=12.5 usb=0 temp=-15.28 hum=82.79 prs=1015.76 Log=143250 Err=0
id=790911 time=14.11.2019 07:18:23 Vmax=4 Vmin=3 Vmid=3.5 Napr=48 uakb=12.48 usb=0 temp=-15.28 hum=82.77 prs=1015.75 Log=143249 Err=0
id=790910 time=14.11.2019 07:17:12 Vmax=4.9 Vmin=3.2 Vmid=3.9 Napr=44 uakb=12.48 usb=0 temp=-15.28 hum=82.76 prs=1015.76 Log=143248 Err=0
id=790909 time=14.11.2019 07:16:04 Vmax=4.1 Vmin=3 Vmid=3.5 Napr=47 uakb=12.48 usb=0 temp=-15.29 hum=82.78 prs=1015.76 Log=143247 Err=0
id=790908 time=14.11.2019 07:14:54 Vmax=4.2 Vmin=3.3 Vmid=3.7 Napr=46 uakb=12.48 usb=0 temp=-15.31 hum=82.77 prs=1015.79 Log=143246 Err=0
id=790907 time=14.11.2019 07:13:44 Vmax=4.8 Vmin=4.1 Vmid=4.3 Napr=49 uakb=12.5 usb=0 temp=-15.29 hum=82.77 prs=1015.75 Log=143245 Err=0
id=790906 time=14.11.2019 07:12:35 Vmax=4.9 Vmin=3.6 Vmid=4.2 Napr=48 uakb=12.5 usb=0 temp=-15.28 hum=82.76 prs=1015.75 Log=143244 Err=0
id=790905 time=14.11.2019 07:11:25 Vmax=4.9 Vmin=3.4 Vmid=4.1 Napr=49 uakb=12.5 usb=0 temp=-15.3 hum=82.78 prs=1015.74 Log=143243 Err=0
id=790904 time=14.11.2019 07:10:15 Vmax=3.9 Vmin=2.9 Vmid=3.4 Napr=48 uakb=12.5 usb=0 temp=-15.29 hum=82.77 prs=1015.7 Log=143242 Err=0
id=790903 time=14.11.2019 07:09:05 Vmax=5 Vmin=3.6 Vmid=4.2 Napr=49 uakb=12.5 usb=0 temp=-15.28 hum=82.77 prs=1015.68 Log=143241 Err=0
id=790902 time=14.11.2019 07:07:56 Vmax=4.1 Vmin=2.1 Vmid=3.4 Napr=50 uakb=12.5 usb=0 temp=-15.26 hum=82.79 prs=1015.65 Log=143240 Err=0
id=790901 time=14.11.2019 07:06:46 Vmax=4.7 Vmin=3 Vmid=3.7 Napr=55 uakb=12.5 usb=0 temp=-15.26 hum=82.78 prs=1015.6 Log=143239 Err=0
id=790900 time=14.11.2019 07:05:37 Vmax=4.9 Vmin=3.3 Vmid=4 Napr=45 uakb=12.5 usb=0 temp=-15.26 hum=82.79 prs=1015.68 Log=143238 Err=0
id=790899 time=14.11.2019 07:04:28 Vmax=4 Vmin=2.8 Vmid=3.3 Napr=47 uakb=12.5 usb=0 temp=-15.24 hum=82.78 prs=1015.67 Log=143237 Err=0
id=790898 time=14.11.2019 07:03:18 Vmax=4.6 Vmin=2.8 Vmid=3.4 Napr=46 uakb=12.5 usb=0 temp=-15.23 hum=82.78 prs=1015.64 Log=143236 Err=0
id=790897 time=14.11.2019 07:02:08 Vmax=5.5 Vmin=3.5 Vmid=4.4 Napr=47 uakb=12.5 usb=0 temp=-15.2 hum=82.8 prs=1015.66 Log=143235 Err=0
id=790896 time=14.11.2019 07:00:59 Vmax=4.1 Vmin=2.8 Vmid=3.4 Napr=46 uakb=12.5 usb=0 temp=-15.2 hum=82.78 prs=1015.65 Log=143234 Err=0
id=790895 time=14.11.2019 06:59:50 Vmax=4.2 Vmin=2.6 Vmid=3.4 Napr=43 uakb=12.48 usb=0 temp=-15.19 hum=82.79 prs=1015.6 Log=143233 Err=0
id=790894 time=14.11.2019 06:58:40 Vmax=4.2 Vmin=3.6 Vmid=3.9 Napr=47 uakb=12.5 usb=0 temp=-15.19 hum=82.8 prs=1015.6 Log=143232 Err=0
id=790893 time=14.11.2019 06:57:30 Vmax=4.1 Vmin=2.8 Vmid=3.4 Napr=50 uakb=12.48 usb=0 temp=-15.17 hum=82.79 prs=1015.59 Log=143231 Err=0
id=790892 time=14.11.2019 06:56:21 Vmax=4.1 Vmin=3.3 Vmid=3.6 Napr=47 uakb=12.5 usb=0 temp=-15.15 hum=82.8 prs=1015.61 Log=143230 Err=0
id=790891 time=14.11.2019 06:55:11 Vmax=5.2 Vmin=3.3 Vmid=4.3 Napr=44 uakb=12.5 usb=0 temp=-15.13 hum=82.81 prs=1015.6 Log=143229 Err=0
id=790890 time=14.11.2019 06:54:01 Vmax=4.4 Vmin=2.9 Vmid=3.7 Napr=45 uakb=12.5 usb=0 temp=-15.12 hum=82.81 prs=1015.58 Log=143228 Err=0
id=790889 time=14.11.2019 06:52:52 Vmax=3.9 Vmin=3 Vmid=3.3 Napr=49 uakb=12.5 usb=0 temp=-15.11 hum=82.83 prs=1015.59 Log=143227 Err=0
id=790888 time=14.11.2019 06:51:43 Vmax=3.9 Vmin=2.8 Vmid=3.3 Napr=49 uakb=12.5 usb=0 temp=-15.14 hum=82.81 prs=1015.57 Log=143226 Err=0
id=790887 time=14.11.2019 06:50:33 Vmax=3.9 Vmin=3 Vmid=3.4 Napr=50 uakb=12.5 usb=0 temp=-15.13 hum=82.81 prs=1015.59 Log=143225 Err=0
id=790886 time=14.11.2019 06:49:23 Vmax=5.1 Vmin=3.3 Vmid=4 Napr=41 uakb=12.5 usb=0 temp=-15.13 hum=82.81 prs=1015.58 Log=143224 Err=0
id=790885 time=14.11.2019 06:48:14 Vmax=5.1 Vmin=3.6 Vmid=4.1 Napr=40 uakb=12.5 usb=0 temp=-15.12 hum=82.83 prs=1015.57 Log=143223 Err=0
id=790884 time=14.11.2019 06:47:04 Vmax=4.2 Vmin=2.5 Vmid=3.4 Napr=44 uakb=12.5 usb=0 temp=-15.12 hum=82.81 prs=1015.6 Log=143222 Err=0
id=790883 time=14.11.2019 06:45:55 Vmax=4.3 Vmin=2.6 Vmid=3.5 Napr=48 uakb=12.5 usb=0 temp=-15.12 hum=82.81 prs=1015.57 Log=143221 Err=0
id=790882 time=14.11.2019 06:44:45 Vmax=2.9 Vmin=1.9 Vmid=2.2 Napr=51 uakb=12.5 usb=0 temp=-15.11 hum=82.82 prs=1015.59 Log=143220 Err=0
id=790881 time=14.11.2019 06:43:35 Vmax=3 Vmin=1.9 Vmid=2.5 Napr=49 uakb=12.5 usb=0 temp=-15.1 hum=82.83 prs=1015.61 Log=143219 Err=0
id=790880 time=14.11.2019 06:42:26 Vmax=3.9 Vmin=3 Vmid=3.5 Napr=43 uakb=12.5 usb=0 temp=-15.11 hum=82.83 prs=1015.59 Log=143218 Err=0
id=790879 time=14.11.2019 06:41:16 Vmax=3.9 Vmin=2.1 Vmid=2.9 Napr=44 uakb=12.5 usb=0 temp=-15.11 hum=82.81 prs=1015.61 Log=143217 Err=0
id=790878 time=14.11.2019 06:40:07 Vmax=4 Vmin=2.6 Vmid=3.4 Napr=48 uakb=12.5 usb=0 temp=-15.1 hum=82.8 prs=1015.64 Log=143216 Err=0
id=790877 time=14.11.2019 06:38:57 Vmax=4.9 Vmin=2.2 Vmid=3.4 Napr=45 uakb=12.5 usb=0 temp=-15.09 hum=82.82 prs=1015.63 Log=143215 Err=0
id=790876 time=14.11.2019 06:37:48 Vmax=5 Vmin=3.3 Vmid=3.9 Napr=47 uakb=12.5 usb=0 temp=-15.07 hum=82.83 prs=1015.64 Log=143214 Err=0
id=790875 time=14.11.2019 06:36:38 Vmax=4.3 Vmin=3.5 Vmid=3.7 Napr=48 uakb=12.5 usb=0 temp=-15.05 hum=82.84 prs=1015.65 Log=143213 Err=0
id=790874 time=14.11.2019 06:35:29 Vmax=3.5 Vmin=1.9 Vmid=2.9 Napr=51 uakb=12.5 usb=0 temp=-15.04 hum=82.84 prs=1015.63 Log=143212 Err=0
id=790873 time=14.11.2019 06:34:19 Vmax=2.9 Vmin=2 Vmid=2.5 Napr=50 uakb=12.5 usb=0 temp=-15.03 hum=82.85 prs=1015.64 Log=143211 Err=0
id=790872 time=14.11.2019 06:33:10 Vmax=3.5 Vmin=2.3 Vmid=2.8 Napr=45 uakb=12.5 usb=0 temp=-15.02 hum=82.82 prs=1015.62 Log=143210 Err=0
id=790871 time=14.11.2019 06:32:00 Vmax=3.7 Vmin=3.4 Vmid=3.5 Napr=48 uakb=12.52 usb=0 temp=-15 hum=82.85 prs=1015.63 Log=143209 Err=0
id=790870 time=14.11.2019 06:30:51 Vmax=3.6 Vmin=2.5 Vmid=3 Napr=49 uakb=12.52 usb=0 temp=-15 hum=82.86 prs=1015.59 Log=143208 Err=0
id=790869 time=14.11.2019 06:29:42 Vmax=2.6 Vmin=2.1 Vmid=2.3 Napr=47 uakb=12.52 usb=0 temp=-15 hum=82.86 prs=1015.56 Log=143207 Err=0
id=790868 time=14.11.2019 06:28:31 Vmax=3 Vmin=2.2 Vmid=2.6 Napr=49 uakb=12.52 usb=0 temp=-14.99 hum=82.84 prs=1015.54 Log=143206 Err=0
id=790867 time=14.11.2019 06:27:22 Vmax=3.3 Vmin=1.9 Vmid=2.5 Napr=45 uakb=12.52 usb=0 temp=-14.97 hum=82.86 prs=1015.52 Log=143205 Err=0
id=790866 time=14.11.2019 06:26:12 Vmax=4.1 Vmin=2.6 Vmid=3.4 Napr=47 uakb=12.52 usb=0 temp=-14.97 hum=82.87 prs=1015.49 Log=143204 Err=0
id=790865 time=14.11.2019 06:25:03 Vmax=3.7 Vmin=2.7 Vmid=3.3 Napr=47 uakb=12.5 usb=0 temp=-14.98 hum=82.86 prs=1015.47 Log=143203 Err=0
id=790864 time=14.11.2019 06:23:53 Vmax=4.2 Vmin=3 Vmid=3.3 Napr=48 uakb=12.52 usb=0 temp=-14.99 hum=82.88 prs=1015.47 Log=143202 Err=0
id=790863 time=14.11.2019 06:22:44 Vmax=4.2 Vmin=2.9 Vmid=3.6 Napr=50 uakb=12.5 usb=0 temp=-15 hum=82.87 prs=1015.44 Log=143201 Err=0
id=790862 time=14.11.2019 06:21:34 Vmax=4 Vmin=3.3 Vmid=3.5 Napr=51 uakb=12.5 usb=0 temp=-15 hum=82.85 prs=1015.43 Log=143200 Err=0
id=790861 time=14.11.2019 06:20:24 Vmax=3.6 Vmin=1.5 Vmid=2.3 Napr=55 uakb=12.52 usb=0 temp=-14.99 hum=82.87 prs=1015.37 Log=143199 Err=0
id=790860 time=14.11.2019 06:19:15 Vmax=3.3 Vmin=2.2 Vmid=2.8 Napr=52 uakb=12.5 usb=0 temp=-14.99 hum=82.86 prs=1015.36 Log=143198 Err=0
id=790859 time=14.11.2019 06:16:56 Vmax=3.4 Vmin=2.8 Vmid=3 Napr=52 uakb=12.52 usb=0 temp=-15 hum=82.86 prs=1015.41 Log=143196 Err=0
id=790858 time=14.11.2019 06:15:47 Vmax=3.3 Vmin=1.6 Vmid=2.3 Napr=51 uakb=12.52 usb=0 temp=-14.99 hum=82.86 prs=1015.44 Log=143195 Err=0
id=790857 time=14.11.2019 06:14:38 Vmax=5 Vmin=2.2 Vmid=3.7 Napr=46 uakb=12.52 usb=0 temp=-14.99 hum=82.88 prs=1015.49 Log=143194 Err=0
id=790856 time=14.11.2019 06:13:28 Vmax=2.8 Vmin=2.2 Vmid=2.5 Napr=43 uakb=12.52 usb=0 temp=-14.99 hum=82.88 prs=1015.46 Log=143193 Err=0
id=790855 time=14.11.2019 06:12:18 Vmax=3.7 Vmin=2.8 Vmid=3.4 Napr=43 uakb=12.52 usb=0 temp=-15.03 hum=82.88 prs=1015.49 Log=143192 Err=0
id=790854 time=14.11.2019 06:11:09 Vmax=4.2 Vmin=2.8 Vmid=3.3 Napr=45 uakb=12.52 usb=0 temp=-15.06 hum=82.87 prs=1015.47 Log=143191 Err=0
id=790853 time=14.11.2019 06:09:59 Vmax=3.3 Vmin=2.8 Vmid=3 Napr=48 uakb=12.52 usb=0 temp=-15.06 hum=82.88 prs=1015.47 Log=143190 Err=0
id=790852 time=14.11.2019 06:08:49 Vmax=2.5 Vmin=1.9 Vmid=2.1 Napr=49 uakb=12.52 usb=0 temp=-15.07 hum=82.86 prs=1015.46 Log=143189 Err=0
id=790851 time=14.11.2019 06:07:40 Vmax=3 Vmin=1.3 Vmid=2.1 Napr=47 uakb=12.52 usb=0 temp=-15.07 hum=82.85 prs=1015.45 Log=143188 Err=0
id=790850 time=14.11.2019 06:06:30 Vmax=2 Vmin=1.1 Vmid=1.3 Napr=45 uakb=12.52 usb=0 temp=-15.04 hum=82.86 prs=1015.43 Log=143187 Err=0
id=790849 time=14.11.2019 06:05:21 Vmax=2.8 Vmin=1.5 Vmid=2 Napr=45 uakb=12.52 usb=0 temp=-15.03 hum=82.87 prs=1015.44 Log=143186 Err=0
id=790848 time=14.11.2019 06:04:12 Vmax=2.2 Vmin=1.8 Vmid=1.9 Napr=45 uakb=12.52 usb=0 temp=-15.02 hum=82.88 prs=1015.43 Log=143185 Err=0
id=790847 time=14.11.2019 06:03:02 Vmax=2.7 Vmin=2.2 Vmid=2.5 Napr=45 uakb=12.52 usb=0 temp=-15.02 hum=82.88 prs=1015.44 Log=143184 Err=0
id=790846 time=14.11.2019 06:01:52 Vmax=3.5 Vmin=2 Vmid=2.9 Napr=47 uakb=12.52 usb=0 temp=-15.04 hum=82.89 prs=1015.43 Log=143183 Err=0
id=790845 time=14.11.2019 06:00:42 Vmax=3.3 Vmin=1.9 Vmid=2.6 Napr=49 uakb=12.52 usb=0 temp=-15.06 hum=82.88 prs=1015.4 Log=143182 Err=0
id=790844 time=14.11.2019 05:59:33 Vmax=1.9 Vmin=1.3 Vmid=1.6 Napr=45 uakb=12.54 usb=0 temp=-15.09 hum=82.88 prs=1015.42 Log=143181 Err=0
id=790843 time=14.11.2019 05:58:23 Vmax=3.2 Vmin=2 Vmid=2.5 Napr=49 uakb=12.52 usb=0 temp=-15.11 hum=82.87 prs=1015.38 Log=143180 Err=0
id=790842 time=14.11.2019 05:57:14 Vmax=3.9 Vmin=2.2 Vmid=2.9 Napr=58 uakb=12.52 usb=0 temp=-15.11 hum=82.87 prs=1015.37 Log=143179 Err=0
id=790841 time=14.11.2019 05:56:04 Vmax=3.6 Vmin=2.2 Vmid=2.9 Napr=60 uakb=12.52 usb=0 temp=-15.13 hum=82.88 prs=1015.39 Log=143178 Err=0
id=790840 time=14.11.2019 05:54:55 Vmax=2.1 Vmin=1.6 Vmid=1.8 Napr=70 uakb=12.54 usb=0 temp=-15.16 hum=82.86 prs=1015.35 Log=143177 Err=0
id=790839 time=14.11.2019 05:53:46 Vmax=2.3 Vmin=1.2 Vmid=1.9 Napr=63 uakb=12.52 usb=0 temp=-15.15 hum=82.86 prs=1015.38 Log=143176 Err=0
id=790838 time=14.11.2019 05:52:36 Vmax=2.9 Vmin=0.9 Vmid=1.8 Napr=62 uakb=12.52 usb=0 temp=-15.13 hum=82.87 prs=1015.38 Log=143175 Err=0
id=790837 time=14.11.2019 05:51:26 Vmax=2.3 Vmin=1.3 Vmid=1.8 Napr=61 uakb=12.52 usb=0 temp=-15.11 hum=82.87 prs=1015.38 Log=143174 Err=0
id=790836 time=14.11.2019 05:50:16 Vmax=3.3 Vmin=1.2 Vmid=2.1 Napr=54 uakb=12.52 usb=0 temp=-15.1 hum=82.86 prs=1015.35 Log=143173 Err=0
id=790835 time=14.11.2019 05:49:07 Vmax=2.3 Vmin=0.9 Vmid=1.4 Napr=53 uakb=12.52 usb=0 temp=-15.1 hum=82.88 prs=1015.4 Log=143172 Err=0
id=790834 time=14.11.2019 05:47:58 Vmax=1.9 Vmin=1.1 Vmid=1.3 Napr=52 uakb=12.54 usb=0 temp=-15.09 hum=82.88 prs=1015.39 Log=143171 Err=0
id=790833 time=14.11.2019 05:46:48 Vmax=3.4 Vmin=2.2 Vmid=2.7 Napr=49 uakb=12.52 usb=0 temp=-15.1 hum=82.89 prs=1015.38 Log=143170 Err=0
id=790832 time=14.11.2019 05:45:38 Vmax=2.8 Vmin=1.4 Vmid=2 Napr=53 uakb=12.54 usb=0 temp=-15.12 hum=82.88 prs=1015.38 Log=143169 Err=0
id=790831 time=14.11.2019 05:44:29 Vmax=2.8 Vmin=1.5 Vmid=2 Napr=59 uakb=12.54 usb=0 temp=-15.13 hum=82.87 prs=1015.38 Log=143168 Err=0
id=790830 time=14.11.2019 05:43:19 Vmax=2.8 Vmin=0.9 Vmid=1.9 Napr=62 uakb=12.54 usb=0 temp=-15.15 hum=82.89 prs=1015.34 Log=143167 Err=0
id=790829 time=14.11.2019 05:42:09 Vmax=2.3 Vmin=1.1 Vmid=1.8 Napr=67 uakb=12.54 usb=0 temp=-15.16 hum=82.88 prs=1015.32 Log=143166 Err=0
id=790828 time=14.11.2019 05:41:00 Vmax=2.6 Vmin=1.6 Vmid=2 Napr=63 uakb=12.54 usb=0 temp=-15.16 hum=82.87 prs=1015.32 Log=143165 Err=0
id=790827 time=14.11.2019 05:39:51 Vmax=2.6 Vmin=1.1 Vmid=1.8 Napr=69 uakb=12.54 usb=0 temp=-15.14 hum=82.87 prs=1015.3 Log=143164 Err=0
id=790826 time=14.11.2019 05:38:41 Vmax=2.1 Vmin=1.2 Vmid=1.5 Napr=70 uakb=12.54 usb=0 temp=-15.11 hum=82.87 prs=1015.32 Log=143163 Err=0
id=790825 time=14.11.2019 05:37:32 Vmax=2.9 Vmin=0.9 Vmid=1.8 Napr=70 uakb=12.54 usb=0 temp=-15.09 hum=82.89 prs=1015.35 Log=143162 Err=0
id=790824 time=14.11.2019 05:36:22 Vmax=2.2 Vmin=0.9 Vmid=1.4 Napr=68 uakb=12.52 usb=0 temp=-15.09 hum=82.9 prs=1015.38 Log=143161 Err=0
id=790823 time=14.11.2019 05:35:12 Vmax=3 Vmin=1.9 Vmid=2.3 Napr=69 uakb=12.52 usb=0 temp=-15.07 hum=82.9 prs=1015.38 Log=143160 Err=0
id=790822 time=14.11.2019 05:34:03 Vmax=2 Vmin=1.3 Vmid=1.5 Napr=71 uakb=12.52 usb=0 temp=-15.05 hum=82.89 prs=1015.37 Log=143159 Err=0
id=790821 time=14.11.2019 05:32:53 Vmax=2.7 Vmin=1.2 Vmid=2 Napr=70 uakb=12.54 usb=0 temp=-15.03 hum=82.89 prs=1015.32 Log=143158 Err=0
id=790820 time=14.11.2019 05:31:43 Vmax=1.8 Vmin=1.3 Vmid=1.5 Napr=70 uakb=12.52 usb=0 temp=-15.01 hum=82.9 prs=1015.31 Log=143157 Err=0
id=790819 time=14.11.2019 05:30:34 Vmax=2.5 Vmin=1.6 Vmid=2 Napr=70 uakb=12.54 usb=0 temp=-15 hum=82.9 prs=1015.28 Log=143156 Err=0
id=790818 time=14.11.2019 05:29:25 Vmax=2.2 Vmin=1.6 Vmid=1.9 Napr=70 uakb=12.54 usb=0 temp=-14.98 hum=82.91 prs=1015.26 Log=143155 Err=0
id=790817 time=14.11.2019 05:28:15 Vmax=2.3 Vmin=1.2 Vmid=1.6 Napr=64 uakb=12.54 usb=0 temp=-14.96 hum=82.93 prs=1015.29 Log=143154 Err=0
id=790816 time=14.11.2019 05:27:05 Vmax=2.7 Vmin=2 Vmid=2.3 Napr=64 uakb=12.54 usb=0 temp=-14.96 hum=82.91 prs=1015.24 Log=143153 Err=0
id=790815 time=14.11.2019 05:25:56 Vmax=3.4 Vmin=1.5 Vmid=2.7 Napr=59 uakb=12.54 usb=0 temp=-14.95 hum=82.93 prs=1015.3 Log=143152 Err=0
id=790814 time=14.11.2019 05:24:46 Vmax=2.7 Vmin=2 Vmid=2.5 Napr=55 uakb=12.54 usb=0 temp=-14.94 hum=82.92 prs=1015.27 Log=143151 Err=0
id=790813 time=14.11.2019 05:23:36 Vmax=2.6 Vmin=1.2 Vmid=1.5 Napr=46 uakb=12.54 usb=0 temp=-14.94 hum=82.92 prs=1015.25 Log=143150 Err=0
id=790812 time=14.11.2019 05:22:28 Vmax=3.2 Vmin=1.4 Vmid=2.1 Napr=48 uakb=12.54 usb=0 temp=-14.95 hum=82.93 prs=1015.24 Log=143149 Err=0
id=790811 time=14.11.2019 05:21:18 Vmax=2.8 Vmin=1.9 Vmid=2.3 Napr=55 uakb=12.54 usb=0 temp=-14.96 hum=82.94 prs=1015.25 Log=143148 Err=0
id=790810 time=14.11.2019 05:20:08 Vmax=1.8 Vmin=0.9 Vmid=1.3 Napr=55 uakb=12.54 usb=0 temp=-14.96 hum=82.93 prs=1015.24 Log=143147 Err=0
id=790809 time=14.11.2019 05:18:59 Vmax=3 Vmin=1.6 Vmid=2.1 Napr=55 uakb=12.52 usb=0 temp=-14.96 hum=82.93 prs=1015.23 Log=143146 Err=0
id=790808 time=14.11.2019 05:17:49 Vmax=2.5 Vmin=0.9 Vmid=1.4 Napr=57 uakb=12.54 usb=0 temp=-14.96 hum=82.94 prs=1015.22 Log=143145 Err=0
id=790807 time=14.11.2019 05:16:40 Vmax=2.3 Vmin=1.5 Vmid=1.8 Napr=64 uakb=12.54 usb=0 temp=-14.96 hum=82.94 prs=1015.25 Log=143144 Err=0
id=790806 time=14.11.2019 05:15:30 Vmax=2.6 Vmin=2.3 Vmid=2.5 Napr=53 uakb=12.54 usb=0 temp=-14.95 hum=82.92 prs=1015.24 Log=143143 Err=0
id=790805 time=14.11.2019 05:14:21 Vmax=2.3 Vmin=1.5 Vmid=2 Napr=51 uakb=12.54 usb=0 temp=-14.95 hum=82.94 prs=1015.24 Log=143142 Err=0
id=790804 time=14.11.2019 05:13:10 Vmax=2.9 Vmin=1.5 Vmid=2 Napr=51 uakb=12.54 usb=0 temp=-14.96 hum=82.95 prs=1015.24 Log=143141 Err=0
id=790803 time=14.11.2019 05:12:01 Vmax=3.4 Vmin=1.3 Vmid=2.1 Napr=54 uakb=12.54 usb=0 temp=-14.97 hum=82.94 prs=1015.2 Log=143140 Err=0
id=790802 time=14.11.2019 05:10:52 Vmax=2.7 Vmin=1.9 Vmid=2.2 Napr=60 uakb=12.54 usb=0 temp=-14.96 hum=82.95 prs=1015.22 Log=143139 Err=0
id=790801 time=14.11.2019 05:09:42 Vmax=1.3 Vmin=1.1 Vmid=1.2 Napr=71 uakb=12.54 usb=0 temp=-14.96 hum=82.95 prs=1015.22 Log=143138 Err=0
id=790800 time=14.11.2019 05:08:33 Vmax=2.5 Vmin=0.7 Vmid=1.6 Napr=65 uakb=12.54 usb=0 temp=-14.94 hum=82.93 prs=1015.25 Log=143137 Err=0
id=790799 time=14.11.2019 05:07:23 Vmax=3.2 Vmin=0.7 Vmid=1.8 Napr=49 uakb=12.54 usb=0 temp=-14.91 hum=82.94 prs=1015.25 Log=143136 Err=0
id=790798 time=14.11.2019 05:06:13 Vmax=1.5 Vmin=0.9 Vmid=1.2 Napr=47 uakb=12.54 usb=0 temp=-14.89 hum=82.96 prs=1015.22 Log=143135 Err=0
id=790797 time=14.11.2019 05:05:04 Vmax=2 Vmin=0.9 Vmid=1.4 Napr=47 uakb=12.54 usb=0 temp=-14.87 hum=82.96 prs=1015.22 Log=143134 Err=0
id=790796 time=14.11.2019 05:03:54 Vmax=1.8 Vmin=1.1 Vmid=1.3 Napr=47 uakb=12.56 usb=0 temp=-14.85 hum=82.95 prs=1015.16 Log=143133 Err=0
id=790795 time=14.11.2019 05:02:45 Vmax=2.6 Vmin=1.3 Vmid=2 Napr=47 uakb=12.54 usb=0 temp=-14.83 hum=82.96 prs=1015.14 Log=143132 Err=0
id=790794 time=14.11.2019 05:01:35 Vmax=1.2 Vmin=0.4 Vmid=0.6 Napr=47 uakb=12.54 usb=0 temp=-14.8 hum=82.97 prs=1015.2 Log=143131 Err=0
id=790793 time=14.11.2019 05:00:26 Vmax=1.4 Vmin=0.7 Vmid=0.9 Napr=47 uakb=12.56 usb=0 temp=-14.78 hum=82.97 prs=1015.2 Log=143130 Err=0
id=790792 time=14.11.2019 04:59:16 Vmax=2.2 Vmin=1.5 Vmid=1.9 Napr=47 uakb=12.54 usb=0 temp=-14.78 hum=82.98 prs=1015.2 Log=143129 Err=0
id=790791 time=14.11.2019 04:58:06 Vmax=1.3 Vmin=0.6 Vmid=0.8 Napr=47 uakb=12.56 usb=0 temp=-14.78 hum=82.97 prs=1015.16 Log=143128 Err=0
id=790790 time=14.11.2019 04:56:57 Vmax=1.9 Vmin=1.1 Vmid=1.3 Napr=47 uakb=12.56 usb=0 temp=-14.77 hum=82.99 prs=1015.16 Log=143127 Err=0
id=790789 time=14.11.2019 04:54:39 Vmax=2.8 Vmin=0.8 Vmid=1.6 Napr=55 uakb=12.54 usb=0 temp=-14.8 hum=83 prs=1015.21 Log=143125 Err=0
id=790788 time=14.11.2019 04:53:29 Vmax=2.6 Vmin=1.3 Vmid=1.5 Napr=60 uakb=12.54 usb=0 temp=-14.81 hum=82.99 prs=1015.24 Log=143124 Err=0
id=790787 time=14.11.2019 04:52:19 Vmax=1.8 Vmin=0.8 Vmid=1.3 Napr=57 uakb=12.56 usb=0 temp=-14.81 hum=82.99 prs=1015.23 Log=143123 Err=0
id=790786 time=14.11.2019 04:51:09 Vmax=1.9 Vmin=0.9 Vmid=1.2 Napr=59 uakb=12.54 usb=0 temp=-14.82 hum=82.98 prs=1015.22 Log=143122 Err=0
id=790785 time=14.11.2019 04:50:00 Vmax=2.2 Vmin=1.3 Vmid=1.9 Napr=62 uakb=12.54 usb=0 temp=-14.8 hum=82.96 prs=1015.23 Log=143121 Err=0
id=790784 time=14.11.2019 04:48:50 Vmax=2.9 Vmin=1.6 Vmid=2.2 Napr=70 uakb=12.54 usb=0 temp=-14.78 hum=82.98 prs=1015.24 Log=143120 Err=0
id=790783 time=14.11.2019 04:47:41 Vmax=2 Vmin=0.8 Vmid=1.2 Napr=77 uakb=12.54 usb=0 temp=-14.76 hum=82.99 prs=1015.21 Log=143119 Err=0
id=790782 time=14.11.2019 04:46:31 Vmax=1.1 Vmin=0.1 Vmid=0.6 Napr=65 uakb=12.56 usb=0 temp=-14.73 hum=82.99 prs=1015.2 Log=143118 Err=0
id=790781 time=14.11.2019 04:45:22 Vmax=1.9 Vmin=1.2 Vmid=1.3 Napr=65 uakb=12.56 usb=0 temp=-14.72 hum=83 prs=1015.21 Log=143117 Err=0
id=790780 time=14.11.2019 04:44:12 Vmax=1.6 Vmin=0.4 Vmid=0.9 Napr=64 uakb=12.56 usb=0 temp=-14.7 hum=83 prs=1015.19 Log=143116 Err=0
id=790779 time=14.11.2019 04:41:54 Vmax=2.5 Vmin=1.8 Vmid=2 Napr=51 uakb=12.56 usb=0 temp=-14.69 hum=83.01 prs=1015.2 Log=143114 Err=0
id=790778 time=14.11.2019 04:40:44 Vmax=1.4 Vmin=0.9 Vmid=1.2 Napr=49 uakb=12.56 usb=0 temp=-14.67 hum=83 prs=1015.2 Log=143113 Err=0
id=790777 time=14.11.2019 04:39:34 Vmax=2.2 Vmin=1.2 Vmid=1.6 Napr=49 uakb=12.56 usb=0 temp=-14.67 hum=83.02 prs=1015.26 Log=143112 Err=0
id=790776 time=14.11.2019 04:38:25 Vmax=2.7 Vmin=1.4 Vmid=1.9 Napr=49 uakb=12.56 usb=0 temp=-14.66 hum=83.01 prs=1015.23 Log=143111 Err=0
id=790775 time=14.11.2019 04:37:15 Vmax=2.1 Vmin=1.1 Vmid=1.4 Napr=52 uakb=12.56 usb=0 temp=-14.65 hum=83.02 prs=1015.23 Log=143110 Err=0
id=790774 time=14.11.2019 04:36:06 Vmax=1.6 Vmin=1.2 Vmid=1.3 Napr=49 uakb=12.56 usb=0 temp=-14.64 hum=83.02 prs=1015.25 Log=143109 Err=0
id=790773 time=14.11.2019 04:34:56 Vmax=2.3 Vmin=1.3 Vmid=1.9 Napr=54 uakb=12.56 usb=0 temp=-14.64 hum=83.02 prs=1015.25 Log=143108 Err=0
id=790772 time=14.11.2019 04:33:46 Vmax=2.1 Vmin=1.6 Vmid=1.9 Napr=68 uakb=12.56 usb=0 temp=-14.64 hum=83.03 prs=1015.22 Log=143107 Err=0
id=790771 time=14.11.2019 04:32:37 Vmax=2.8 Vmin=1.5 Vmid=2 Napr=64 uakb=12.54 usb=0 temp=-14.62 hum=83.02 prs=1015.2 Log=143106 Err=0
id=790770 time=14.11.2019 04:31:27 Vmax=2.5 Vmin=2 Vmid=2.1 Napr=59 uakb=12.56 usb=0 temp=-14.61 hum=83.04 prs=1015.19 Log=143105 Err=0
id=790769 time=14.11.2019 04:30:18 Vmax=2.3 Vmin=1.3 Vmid=1.8 Napr=56 uakb=12.56 usb=0 temp=-14.58 hum=83.02 prs=1015.17 Log=143104 Err=0
id=790768 time=14.11.2019 04:29:08 Vmax=1.8 Vmin=0.6 Vmid=1.1 Napr=56 uakb=12.56 usb=0 temp=-14.57 hum=83.04 prs=1015.17 Log=143103 Err=0
id=790767 time=14.11.2019 04:27:59 Vmax=1.9 Vmin=0.8 Vmid=1.2 Napr=57 uakb=12.56 usb=0 temp=-14.54 hum=83.03 prs=1015.16 Log=143102 Err=0
id=790766 time=14.11.2019 04:26:49 Vmax=2.5 Vmin=1.4 Vmid=1.9 Napr=57 uakb=12.56 usb=0 temp=-14.52 hum=83.05 prs=1015.13 Log=143101 Err=0
id=790765 time=14.11.2019 04:25:39 Vmax=3.4 Vmin=2 Vmid=2.8 Napr=61 uakb=12.56 usb=0 temp=-14.5 hum=83.05 prs=1015.11 Log=143100 Err=0
id=790764 time=14.11.2019 04:24:30 Vmax=3.5 Vmin=1.6 Vmid=2.5 Napr=56 uakb=12.56 usb=0 temp=-14.47 hum=83.06 prs=1015.12 Log=143099 Err=0
id=790763 time=14.11.2019 04:23:20 Vmax=3.2 Vmin=1.8 Vmid=2.3 Napr=53 uakb=12.56 usb=0 temp=-14.46 hum=83.06 prs=1015.08 Log=143098 Err=0
id=790762 time=14.11.2019 04:22:10 Vmax=4.1 Vmin=2.1 Vmid=3.2 Napr=57 uakb=12.56 usb=0 temp=-14.45 hum=83.07 prs=1015.08 Log=143097 Err=0
id=790761 time=14.11.2019 04:21:01 Vmax=4 Vmin=3.2 Vmid=3.5 Napr=60 uakb=12.56 usb=0 temp=-14.44 hum=83.07 prs=1015.06 Log=143096 Err=0
id=790760 time=14.11.2019 04:19:52 Vmax=4.7 Vmin=2.8 Vmid=3.4 Napr=50 uakb=12.56 usb=0 temp=-14.46 hum=83.08 prs=1015.08 Log=143095 Err=0
id=790759 time=14.11.2019 04:18:42 Vmax=3.5 Vmin=2.8 Vmid=3 Napr=58 uakb=12.56 usb=0 temp=-14.47 hum=83.07 prs=1015.08 Log=143094 Err=0
id=790758 time=14.11.2019 04:17:32 Vmax=3.4 Vmin=2.2 Vmid=2.9 Napr=62 uakb=12.56 usb=0 temp=-14.47 hum=83.07 prs=1015.07 Log=143093 Err=0
id=790757 time=14.11.2019 04:16:23 Vmax=2.9 Vmin=1.5 Vmid=1.9 Napr=69 uakb=12.56 usb=0 temp=-14.46 hum=83.06 prs=1015.04 Log=143092 Err=0
id=790756 time=14.11.2019 04:15:13 Vmax=2.7 Vmin=1.3 Vmid=2 Napr=70 uakb=12.56 usb=0 temp=-14.45 hum=83.08 prs=1015.04 Log=143091 Err=0
id=790755 time=14.11.2019 04:14:04 Vmax=3.5 Vmin=1.3 Vmid=2.2 Napr=70 uakb=12.56 usb=0 temp=-14.44 hum=83.08 prs=1015.07 Log=143090 Err=0
id=790754 time=14.11.2019 04:12:54 Vmax=2.8 Vmin=1.4 Vmid=1.9 Napr=66 uakb=12.56 usb=0 temp=-14.43 hum=83.08 prs=1015.08 Log=143089 Err=0
id=790753 time=14.11.2019 04:11:45 Vmax=2.6 Vmin=0.9 Vmid=2 Napr=64 uakb=12.56 usb=0 temp=-14.41 hum=83.08 prs=1015.07 Log=143088 Err=0
id=790752 time=14.11.2019 04:10:35 Vmax=2.1 Vmin=0.7 Vmid=1.5 Napr=56 uakb=12.56 usb=0 temp=-14.4 hum=83.09 prs=1015.06 Log=143087 Err=0
id=790751 time=14.11.2019 04:09:25 Vmax=2.5 Vmin=1.2 Vmid=1.9 Napr=56 uakb=12.56 usb=0 temp=-14.39 hum=83.1 prs=1015.08 Log=143086 Err=0
id=790750 time=14.11.2019 04:08:16 Vmax=3.5 Vmin=2.3 Vmid=3 Napr=57 uakb=12.56 usb=0 temp=-14.41 hum=83.09 prs=1015.07 Log=143085 Err=0
id=790749 time=14.11.2019 04:07:06 Vmax=2.1 Vmin=1.1 Vmid=1.5 Napr=56 uakb=12.56 usb=0 temp=-14.41 hum=83.1 prs=1015.09 Log=143084 Err=0
id=790748 time=14.11.2019 04:05:57 Vmax=3.2 Vmin=2 Vmid=2.6 Napr=59 uakb=12.56 usb=0 temp=-14.43 hum=83.09 prs=1015.1 Log=143083 Err=0
id=790747 time=14.11.2019 04:04:47 Vmax=3 Vmin=2.1 Vmid=2.6 Napr=66 uakb=12.56 usb=0 temp=-14.44 hum=83.09 prs=1015.1 Log=143082 Err=0
id=790746 time=14.11.2019 04:03:38 Vmax=2 Vmin=1.1 Vmid=1.5 Napr=81 uakb=12.58 usb=0 temp=-14.45 hum=83.1 prs=1015.11 Log=143081 Err=0
id=790745 time=14.11.2019 04:02:28 Vmax=2.3 Vmin=0.8 Vmid=1.5 Napr=81 uakb=12.56 usb=0 temp=-14.44 hum=83.09 prs=1015.09 Log=143080 Err=0
id=790744 time=14.11.2019 04:01:19 Vmax=1.9 Vmin=0.7 Vmid=1.3 Napr=75 uakb=12.56 usb=0 temp=-14.42 hum=83.09 prs=1015.05 Log=143079 Err=0
id=790743 time=14.11.2019 04:00:10 Vmax=1.3 Vmin=0.7 Vmid=0.9 Napr=74 uakb=12.56 usb=0 temp=-14.4 hum=83.11 prs=1015.02 Log=143078 Err=0
id=790742 time=14.11.2019 03:58:59 Vmax=2 Vmin=1.4 Vmid=1.6 Napr=68 uakb=12.56 usb=0 temp=-14.39 hum=83.1 prs=1015.02 Log=143077 Err=0
id=790741 time=14.11.2019 03:57:50 Vmax=1.2 Vmin=0.4 Vmid=0.8 Napr=62 uakb=12.56 usb=0 temp=-14.39 hum=83.1 prs=1015.02 Log=143076 Err=0
id=790740 time=14.11.2019 03:56:40 Vmax=2.3 Vmin=1.8 Vmid=2.1 Napr=63 uakb=12.58 usb=0 temp=-14.38 hum=83.11 prs=1015.02 Log=143075 Err=0
id=790739 time=14.11.2019 03:55:31 Vmax=2 Vmin=1.2 Vmid=1.4 Napr=65 uakb=12.58 usb=0 temp=-14.38 hum=83.11 prs=1015.01 Log=143074 Err=0
id=790738 time=14.11.2019 03:54:22 Vmax=1.8 Vmin=0.7 Vmid=1.2 Napr=69 uakb=12.56 usb=0 temp=-14.39 hum=83.11 prs=1015.03 Log=143073 Err=0
id=790737 time=14.11.2019 03:53:11 Vmax=2.6 Vmin=1.5 Vmid=2 Napr=69 uakb=12.56 usb=0 temp=-14.39 hum=83.12 prs=1015.04 Log=143072 Err=0
id=790736 time=14.11.2019 03:52:02 Vmax=3.4 Vmin=1.6 Vmid=2.5 Napr=66 uakb=12.56 usb=0 temp=-14.39 hum=83.09 prs=1015.05 Log=143071 Err=0
id=790735 time=14.11.2019 03:50:53 Vmax=3.5 Vmin=1.9 Vmid=2.8 Napr=60 uakb=12.58 usb=0 temp=-14.37 hum=83.11 prs=1015.05 Log=143070 Err=0
id=790734 time=14.11.2019 03:49:42 Vmax=2.6 Vmin=1.9 Vmid=2.1 Napr=61 uakb=12.58 usb=0 temp=-14.36 hum=83.12 prs=1015.05 Log=143069 Err=0
id=790733 time=14.11.2019 03:48:33 Vmax=3.9 Vmin=1.5 Vmid=2.5 Napr=49 uakb=12.58 usb=0 temp=-14.33 hum=83.12 prs=1015.05 Log=143068 Err=0
id=790732 time=14.11.2019 03:47:24 Vmax=1.8 Vmin=1.3 Vmid=1.4 Napr=46 uakb=12.58 usb=0 temp=-14.32 hum=83.12 prs=1015.04 Log=143067 Err=0
id=790731 time=14.11.2019 03:46:14 Vmax=2 Vmin=0.8 Vmid=1.4 Napr=48 uakb=12.58 usb=0 temp=-14.31 hum=83.11 prs=1015.03 Log=143066 Err=0
id=790730 time=14.11.2019 03:45:04 Vmax=2.3 Vmin=0.9 Vmid=1.5 Napr=53 uakb=12.58 usb=0 temp=-14.31 hum=83.12 prs=1015 Log=143065 Err=0
id=790729 time=14.11.2019 03:43:55 Vmax=3.4 Vmin=2.1 Vmid=2.5 Napr=60 uakb=12.58 usb=0 temp=-14.31 hum=83.14 prs=1015.01 Log=143064 Err=0
id=790728 time=14.11.2019 03:42:45 Vmax=3 Vmin=2 Vmid=2.5 Napr=57 uakb=12.58 usb=0 temp=-14.32 hum=83.14 prs=1014.98 Log=143063 Err=0
id=790727 time=14.11.2019 03:41:35 Vmax=3 Vmin=1.8 Vmid=2.6 Napr=50 uakb=12.58 usb=0 temp=-14.33 hum=83.13 prs=1014.95 Log=143062 Err=0
id=790726 time=14.11.2019 03:40:27 Vmax=2 Vmin=1.3 Vmid=1.5 Napr=45 uakb=12.56 usb=0 temp=-14.33 hum=83.14 prs=1014.94 Log=143061 Err=0
id=790725 time=14.11.2019 03:39:17 Vmax=2 Vmin=0.5 Vmid=1.2 Napr=45 uakb=12.58 usb=0 temp=-14.34 hum=83.14 prs=1014.95 Log=143060 Err=0
id=790724 time=14.11.2019 03:38:07 Vmax=3.2 Vmin=1.5 Vmid=2.3 Napr=45 uakb=12.58 usb=0 temp=-14.35 hum=83.15 prs=1014.95 Log=143059 Err=0
id=790723 time=14.11.2019 03:36:57 Vmax=2.3 Vmin=1.3 Vmid=1.8 Napr=48 uakb=12.58 usb=0 temp=-14.4 hum=83.13 prs=1014.94 Log=143058 Err=0
id=790722 time=14.11.2019 03:35:48 Vmax=2 Vmin=1.4 Vmid=1.6 Napr=55 uakb=12.56 usb=0 temp=-14.42 hum=83.14 prs=1014.95 Log=143057 Err=0
id=790721 time=14.11.2019 03:34:39 Vmax=2.9 Vmin=1.1 Vmid=1.6 Napr=72 uakb=12.58 usb=0 temp=-14.43 hum=83.13 prs=1014.93 Log=143056 Err=0
id=790720 time=14.11.2019 03:33:29 Vmax=1.3 Vmin=0.6 Vmid=0.9 Napr=77 uakb=12.58 usb=0 temp=-14.42 hum=83.11 prs=1014.92 Log=143055 Err=0
id=790719 time=14.11.2019 03:32:19 Vmax=1.3 Vmin=0.4 Vmid=0.7 Napr=77 uakb=12.58 usb=0 temp=-14.4 hum=83.13 prs=1014.93 Log=143054 Err=0
id=790718 time=14.11.2019 03:31:09 Vmax=1.9 Vmin=0.8 Vmid=1.3 Napr=77 uakb=12.58 usb=0 temp=-14.39 hum=83.13 prs=1014.93 Log=143053 Err=0
id=790717 time=14.11.2019 03:30:00 Vmax=1.5 Vmin=0.2 Vmid=0.8 Napr=77 uakb=12.58 usb=0 temp=-14.36 hum=83.13 prs=1014.91 Log=143052 Err=0
id=790716 time=14.11.2019 03:28:51 Vmax=2.6 Vmin=0.8 Vmid=2 Napr=72 uakb=12.58 usb=0 temp=-14.35 hum=83.14 prs=1014.92 Log=143051 Err=0
id=790715 time=14.11.2019 03:27:41 Vmax=1.6 Vmin=0.7 Vmid=1.2 Napr=66 uakb=12.58 usb=0 temp=-14.33 hum=83.15 prs=1014.94 Log=143050 Err=0
id=790714 time=14.11.2019 03:26:32 Vmax=2.3 Vmin=1.1 Vmid=1.5 Napr=66 uakb=12.58 usb=0 temp=-14.31 hum=83.15 prs=1014.92 Log=143049 Err=0
id=790713 time=14.11.2019 03:25:22 Vmax=2.2 Vmin=0.6 Vmid=1.3 Napr=66 uakb=12.58 usb=0 temp=-14.29 hum=83.14 prs=1014.93 Log=143048 Err=0
id=790712 time=14.11.2019 03:24:12 Vmax=1.5 Vmin=0.7 Vmid=1.1 Napr=65 uakb=12.58 usb=0 temp=-14.25 hum=83.15 prs=1014.91 Log=143047 Err=0
id=790711 time=14.11.2019 03:23:02 Vmax=1.4 Vmin=0.6 Vmid=0.9 Napr=65 uakb=12.58 usb=0 temp=-14.22 hum=83.15 prs=1014.92 Log=143046 Err=0
id=790710 time=14.11.2019 03:21:53 Vmax=2.8 Vmin=1.5 Vmid=2.2 Napr=65 uakb=12.58 usb=0 temp=-14.2 hum=83.17 prs=1014.91 Log=143045 Err=0
id=790709 time=14.11.2019 03:20:43 Vmax=4.1 Vmin=2.2 Vmid=3.2 Napr=62 uakb=12.58 usb=0 temp=-14.17 hum=83.18 prs=1014.94 Log=143044 Err=0
id=790708 time=14.11.2019 03:19:34 Vmax=2.1 Vmin=0.8 Vmid=1.2 Napr=64 uakb=12.58 usb=0 temp=-14.14 hum=83.17 prs=1014.94 Log=143043 Err=0
id=790707 time=14.11.2019 03:18:24 Vmax=3 Vmin=2.2 Vmid=2.5 Napr=68 uakb=12.58 usb=0 temp=-14.12 hum=83.18 prs=1014.92 Log=143042 Err=0
id=790706 time=14.11.2019 03:17:14 Vmax=2.1 Vmin=0.6 Vmid=1.8 Napr=74 uakb=12.58 usb=0 temp=-14.11 hum=83.19 prs=1014.94 Log=143041 Err=0
id=790705 time=14.11.2019 03:16:05 Vmax=1.8 Vmin=0.7 Vmid=1.3 Napr=74 uakb=12.58 usb=0 temp=-14.1 hum=83.2 prs=1014.92 Log=143040 Err=0
id=790704 time=14.11.2019 03:14:56 Vmax=2.9 Vmin=2 Vmid=2.5 Napr=70 uakb=12.58 usb=0 temp=-14.08 hum=83.18 prs=1014.92 Log=143039 Err=0
id=790703 time=14.11.2019 03:13:46 Vmax=2.5 Vmin=1.1 Vmid=1.8 Napr=66 uakb=12.58 usb=0 temp=-14.06 hum=83.19 prs=1014.95 Log=143038 Err=0
id=790702 time=14.11.2019 03:12:36 Vmax=2.8 Vmin=1.2 Vmid=1.8 Napr=64 uakb=12.6 usb=0 temp=-14.04 hum=83.22 prs=1014.97 Log=143037 Err=0
id=790701 time=14.11.2019 03:11:27 Vmax=2.6 Vmin=1.6 Vmid=2 Napr=59 uakb=12.58 usb=0 temp=-14.04 hum=83.21 prs=1014.97 Log=143036 Err=0
id=790700 time=14.11.2019 03:10:17 Vmax=2.9 Vmin=1.8 Vmid=2 Napr=59 uakb=12.58 usb=0 temp=-14.05 hum=83.2 prs=1014.92 Log=143035 Err=0
id=790699 time=14.11.2019 03:09:08 Vmax=5 Vmin=2.8 Vmid=3.7 Napr=50 uakb=12.58 usb=0 temp=-14.04 hum=83.21 prs=1014.93 Log=143034 Err=0
id=790698 time=14.11.2019 03:06:49 Vmax=3 Vmin=2 Vmid=2.5 Napr=43 uakb=12.58 usb=0 temp=-14.01 hum=83.21 prs=1014.93 Log=143032 Err=0
id=790697 time=14.11.2019 03:05:39 Vmax=3.7 Vmin=2.2 Vmid=2.9 Napr=34 uakb=12.6 usb=0 temp=-14.01 hum=83.23 prs=1014.9 Log=143031 Err=0
id=790696 time=14.11.2019 03:04:29 Vmax=4.7 Vmin=2.9 Vmid=3.7 Napr=53 uakb=12.58 usb=0 temp=-14.02 hum=83.23 prs=1014.9 Log=143030 Err=0
id=790695 time=14.11.2019 03:03:20 Vmax=3.7 Vmin=1.5 Vmid=2.5 Napr=57 uakb=12.58 usb=0 temp=-14.01 hum=83.22 prs=1014.91 Log=143029 Err=0
id=790694 time=14.11.2019 03:02:11 Vmax=2.6 Vmin=2 Vmid=2.2 Napr=56 uakb=12.58 usb=0 temp=-14 hum=83.22 prs=1014.87 Log=143028 Err=0
id=790693 time=14.11.2019 03:01:01 Vmax=3.5 Vmin=1.4 Vmid=2.3 Napr=54 uakb=12.58 usb=0 temp=-14.01 hum=83.24 prs=1014.93 Log=143027 Err=0
id=790692 time=14.11.2019 02:59:51 Vmax=2.8 Vmin=1.6 Vmid=2.1 Napr=53 uakb=12.58 usb=0 temp=-14.01 hum=83.24 prs=1014.92 Log=143026 Err=0
id=790691 time=14.11.2019 02:58:42 Vmax=2.3 Vmin=1.6 Vmid=1.9 Napr=57 uakb=12.58 usb=0 temp=-13.99 hum=83.23 prs=1014.92 Log=143025 Err=0
id=790690 time=14.11.2019 02:57:32 Vmax=2 Vmin=1.1 Vmid=1.5 Napr=67 uakb=12.58 usb=0 temp=-13.98 hum=83.24 prs=1014.94 Log=143024 Err=0
id=790689 time=14.11.2019 02:56:22 Vmax=2.2 Vmin=1.1 Vmid=1.6 Napr=65 uakb=12.6 usb=0 temp=-13.95 hum=83.23 prs=1014.92 Log=143023 Err=0
id=790688 time=14.11.2019 02:55:13 Vmax=2.1 Vmin=0.5 Vmid=1.2 Napr=56 uakb=12.6 usb=0 temp=-13.94 hum=83.25 prs=1014.92 Log=143022 Err=0
id=790687 time=14.11.2019 02:54:03 Vmax=2.7 Vmin=1.4 Vmid=2 Napr=56 uakb=12.6 usb=0 temp=-13.93 hum=83.25 prs=1014.89 Log=143021 Err=0
id=790686 time=14.11.2019 02:52:54 Vmax=3.5 Vmin=1.3 Vmid=2 Napr=55 uakb=12.58 usb=0 temp=-13.93 hum=83.26 prs=1014.9 Log=143020 Err=0
id=790685 time=14.11.2019 02:51:45 Vmax=3 Vmin=1.6 Vmid=2.5 Napr=59 uakb=12.58 usb=0 temp=-13.91 hum=83.25 prs=1014.89 Log=143019 Err=0
id=790684 time=14.11.2019 02:50:34 Vmax=3.3 Vmin=2.1 Vmid=2.6 Napr=61 uakb=12.6 usb=0 temp=-13.89 hum=83.26 prs=1014.86 Log=143018 Err=0
id=790683 time=14.11.2019 02:49:25 Vmax=2.3 Vmin=1.2 Vmid=1.5 Napr=54 uakb=12.6 usb=0 temp=-13.86 hum=83.26 prs=1014.84 Log=143017 Err=0
id=790682 time=14.11.2019 02:48:16 Vmax=2.3 Vmin=0.8 Vmid=1.6 Napr=54 uakb=12.58 usb=0 temp=-13.84 hum=83.27 prs=1014.82 Log=143016 Err=0
id=790681 time=14.11.2019 02:47:06 Vmax=2.9 Vmin=1.3 Vmid=2 Napr=57 uakb=12.6 usb=0 temp=-13.83 hum=83.27 prs=1014.82 Log=143015 Err=0
id=790680 time=14.11.2019 02:45:57 Vmax=2.2 Vmin=0.1 Vmid=1.3 Napr=55 uakb=12.6 usb=0 temp=-13.82 hum=83.27 prs=1014.83 Log=143014 Err=0
id=790679 time=14.11.2019 02:44:46 Vmax=2.1 Vmin=1.6 Vmid=1.9 Napr=62 uakb=12.6 usb=0 temp=-13.8 hum=83.27 prs=1014.83 Log=143013 Err=0
id=790678 time=14.11.2019 02:43:38 Vmax=2.9 Vmin=1.9 Vmid=2.3 Napr=54 uakb=12.6 usb=0 temp=-13.8 hum=83.29 prs=1014.81 Log=143012 Err=0
id=790677 time=14.11.2019 02:42:28 Vmax=3 Vmin=2.1 Vmid=2.3 Napr=60 uakb=12.6 usb=0 temp=-13.81 hum=83.29 prs=1014.81 Log=143011 Err=0
id=790676 time=14.11.2019 02:41:18 Vmax=3.3 Vmin=1.8 Vmid=2.7 Napr=58 uakb=12.6 usb=0 temp=-13.81 hum=83.28 prs=1014.8 Log=143010 Err=0
id=790675 time=14.11.2019 02:40:08 Vmax=2.5 Vmin=0.5 Vmid=1.2 Napr=63 uakb=12.6 usb=0 temp=-13.79 hum=83.27 prs=1014.78 Log=143009 Err=0
id=790674 time=14.11.2019 02:38:59 Vmax=2.2 Vmin=1.2 Vmid=1.5 Napr=64 uakb=12.6 usb=0 temp=-13.76 hum=83.27 prs=1014.77 Log=143008 Err=0
id=790673 time=14.11.2019 02:37:49 Vmax=1.9 Vmin=1.2 Vmid=1.5 Napr=64 uakb=12.6 usb=0 temp=-13.72 hum=83.29 prs=1014.8 Log=143007 Err=0
id=790672 time=14.11.2019 02:36:40 Vmax=1.6 Vmin=0.8 Vmid=1.3 Napr=66 uakb=12.6 usb=0 temp=-13.69 hum=83.29 prs=1014.78 Log=143006 Err=0
id=790671 time=14.11.2019 02:35:30 Vmax=3.5 Vmin=1.8 Vmid=2.7 Napr=63 uakb=12.6 usb=0 temp=-13.65 hum=83.29 prs=1014.78 Log=143005 Err=0
id=790670 time=14.11.2019 02:34:20 Vmax=3 Vmin=1.5 Vmid=2.3 Napr=57 uakb=12.6 usb=0 temp=-13.61 hum=83.32 prs=1014.76 Log=143004 Err=0
id=790669 time=14.11.2019 02:33:11 Vmax=2.1 Vmin=0.6 Vmid=1.3 Napr=49 uakb=12.6 usb=0 temp=-13.58 hum=83.33 prs=1014.73 Log=143003 Err=0
id=790668 time=14.11.2019 02:32:01 Vmax=3 Vmin=1.3 Vmid=2 Napr=53 uakb=12.6 usb=0 temp=-13.56 hum=83.34 prs=1014.75 Log=143002 Err=0
id=790667 time=14.11.2019 02:30:52 Vmax=2.6 Vmin=1.4 Vmid=2.1 Napr=63 uakb=12.6 usb=0 temp=-13.55 hum=83.33 prs=1014.72 Log=143001 Err=0
id=790666 time=14.11.2019 02:29:42 Vmax=4.4 Vmin=2.1 Vmid=2.8 Napr=51 uakb=12.6 usb=0 temp=-13.55 hum=83.34 prs=1014.71 Log=143000 Err=0
id=790665 time=14.11.2019 02:28:33 Vmax=3.6 Vmin=2.6 Vmid=3.2 Napr=52 uakb=12.6 usb=0 temp=-13.56 hum=83.34 prs=1014.72 Log=142999 Err=0
id=790664 time=14.11.2019 02:27:23 Vmax=1.6 Vmin=0.9 Vmid=1.3 Napr=48 uakb=12.6 usb=0 temp=-13.57 hum=83.33 prs=1014.69 Log=142998 Err=0
id=790663 time=14.11.2019 02:26:13 Vmax=2.1 Vmin=0 Vmid=1.1 Napr=55 uakb=12.6 usb=0 temp=-13.54 hum=83.33 prs=1014.69 Log=142997 Err=0
id=790662 time=14.11.2019 02:25:04 Vmax=2.2 Vmin=0.7 Vmid=1.4 Napr=59 uakb=12.6 usb=0 temp=-13.5 hum=83.35 prs=1014.71 Log=142996 Err=0
id=790661 time=14.11.2019 02:23:55 Vmax=3.3 Vmin=2.2 Vmid=2.7 Napr=53 uakb=12.6 usb=0 temp=-13.5 hum=83.34 prs=1014.73 Log=142995 Err=0
id=790660 time=14.11.2019 02:22:44 Vmax=2.8 Vmin=1.4 Vmid=2.2 Napr=60 uakb=12.6 usb=0 temp=-13.51 hum=83.36 prs=1014.74 Log=142994 Err=0
id=790659 time=14.11.2019 02:21:35 Vmax=3.4 Vmin=1.6 Vmid=2.3 Napr=61 uakb=12.6 usb=0 temp=-13.5 hum=83.35 prs=1014.75 Log=142993 Err=0
id=790658 time=14.11.2019 02:20:26 Vmax=4 Vmin=2.6 Vmid=3.3 Napr=63 uakb=12.6 usb=0 temp=-13.48 hum=83.36 prs=1014.75 Log=142992 Err=0
id=790657 time=14.11.2019 02:19:16 Vmax=2.1 Vmin=1.6 Vmid=1.9 Napr=66 uakb=12.6 usb=0 temp=-13.47 hum=83.35 prs=1014.71 Log=142991 Err=0
id=790656 time=14.11.2019 02:18:06 Vmax=2.8 Vmin=1.5 Vmid=2.1 Napr=65 uakb=12.6 usb=0 temp=-13.44 hum=83.35 prs=1014.7 Log=142990 Err=0
id=790655 time=14.11.2019 02:16:56 Vmax=2.3 Vmin=1.5 Vmid=1.9 Napr=51 uakb=12.6 usb=0 temp=-13.41 hum=83.36 prs=1014.7 Log=142989 Err=0
id=790654 time=14.11.2019 02:15:47 Vmax=4.1 Vmin=2.6 Vmid=3 Napr=55 uakb=12.6 usb=0 temp=-13.41 hum=83.38 prs=1014.67 Log=142988 Err=0
id=790653 time=14.11.2019 02:14:38 Vmax=1.8 Vmin=1.2 Vmid=1.4 Napr=54 uakb=12.6 usb=0 temp=-13.39 hum=83.37 prs=1014.65 Log=142987 Err=0
id=790652 time=14.11.2019 02:13:28 Vmax=2 Vmin=1.1 Vmid=1.4 Napr=54 uakb=12.62 usb=0 temp=-13.36 hum=83.36 prs=1014.62 Log=142986 Err=0
id=790651 time=14.11.2019 02:12:18 Vmax=2.7 Vmin=1.5 Vmid=2.2 Napr=54 uakb=12.6 usb=0 temp=-13.34 hum=83.38 prs=1014.61 Log=142985 Err=0
id=790650 time=14.11.2019 02:11:08 Vmax=2.5 Vmin=1.1 Vmid=1.8 Napr=49 uakb=12.6 usb=0 temp=-13.31 hum=83.42 prs=1014.61 Log=142984 Err=0
id=790649 time=14.11.2019 02:09:59 Vmax=3.6 Vmin=2.2 Vmid=2.8 Napr=53 uakb=12.62 usb=0 temp=-13.31 hum=83.4 prs=1014.58 Log=142983 Err=0
id=790648 time=14.11.2019 02:08:50 Vmax=2.8 Vmin=1.5 Vmid=2 Napr=54 uakb=12.6 usb=0 temp=-13.3 hum=83.38 prs=1014.56 Log=142982 Err=0
id=790647 time=14.11.2019 02:07:40 Vmax=2.7 Vmin=1.4 Vmid=1.9 Napr=53 uakb=12.6 usb=0 temp=-13.27 hum=83.4 prs=1014.56 Log=142981 Err=0
id=790646 time=14.11.2019 02:06:30 Vmax=2.8 Vmin=1.9 Vmid=2.3 Napr=54 uakb=12.6 usb=0 temp=-13.25 hum=83.4 prs=1014.59 Log=142980 Err=0
id=790645 time=14.11.2019 02:05:21 Vmax=2.5 Vmin=1.4 Vmid=1.9 Napr=46 uakb=12.6 usb=0 temp=-13.23 hum=83.41 prs=1014.54 Log=142979 Err=0
id=790644 time=14.11.2019 02:04:11 Vmax=2.8 Vmin=2 Vmid=2.3 Napr=50 uakb=12.62 usb=0 temp=-13.22 hum=83.43 prs=1014.52 Log=142978 Err=0
id=790643 time=14.11.2019 02:03:02 Vmax=2.2 Vmin=1.3 Vmid=1.6 Napr=60 uakb=12.6 usb=0 temp=-13.19 hum=83.41 prs=1014.53 Log=142977 Err=0
id=790642 time=14.11.2019 02:01:52 Vmax=2.6 Vmin=1.6 Vmid=2.2 Napr=61 uakb=12.62 usb=0 temp=-13.17 hum=83.42 prs=1014.51 Log=142976 Err=0
id=790641 time=14.11.2019 02:00:42 Vmax=2.3 Vmin=1.3 Vmid=1.9 Napr=55 uakb=12.6 usb=0 temp=-13.15 hum=83.41 prs=1014.51 Log=142975 Err=0
id=790640 time=14.11.2019 01:59:32 Vmax=4.6 Vmin=3 Vmid=3.5 Napr=51 uakb=12.6 usb=0 temp=-13.13 hum=83.44 prs=1014.53 Log=142974 Err=0
id=790639 time=14.11.2019 01:58:23 Vmax=4.8 Vmin=2.1 Vmid=3.3 Napr=49 uakb=12.6 usb=0 temp=-13.14 hum=83.44 prs=1014.53 Log=142973 Err=0
id=790638 time=14.11.2019 01:57:13 Vmax=3.6 Vmin=1.9 Vmid=2.8 Napr=50 uakb=12.6 usb=0 temp=-13.13 hum=83.45 prs=1014.55 Log=142972 Err=0
id=790637 time=14.11.2019 01:56:04 Vmax=3.6 Vmin=2.2 Vmid=2.9 Napr=49 uakb=12.6 usb=0 temp=-13.13 hum=83.45 prs=1014.61 Log=142971 Err=0
id=790636 time=14.11.2019 01:54:54 Vmax=2.8 Vmin=2.1 Vmid=2.3 Napr=52 uakb=12.6 usb=0 temp=-13.12 hum=83.45 prs=1014.56 Log=142970 Err=0
id=790635 time=14.11.2019 01:53:46 Vmax=3.5 Vmin=1.9 Vmid=2.7 Napr=54 uakb=12.62 usb=0 temp=-13.09 hum=83.45 prs=1014.55 Log=142969 Err=0
id=790634 time=14.11.2019 01:52:35 Vmax=3.9 Vmin=2.5 Vmid=3.2 Napr=55 uakb=12.6 usb=0 temp=-13.08 hum=83.43 prs=1014.53 Log=142968 Err=0
id=790633 time=14.11.2019 01:51:25 Vmax=4.1 Vmin=3 Vmid=3.4 Napr=48 uakb=12.6 usb=0 temp=-13.07 hum=83.47 prs=1014.58 Log=142967 Err=0
id=790632 time=14.11.2019 01:50:16 Vmax=2.9 Vmin=2.3 Vmid=2.6 Napr=49 uakb=12.6 usb=0 temp=-13.06 hum=83.47 prs=1014.54 Log=142966 Err=0
id=790631 time=14.11.2019 01:49:06 Vmax=4.2 Vmin=2.3 Vmid=2.9 Napr=49 uakb=12.62 usb=0 temp=-13.05 hum=83.48 prs=1014.54 Log=142965 Err=0
id=790630 time=14.11.2019 01:47:56 Vmax=3.2 Vmin=1.9 Vmid=2.2 Napr=55 uakb=12.62 usb=0 temp=-13.03 hum=83.47 prs=1014.5 Log=142964 Err=0
id=790629 time=14.11.2019 01:46:47 Vmax=2.7 Vmin=1.5 Vmid=2.1 Napr=51 uakb=12.6 usb=0 temp=-13.01 hum=83.47 prs=1014.5 Log=142963 Err=0
id=790628 time=14.11.2019 01:45:38 Vmax=4.9 Vmin=2.7 Vmid=3.6 Napr=52 uakb=12.62 usb=0 temp=-13.01 hum=83.47 prs=1014.52 Log=142962 Err=0
id=790627 time=14.11.2019 01:44:28 Vmax=4.3 Vmin=1.9 Vmid=2.8 Napr=54 uakb=12.62 usb=0 temp=-12.98 hum=83.47 prs=1014.51 Log=142961 Err=0
id=790626 time=14.11.2019 01:43:19 Vmax=2.8 Vmin=1.6 Vmid=2.2 Napr=50 uakb=12.62 usb=0 temp=-12.98 hum=83.48 prs=1014.49 Log=142960 Err=0
id=790625 time=14.11.2019 01:42:08 Vmax=4.3 Vmin=2.2 Vmid=3.2 Napr=54 uakb=12.62 usb=0 temp=-12.94 hum=83.48 prs=1014.51 Log=142959 Err=0
id=790624 time=14.11.2019 01:40:59 Vmax=3.6 Vmin=1.9 Vmid=2.5 Napr=49 uakb=12.6 usb=0 temp=-12.92 hum=83.5 prs=1014.46 Log=142958 Err=0
id=790623 time=14.11.2019 01:39:50 Vmax=2.6 Vmin=2 Vmid=2.2 Napr=48 uakb=12.62 usb=0 temp=-12.92 hum=83.5 prs=1014.49 Log=142957 Err=0
id=790622 time=14.11.2019 01:38:40 Vmax=3.3 Vmin=2.8 Vmid=2.9 Napr=50 uakb=12.62 usb=0 temp=-12.91 hum=83.51 prs=1014.48 Log=142956 Err=0
id=790621 time=14.11.2019 01:37:30 Vmax=4.3 Vmin=2.8 Vmid=3.6 Napr=49 uakb=12.62 usb=0 temp=-12.9 hum=83.52 prs=1014.48 Log=142955 Err=0
id=790620 time=14.11.2019 01:36:21 Vmax=3.4 Vmin=2.3 Vmid=2.9 Napr=47 uakb=12.62 usb=0 temp=-12.91 hum=83.52 prs=1014.51 Log=142954 Err=0
id=790619 time=14.11.2019 01:35:11 Vmax=4.6 Vmin=2.1 Vmid=3.6 Napr=48 uakb=12.62 usb=0 temp=-12.91 hum=83.52 prs=1014.55 Log=142953 Err=0
id=790618 time=14.11.2019 01:34:01 Vmax=3.3 Vmin=2 Vmid=2.6 Napr=49 uakb=12.62 usb=0 temp=-12.9 hum=83.52 prs=1014.49 Log=142952 Err=0
id=790617 time=14.11.2019 01:32:52 Vmax=4.3 Vmin=2.1 Vmid=3.2 Napr=48 uakb=12.6 usb=0 temp=-12.89 hum=83.53 prs=1014.55 Log=142951 Err=0
id=790616 time=14.11.2019 01:31:42 Vmax=3.5 Vmin=2.3 Vmid=2.9 Napr=50 uakb=12.6 usb=0 temp=-12.89 hum=83.52 prs=1014.51 Log=142950 Err=0
id=790615 time=14.11.2019 01:30:32 Vmax=4 Vmin=2.7 Vmid=3.3 Napr=48 uakb=12.62 usb=0 temp=-12.87 hum=83.54 prs=1014.51 Log=142949 Err=0
id=790614 time=14.11.2019 01:29:23 Vmax=3.7 Vmin=2 Vmid=2.9 Napr=47 uakb=12.62 usb=0 temp=-12.88 hum=83.52 prs=1014.56 Log=142948 Err=0
id=790613 time=14.11.2019 01:28:14 Vmax=3.4 Vmin=2.3 Vmid=2.7 Napr=52 uakb=12.62 usb=0 temp=-12.89 hum=83.53 prs=1014.5 Log=142947 Err=0
id=790612 time=14.11.2019 01:27:04 Vmax=3.4 Vmin=2.1 Vmid=2.7 Napr=50 uakb=12.62 usb=0 temp=-12.9 hum=83.54 prs=1014.49 Log=142946 Err=0
id=790611 time=14.11.2019 01:24:45 Vmax=3.6 Vmin=2.3 Vmid=3 Napr=56 uakb=12.62 usb=0 temp=-12.9 hum=83.53 prs=1014.47 Log=142944 Err=0
id=790610 time=14.11.2019 01:23:36 Vmax=4.2 Vmin=2.3 Vmid=3.4 Napr=51 uakb=12.62 usb=0 temp=-12.9 hum=83.53 prs=1014.48 Log=142943 Err=0
id=790609 time=14.11.2019 01:22:26 Vmax=3.4 Vmin=2.2 Vmid=2.9 Napr=51 uakb=12.62 usb=0 temp=-12.91 hum=83.55 prs=1014.48 Log=142942 Err=0
id=790608 time=14.11.2019 01:21:16 Vmax=5.7 Vmin=2.6 Vmid=4.3 Napr=51 uakb=12.62 usb=0 temp=-12.91 hum=83.55 prs=1014.49 Log=142941 Err=0
id=790607 time=14.11.2019 01:20:07 Vmax=3 Vmin=1.5 Vmid=2.1 Napr=54 uakb=12.62 usb=0 temp=-12.91 hum=83.54 prs=1014.45 Log=142940 Err=0
id=790606 time=14.11.2019 01:18:57 Vmax=4.9 Vmin=2.8 Vmid=3.9 Napr=57 uakb=12.62 usb=0 temp=-12.91 hum=83.53 prs=1014.41 Log=142939 Err=0
id=790605 time=14.11.2019 01:17:48 Vmax=3.6 Vmin=2.2 Vmid=2.7 Napr=59 uakb=12.62 usb=0 temp=-12.9 hum=83.55 prs=1014.44 Log=142938 Err=0
id=790604 time=14.11.2019 01:16:38 Vmax=3.2 Vmin=2 Vmid=2.6 Napr=55 uakb=12.62 usb=0 temp=-12.91 hum=83.55 prs=1014.42 Log=142937 Err=0
id=790603 time=14.11.2019 01:15:28 Vmax=4.2 Vmin=2.2 Vmid=3.3 Napr=55 uakb=12.62 usb=0 temp=-12.91 hum=83.56 prs=1014.43 Log=142936 Err=0
id=790602 time=14.11.2019 01:14:19 Vmax=2.2 Vmin=1.2 Vmid=1.5 Napr=59 uakb=12.62 usb=0 temp=-12.9 hum=83.55 prs=1014.44 Log=142935 Err=0
id=790601 time=14.11.2019 01:13:09 Vmax=3.5 Vmin=1.9 Vmid=2.5 Napr=51 uakb=12.62 usb=0 temp=-12.9 hum=83.55 prs=1014.47 Log=142934 Err=0
id=790600 time=14.11.2019 01:12:00 Vmax=4.1 Vmin=2.8 Vmid=3.3 Napr=57 uakb=12.62 usb=0 temp=-12.89 hum=83.55 prs=1014.5 Log=142933 Err=0
id=790599 time=14.11.2019 01:10:50 Vmax=2.3 Vmin=1.6 Vmid=2 Napr=62 uakb=12.62 usb=0 temp=-12.86 hum=83.55 prs=1014.49 Log=142932 Err=0
id=790598 time=14.11.2019 01:09:40 Vmax=3.9 Vmin=2.9 Vmid=3.3 Napr=54 uakb=12.62 usb=0 temp=-12.84 hum=83.57 prs=1014.47 Log=142931 Err=0
id=790597 time=14.11.2019 01:08:30 Vmax=2.5 Vmin=1.3 Vmid=2 Napr=61 uakb=12.62 usb=0 temp=-12.82 hum=83.55 prs=1014.44 Log=142930 Err=0
id=790596 time=14.11.2019 01:07:21 Vmax=2.7 Vmin=1.4 Vmid=1.8 Napr=57 uakb=12.62 usb=0 temp=-12.79 hum=83.56 prs=1014.43 Log=142929 Err=0
id=790595 time=14.11.2019 01:06:11 Vmax=4.8 Vmin=2.5 Vmid=3.5 Napr=58 uakb=12.62 usb=0 temp=-12.77 hum=83.56 prs=1014.42 Log=142928 Err=0
id=790594 time=14.11.2019 01:05:01 Vmax=3.9 Vmin=1.5 Vmid=2.8 Napr=54 uakb=12.62 usb=0 temp=-12.75 hum=83.59 prs=1014.4 Log=142927 Err=0
id=790593 time=14.11.2019 01:02:43 Vmax=2.5 Vmin=1.6 Vmid=2 Napr=55 uakb=12.62 usb=0 temp=-12.74 hum=83.6 prs=1014.41 Log=142925 Err=0
id=790592 time=14.11.2019 01:01:34 Vmax=3.6 Vmin=2.6 Vmid=3 Napr=61 uakb=12.62 usb=0 temp=-12.74 hum=83.58 prs=1014.43 Log=142924 Err=0
id=790591 time=14.11.2019 01:00:24 Vmax=4.4 Vmin=3.2 Vmid=3.9 Napr=54 uakb=12.62 usb=0 temp=-12.73 hum=83.6 prs=1014.43 Log=142923 Err=0
id=790590 time=14.11.2019 00:59:14 Vmax=4 Vmin=2.6 Vmid=3.3 Napr=59 uakb=12.62 usb=0 temp=-12.71 hum=83.59 prs=1014.39 Log=142922 Err=0
id=790589 time=14.11.2019 00:58:05 Vmax=2.9 Vmin=2 Vmid=2.3 Napr=60 uakb=12.62 usb=0 temp=-12.7 hum=83.6 prs=1014.36 Log=142921 Err=0
id=790588 time=14.11.2019 00:56:55 Vmax=3.3 Vmin=1.8 Vmid=2.7 Napr=60 uakb=12.64 usb=0 temp=-12.66 hum=83.61 prs=1014.36 Log=142920 Err=0
id=790587 time=14.11.2019 00:55:45 Vmax=4.7 Vmin=2.1 Vmid=3.2 Napr=53 uakb=12.62 usb=0 temp=-12.65 hum=83.62 prs=1014.36 Log=142919 Err=0
id=790586 time=14.11.2019 00:54:36 Vmax=5.4 Vmin=3.3 Vmid=4.3 Napr=60 uakb=12.64 usb=0 temp=-12.64 hum=83.62 prs=1014.34 Log=142918 Err=0
id=790585 time=14.11.2019 00:53:26 Vmax=4.2 Vmin=2.1 Vmid=2.8 Napr=59 uakb=12.64 usb=0 temp=-12.63 hum=83.64 prs=1014.35 Log=142917 Err=0
id=790584 time=14.11.2019 00:52:17 Vmax=4.9 Vmin=2 Vmid=3.2 Napr=59 uakb=12.64 usb=0 temp=-12.62 hum=83.64 prs=1014.33 Log=142916 Err=0
id=790583 time=14.11.2019 00:51:07 Vmax=5.9 Vmin=3.3 Vmid=4.2 Napr=63 uakb=12.62 usb=0 temp=-12.62 hum=83.63 prs=1014.33 Log=142915 Err=0
id=790582 time=14.11.2019 00:49:57 Vmax=3.7 Vmin=2.1 Vmid=2.7 Napr=63 uakb=12.64 usb=0 temp=-12.6 hum=83.63 prs=1014.32 Log=142914 Err=0
id=790581 time=14.11.2019 00:48:47 Vmax=4.6 Vmin=1.9 Vmid=3.2 Napr=60 uakb=12.64 usb=0 temp=-12.58 hum=83.64 prs=1014.29 Log=142913 Err=0
id=790580 time=14.11.2019 00:47:38 Vmax=4.3 Vmin=3 Vmid=3.7 Napr=60 uakb=12.64 usb=0 temp=-12.55 hum=83.64 prs=1014.3 Log=142912 Err=0
id=790579 time=14.11.2019 00:46:29 Vmax=4.7 Vmin=2.5 Vmid=3.5 Napr=56 uakb=12.62 usb=0 temp=-12.54 hum=83.65 prs=1014.26 Log=142911 Err=0
id=790578 time=14.11.2019 00:45:19 Vmax=3.7 Vmin=2 Vmid=2.8 Napr=48 uakb=12.64 usb=0 temp=-12.54 hum=83.67 prs=1014.28 Log=142910 Err=0
id=790577 time=14.11.2019 00:43:00 Vmax=4.2 Vmin=2 Vmid=2.9 Napr=59 uakb=12.62 usb=0 temp=-12.53 hum=83.67 prs=1014.27 Log=142908 Err=0
id=790576 time=14.11.2019 00:41:50 Vmax=3.5 Vmin=1.9 Vmid=2.5 Napr=65 uakb=12.64 usb=0 temp=-12.51 hum=83.66 prs=1014.27 Log=142907 Err=0
id=790575 time=14.11.2019 00:40:40 Vmax=3.5 Vmin=1.6 Vmid=2.2 Napr=65 uakb=12.64 usb=0 temp=-12.5 hum=83.65 prs=1014.29 Log=142906 Err=0
id=790574 time=14.11.2019 00:39:31 Vmax=2.5 Vmin=1.3 Vmid=1.9 Napr=66 uakb=12.62 usb=0 temp=-12.48 hum=83.68 prs=1014.3 Log=142905 Err=0
id=790573 time=14.11.2019 00:38:22 Vmax=3.6 Vmin=1.9 Vmid=2.5 Napr=61 uakb=12.64 usb=0 temp=-12.47 hum=83.67 prs=1014.27 Log=142904 Err=0
id=790572 time=14.11.2019 00:37:12 Vmax=4.6 Vmin=2.1 Vmid=3.2 Napr=56 uakb=12.62 usb=0 temp=-12.48 hum=83.69 prs=1014.29 Log=142903 Err=0
id=790571 time=14.11.2019 00:36:02 Vmax=3.6 Vmin=1.8 Vmid=2.5 Napr=61 uakb=12.64 usb=0 temp=-12.47 hum=83.68 prs=1014.3 Log=142902 Err=0
id=790570 time=14.11.2019 00:34:53 Vmax=3.3 Vmin=2.1 Vmid=2.6 Napr=64 uakb=12.64 usb=0 temp=-12.44 hum=83.69 prs=1014.27 Log=142901 Err=0
id=790569 time=14.11.2019 00:33:43 Vmax=2.8 Vmin=1.8 Vmid=2.3 Napr=59 uakb=12.62 usb=0 temp=-12.41 hum=83.68 prs=1014.28 Log=142900 Err=0
id=790568 time=14.11.2019 00:32:33 Vmax=3.9 Vmin=0.7 Vmid=2.1 Napr=61 uakb=12.64 usb=0 temp=-12.39 hum=83.69 prs=1014.24 Log=142899 Err=0
id=790567 time=14.11.2019 00:31:23 Vmax=4.1 Vmin=2.2 Vmid=2.8 Napr=59 uakb=12.64 usb=0 temp=-12.38 hum=83.71 prs=1014.24 Log=142898 Err=0
id=790566 time=14.11.2019 00:30:14 Vmax=2.7 Vmin=2.1 Vmid=2.5 Napr=61 uakb=12.64 usb=0 temp=-12.36 hum=83.71 prs=1014.24 Log=142897 Err=0
id=790565 time=14.11.2019 00:29:05 Vmax=4.3 Vmin=2.9 Vmid=3.4 Napr=62 uakb=12.64 usb=0 temp=-12.34 hum=83.71 prs=1014.22 Log=142896 Err=0
id=790564 time=14.11.2019 00:27:55 Vmax=2.7 Vmin=1.2 Vmid=2 Napr=60 uakb=12.62 usb=0 temp=-12.31 hum=83.71 prs=1014.25 Log=142895 Err=0
id=790563 time=14.11.2019 00:26:45 Vmax=3.2 Vmin=1.6 Vmid=2.3 Napr=58 uakb=12.64 usb=0 temp=-12.28 hum=83.72 prs=1014.29 Log=142894 Err=0
id=790562 time=14.11.2019 00:25:35 Vmax=3.5 Vmin=2.2 Vmid=2.8 Napr=53 uakb=12.64 usb=0 temp=-12.27 hum=83.74 prs=1014.27 Log=142893 Err=0
id=790561 time=14.11.2019 00:24:26 Vmax=4.1 Vmin=2.5 Vmid=3.2 Napr=57 uakb=12.64 usb=0 temp=-12.25 hum=83.73 prs=1014.29 Log=142892 Err=0
id=790560 time=14.11.2019 00:23:16 Vmax=3.4 Vmin=2 Vmid=2.7 Napr=55 uakb=12.64 usb=0 temp=-12.23 hum=83.74 prs=1014.26 Log=142891 Err=0
id=790559 time=14.11.2019 00:22:06 Vmax=3.5 Vmin=2.2 Vmid=2.7 Napr=55 uakb=12.64 usb=0 temp=-12.22 hum=83.75 prs=1014.25 Log=142890 Err=0
id=790558 time=14.11.2019 00:20:57 Vmax=4.9 Vmin=1.8 Vmid=3.5 Napr=57 uakb=12.64 usb=0 temp=-12.2 hum=83.76 prs=1014.32 Log=142889 Err=0
id=790557 time=14.11.2019 00:19:48 Vmax=3.3 Vmin=1.9 Vmid=2.5 Napr=59 uakb=12.64 usb=0 temp=-12.19 hum=83.75 prs=1014.31 Log=142888 Err=0
id=790556 time=14.11.2019 00:18:38 Vmax=4 Vmin=2.9 Vmid=3.3 Napr=56 uakb=12.64 usb=0 temp=-12.18 hum=83.77 prs=1014.29 Log=142887 Err=0
id=790555 time=14.11.2019 00:17:28 Vmax=5.6 Vmin=1.9 Vmid=3.2 Napr=50 uakb=12.64 usb=0 temp=-12.18 hum=83.76 prs=1014.29 Log=142886 Err=0
id=790554 time=14.11.2019 00:15:10 Vmax=4.1 Vmin=2.2 Vmid=3 Napr=48 uakb=12.64 usb=0 temp=-12.18 hum=83.77 prs=1014.29 Log=142884 Err=0
id=790553 time=14.11.2019 00:14:00 Vmax=3.2 Vmin=1.8 Vmid=2.2 Napr=54 uakb=12.64 usb=0 temp=-12.18 hum=83.76 prs=1014.34 Log=142883 Err=0
id=790552 time=14.11.2019 00:12:50 Vmax=3.9 Vmin=2.7 Vmid=3.2 Napr=59 uakb=12.64 usb=0 temp=-12.17 hum=83.77 prs=1014.36 Log=142882 Err=0
id=790551 time=14.11.2019 00:10:32 Vmax=2.7 Vmin=1.8 Vmid=2.1 Napr=67 uakb=12.64 usb=0 temp=-12.13 hum=83.77 prs=1014.28 Log=142880 Err=0
id=790550 time=14.11.2019 00:09:21 Vmax=3 Vmin=1.1 Vmid=1.8 Napr=65 uakb=12.64 usb=0 temp=-12.1 hum=83.77 prs=1014.26 Log=142879 Err=0
id=790549 time=14.11.2019 00:08:12 Vmax=3 Vmin=1.6 Vmid=2.3 Napr=61 uakb=12.64 usb=0 temp=-12.07 hum=83.8 prs=1014.28 Log=142878 Err=0
id=790548 time=14.11.2019 00:07:03 Vmax=3.9 Vmin=1.9 Vmid=2.6 Napr=55 uakb=12.64 usb=0 temp=-12.05 hum=83.81 prs=1014.31 Log=142877 Err=0
id=790547 time=14.11.2019 00:05:53 Vmax=4.1 Vmin=2.9 Vmid=3.3 Napr=56 uakb=12.64 usb=0 temp=-12.02 hum=83.8 prs=1014.3 Log=142876 Err=0
id=790546 time=14.11.2019 00:04:43 Vmax=5.9 Vmin=3.7 Vmid=4.6 Napr=54 uakb=12.64 usb=0 temp=-12.02 hum=83.83 prs=1014.31 Log=142875 Err=0
id=790545 time=14.11.2019 00:03:34 Vmax=3.6 Vmin=2.1 Vmid=2.8 Napr=60 uakb=12.64 usb=0 temp=-12.01 hum=83.83 prs=1014.29 Log=142874 Err=0
id=790544 time=14.11.2019 00:02:24 Vmax=3 Vmin=1.9 Vmid=2.5 Napr=61 uakb=12.64 usb=0 temp=-11.99 hum=83.82 prs=1014.28 Log=142873 Err=0
id=790543 time=14.11.2019 00:01:14 Vmax=2.6 Vmin=1.5 Vmid=2.1 Napr=66 uakb=12.64 usb=0 temp=-11.96 hum=83.81 prs=1014.24 Log=142872 Err=0
id=790542 time=14.11.2019 00:00:05 Vmax=3.2 Vmin=2.1 Vmid=2.5 Napr=60 uakb=12.64 usb=0 temp=-11.93 hum=83.83 prs=1014.22 Log=142871 Err=0
id=790541 time=13.11.2019 23:58:55 Vmax=3.5 Vmin=2.2 Vmid=2.8 Napr=60 uakb=12.64 usb=0 temp=-11.9 hum=83.84 prs=1014.24 Log=142870 Err=0
id=790540 time=13.11.2019 23:57:45 Vmax=4.3 Vmin=2.3 Vmid=2.8 Napr=62 uakb=12.64 usb=0 temp=-11.86 hum=83.85 prs=1014.2 Log=142869 Err=0
id=790539 time=13.11.2019 23:56:36 Vmax=4.7 Vmin=2.6 Vmid=3.9 Napr=57 uakb=12.64 usb=0 temp=-11.84 hum=83.85 prs=1014.25 Log=142868 Err=0
id=790538 time=13.11.2019 23:55:26 Vmax=3.9 Vmin=2.3 Vmid=3.2 Napr=60 uakb=12.64 usb=0 temp=-11.83 hum=83.85 prs=1014.24 Log=142867 Err=0
id=790537 time=13.11.2019 23:54:16 Vmax=3.7 Vmin=2.3 Vmid=2.9 Napr=57 uakb=12.64 usb=0 temp=-11.82 hum=83.87 prs=1014.26 Log=142866 Err=0
id=790536 time=13.11.2019 23:53:07 Vmax=3.7 Vmin=1.8 Vmid=2.6 Napr=55 uakb=12.64 usb=0 temp=-11.81 hum=83.86 prs=1014.23 Log=142865 Err=0
id=790535 time=13.11.2019 23:51:57 Vmax=2.9 Vmin=1.9 Vmid=2.3 Napr=55 uakb=12.66 usb=0 temp=-11.8 hum=83.86 prs=1014.23 Log=142864 Err=0
id=790534 time=13.11.2019 23:50:47 Vmax=3.7 Vmin=1.2 Vmid=2.5 Napr=54 uakb=12.66 usb=0 temp=-11.78 hum=83.88 prs=1014.23 Log=142863 Err=0
id=790533 time=13.11.2019 23:49:38 Vmax=3.9 Vmin=1.9 Vmid=2.8 Napr=53 uakb=12.64 usb=0 temp=-11.78 hum=83.87 prs=1014.2 Log=142862 Err=0
id=790532 time=13.11.2019 23:48:28 Vmax=3.7 Vmin=2.5 Vmid=3 Napr=52 uakb=12.64 usb=0 temp=-11.76 hum=83.89 prs=1014.2 Log=142861 Err=0
id=790531 time=13.11.2019 23:47:19 Vmax=4.3 Vmin=3.2 Vmid=3.5 Napr=57 uakb=12.62 usb=0 temp=-11.75 hum=83.89 prs=1014.23 Log=142860 Err=0
id=790530 time=13.11.2019 23:46:10 Vmax=2.5 Vmin=1.9 Vmid=2.1 Napr=62 uakb=12.64 usb=0 temp=-11.75 hum=83.88 prs=1014.23 Log=142859 Err=0
id=790529 time=13.11.2019 23:45:00 Vmax=2.5 Vmin=1.5 Vmid=2 Napr=61 uakb=12.64 usb=0 temp=-11.73 hum=83.89 prs=1014.22 Log=142858 Err=0
id=790528 time=13.11.2019 23:43:50 Vmax=3.5 Vmin=2 Vmid=2.7 Napr=59 uakb=12.66 usb=0 temp=-11.7 hum=83.89 prs=1014.22 Log=142857 Err=0
id=790527 time=13.11.2019 23:42:40 Vmax=4.6 Vmin=2.6 Vmid=3.6 Napr=51 uakb=12.64 usb=0 temp=-11.69 hum=83.92 prs=1014.22 Log=142856 Err=0
id=790526 time=13.11.2019 23:41:31 Vmax=4.1 Vmin=2.2 Vmid=3.3 Napr=53 uakb=12.64 usb=0 temp=-11.7 hum=83.92 prs=1014.2 Log=142855 Err=0
id=790525 time=13.11.2019 23:40:21 Vmax=2.9 Vmin=1.8 Vmid=2.5 Napr=56 uakb=12.64 usb=0 temp=-11.69 hum=83.92 prs=1014.2 Log=142854 Err=0
id=790524 time=13.11.2019 23:39:11 Vmax=3.4 Vmin=2.3 Vmid=2.8 Napr=50 uakb=12.64 usb=0 temp=-11.69 hum=83.93 prs=1014.22 Log=142853 Err=0
id=790523 time=13.11.2019 23:38:01 Vmax=3.6 Vmin=1.9 Vmid=2.6 Napr=59 uakb=12.64 usb=0 temp=-11.7 hum=83.92 prs=1014.17 Log=142852 Err=0
id=790522 time=13.11.2019 23:36:52 Vmax=3.4 Vmin=2.2 Vmid=2.8 Napr=55 uakb=12.64 usb=0 temp=-11.71 hum=83.91 prs=1014.16 Log=142851 Err=0
id=790521 time=13.11.2019 23:35:43 Vmax=4.6 Vmin=2.2 Vmid=3.5 Napr=61 uakb=12.64 usb=0 temp=-11.71 hum=83.92 prs=1014.16 Log=142850 Err=0
id=790520 time=13.11.2019 23:34:33 Vmax=3.9 Vmin=2.1 Vmid=2.9 Napr=61 uakb=12.64 usb=0 temp=-11.69 hum=83.93 prs=1014.16 Log=142849 Err=0
id=790519 time=13.11.2019 23:33:23 Vmax=3.3 Vmin=1.8 Vmid=2.6 Napr=55 uakb=12.64 usb=0 temp=-11.69 hum=83.95 prs=1014.11 Log=142848 Err=0
id=790518 time=13.11.2019 23:32:14 Vmax=3.6 Vmin=2.5 Vmid=3 Napr=58 uakb=12.64 usb=0 temp=-11.7 hum=83.96 prs=1014.11 Log=142847 Err=0
id=790517 time=13.11.2019 23:31:04 Vmax=4 Vmin=2.5 Vmid=3 Napr=62 uakb=12.64 usb=0 temp=-11.69 hum=83.94 prs=1014.1 Log=142846 Err=0
id=790516 time=13.11.2019 23:29:54 Vmax=3.6 Vmin=2.5 Vmid=3 Napr=53 uakb=12.64 usb=0 temp=-11.68 hum=83.94 prs=1014.15 Log=142845 Err=0
id=790515 time=13.11.2019 23:28:45 Vmax=4.3 Vmin=1.9 Vmid=2.3 Napr=56 uakb=12.64 usb=0 temp=-11.68 hum=83.95 prs=1014.12 Log=142844 Err=0
id=790514 time=13.11.2019 23:27:35 Vmax=3.2 Vmin=1.8 Vmid=2.2 Napr=62 uakb=12.66 usb=0 temp=-11.66 hum=83.96 prs=1014.1 Log=142843 Err=0
id=790513 time=13.11.2019 23:26:26 Vmax=3.3 Vmin=1.6 Vmid=2.6 Napr=63 uakb=12.64 usb=0 temp=-11.65 hum=83.94 prs=1014.08 Log=142842 Err=0
id=790512 time=13.11.2019 23:25:16 Vmax=4.6 Vmin=2.7 Vmid=3.4 Napr=59 uakb=12.64 usb=0 temp=-11.63 hum=84 prs=1014.06 Log=142841 Err=0
id=790511 time=13.11.2019 23:24:06 Vmax=2.9 Vmin=1.9 Vmid=2.3 Napr=56 uakb=12.64 usb=0 temp=-11.64 hum=83.97 prs=1014.09 Log=142840 Err=0
id=790510 time=13.11.2019 23:22:57 Vmax=4 Vmin=2.6 Vmid=3.2 Napr=60 uakb=12.66 usb=0 temp=-11.64 hum=83.96 prs=1014.06 Log=142839 Err=0
id=790509 time=13.11.2019 23:21:47 Vmax=4.3 Vmin=2.1 Vmid=2.9 Napr=62 uakb=12.64 usb=0 temp=-11.65 hum=83.97 prs=1014.1 Log=142838 Err=0
id=790508 time=13.11.2019 23:20:37 Vmax=3.7 Vmin=2 Vmid=2.6 Napr=53 uakb=12.64 usb=0 temp=-11.63 hum=83.99 prs=1014.07 Log=142837 Err=0
id=790507 time=13.11.2019 23:19:28 Vmax=2.7 Vmin=2 Vmid=2.2 Napr=53 uakb=12.64 usb=0 temp=-11.63 hum=83.99 prs=1014.07 Log=142836 Err=0
id=790506 time=13.11.2019 23:18:18 Vmax=3.3 Vmin=2.5 Vmid=2.8 Napr=58 uakb=12.64 usb=0 temp=-11.61 hum=83.99 prs=1014.08 Log=142835 Err=0
id=790505 time=13.11.2019 23:17:08 Vmax=4.3 Vmin=1.5 Vmid=2.8 Napr=60 uakb=12.64 usb=0 temp=-11.6 hum=83.98 prs=1014.04 Log=142834 Err=0
id=790504 time=13.11.2019 23:15:58 Vmax=3.2 Vmin=1.3 Vmid=2.1 Napr=67 uakb=12.64 usb=0 temp=-11.57 hum=83.98 prs=1014.04 Log=142833 Err=0
id=790503 time=13.11.2019 23:14:49 Vmax=3.7 Vmin=2.3 Vmid=3 Napr=61 uakb=12.64 usb=0 temp=-11.54 hum=84 prs=1014.07 Log=142832 Err=0
id=790502 time=13.11.2019 23:13:39 Vmax=3.7 Vmin=2.1 Vmid=2.7 Napr=54 uakb=12.64 usb=0 temp=-11.53 hum=84.01 prs=1014.05 Log=142831 Err=0
id=790501 time=13.11.2019 23:12:29 Vmax=4.6 Vmin=1.9 Vmid=2.9 Napr=57 uakb=12.64 usb=0 temp=-11.52 hum=84.01 prs=1014.05 Log=142830 Err=0
id=790500 time=13.11.2019 23:11:20 Vmax=4.9 Vmin=1.9 Vmid=3.4 Napr=59 uakb=12.64 usb=0 temp=-11.51 hum=84.02 prs=1014.07 Log=142829 Err=0
id=790499 time=13.11.2019 23:10:11 Vmax=2.8 Vmin=2 Vmid=2.5 Napr=65 uakb=12.62 usb=0 temp=-11.49 hum=84.03 prs=1014.05 Log=142828 Err=0
id=790498 time=13.11.2019 23:07:52 Vmax=3.7 Vmin=2.7 Vmid=3.2 Napr=60 uakb=12.64 usb=0 temp=-11.46 hum=84.03 prs=1014.04 Log=142826 Err=0
id=790497 time=13.11.2019 23:06:42 Vmax=2.9 Vmin=1.8 Vmid=2.3 Napr=64 uakb=12.64 usb=0 temp=-11.44 hum=84.04 prs=1014.01 Log=142825 Err=0
id=790496 time=13.11.2019 23:05:33 Vmax=4.1 Vmin=2.6 Vmid=3.2 Napr=56 uakb=12.66 usb=0 temp=-11.43 hum=84.04 prs=1014.06 Log=142824 Err=0
id=790495 time=13.11.2019 23:04:23 Vmax=4.4 Vmin=2.6 Vmid=3.3 Napr=55 uakb=12.66 usb=0 temp=-11.42 hum=84.04 prs=1014.06 Log=142823 Err=0
id=790494 time=13.11.2019 23:03:13 Vmax=3.9 Vmin=2.7 Vmid=3.2 Napr=56 uakb=12.66 usb=0 temp=-11.4 hum=84.06 prs=1014.05 Log=142822 Err=0
id=790493 time=13.11.2019 23:02:04 Vmax=3.4 Vmin=1.8 Vmid=2.6 Napr=54 uakb=12.66 usb=0 temp=-11.39 hum=84.07 prs=1013.99 Log=142821 Err=0
id=790492 time=13.11.2019 23:00:54 Vmax=2.6 Vmin=1.8 Vmid=2.1 Napr=56 uakb=12.64 usb=0 temp=-11.38 hum=84.06 prs=1013.98 Log=142820 Err=0
id=790491 time=13.11.2019 22:59:44 Vmax=2.8 Vmin=1.5 Vmid=2.2 Napr=48 uakb=12.64 usb=0 temp=-11.36 hum=84.07 prs=1013.97 Log=142819 Err=0
id=790490 time=13.11.2019 22:58:35 Vmax=4.3 Vmin=2.2 Vmid=3.4 Napr=56 uakb=12.66 usb=0 temp=-11.35 hum=84.06 prs=1013.98 Log=142818 Err=0
id=790489 time=13.11.2019 22:57:25 Vmax=3.3 Vmin=2.2 Vmid=2.5 Napr=57 uakb=12.64 usb=0 temp=-11.33 hum=84.07 prs=1013.98 Log=142817 Err=0
id=790488 time=13.11.2019 22:56:16 Vmax=2.8 Vmin=2.3 Vmid=2.5 Napr=55 uakb=12.66 usb=0 temp=-11.32 hum=84.08 prs=1013.94 Log=142816 Err=0
id=790487 time=13.11.2019 22:55:06 Vmax=4.9 Vmin=3.3 Vmid=4.2 Napr=57 uakb=12.66 usb=0 temp=-11.3 hum=84.08 prs=1013.94 Log=142815 Err=0
id=790486 time=13.11.2019 22:53:56 Vmax=3.9 Vmin=1.6 Vmid=2.9 Napr=59 uakb=12.66 usb=0 temp=-11.3 hum=84.09 prs=1013.93 Log=142814 Err=0
id=790485 time=13.11.2019 22:52:46 Vmax=2.7 Vmin=2 Vmid=2.2 Napr=56 uakb=12.66 usb=0 temp=-11.29 hum=84.09 prs=1013.93 Log=142813 Err=0
id=790484 time=13.11.2019 22:51:36 Vmax=4.3 Vmin=2.7 Vmid=3.4 Napr=59 uakb=12.66 usb=0 temp=-11.26 hum=84.12 prs=1013.97 Log=142812 Err=0
id=790483 time=13.11.2019 22:50:27 Vmax=4.8 Vmin=1.8 Vmid=3.5 Napr=54 uakb=12.66 usb=0 temp=-11.27 hum=84.12 prs=1013.92 Log=142811 Err=0
id=790482 time=13.11.2019 22:49:18 Vmax=4.7 Vmin=3 Vmid=3.5 Napr=61 uakb=12.66 usb=0 temp=-11.26 hum=84.12 prs=1013.92 Log=142810 Err=0
id=790481 time=13.11.2019 22:48:08 Vmax=3.7 Vmin=2.2 Vmid=3 Napr=52 uakb=12.66 usb=0 temp=-11.24 hum=84.12 prs=1013.91 Log=142809 Err=0
id=790480 time=13.11.2019 22:46:58 Vmax=4.2 Vmin=2 Vmid=3.2 Napr=53 uakb=12.66 usb=0 temp=-11.23 hum=84.12 prs=1013.95 Log=142808 Err=0
id=790479 time=13.11.2019 22:45:49 Vmax=3.5 Vmin=2 Vmid=2.7 Napr=56 uakb=12.66 usb=0 temp=-11.21 hum=84.14 prs=1013.94 Log=142807 Err=0
id=790478 time=13.11.2019 22:44:39 Vmax=4.1 Vmin=1.8 Vmid=2.8 Napr=64 uakb=12.66 usb=0 temp=-11.19 hum=84.13 prs=1013.91 Log=142806 Err=0
id=790477 time=13.11.2019 22:43:29 Vmax=2.3 Vmin=1.8 Vmid=2 Napr=58 uakb=12.66 usb=0 temp=-11.16 hum=84.14 prs=1013.86 Log=142805 Err=0
id=790476 time=13.11.2019 22:42:20 Vmax=4.7 Vmin=1.6 Vmid=3 Napr=57 uakb=12.66 usb=0 temp=-11.12 hum=84.14 prs=1013.87 Log=142804 Err=0
id=790475 time=13.11.2019 22:41:10 Vmax=3.4 Vmin=2 Vmid=2.6 Napr=53 uakb=12.66 usb=0 temp=-11.1 hum=84.15 prs=1013.85 Log=142803 Err=0
id=790474 time=13.11.2019 22:40:00 Vmax=3.9 Vmin=1.5 Vmid=2.6 Napr=53 uakb=12.66 usb=0 temp=-11.09 hum=84.16 prs=1013.84 Log=142802 Err=0
id=790473 time=13.11.2019 22:38:51 Vmax=2.8 Vmin=1.9 Vmid=2.1 Napr=50 uakb=12.66 usb=0 temp=-11.06 hum=84.17 prs=1013.83 Log=142801 Err=0
id=790472 time=13.11.2019 22:37:41 Vmax=3.5 Vmin=2.2 Vmid=2.8 Napr=51 uakb=12.66 usb=0 temp=-11.04 hum=84.2 prs=1013.83 Log=142800 Err=0
id=790471 time=13.11.2019 22:36:32 Vmax=3.4 Vmin=2.2 Vmid=2.7 Napr=51 uakb=12.66 usb=0 temp=-11.04 hum=84.19 prs=1013.8 Log=142799 Err=0
id=790470 time=13.11.2019 22:35:21 Vmax=2.7 Vmin=1.5 Vmid=2.1 Napr=51 uakb=12.66 usb=0 temp=-11.02 hum=84.19 prs=1013.78 Log=142798 Err=0
id=790469 time=13.11.2019 22:34:12 Vmax=4 Vmin=2.1 Vmid=2.7 Napr=46 uakb=12.66 usb=0 temp=-11.01 hum=84.2 prs=1013.75 Log=142797 Err=0
id=790468 time=13.11.2019 22:33:02 Vmax=4.7 Vmin=3.4 Vmid=3.9 Napr=48 uakb=12.66 usb=0 temp=-11.01 hum=84.21 prs=1013.76 Log=142796 Err=0
id=790467 time=13.11.2019 22:31:52 Vmax=3.7 Vmin=2.3 Vmid=3 Napr=48 uakb=12.66 usb=0 temp=-11.03 hum=84.23 prs=1013.75 Log=142795 Err=0
id=790466 time=13.11.2019 22:30:43 Vmax=3.9 Vmin=2.3 Vmid=2.9 Napr=50 uakb=12.66 usb=0 temp=-11.03 hum=84.2 prs=1013.73 Log=142794 Err=0
id=790465 time=13.11.2019 22:29:33 Vmax=4.3 Vmin=1.8 Vmid=3 Napr=47 uakb=12.66 usb=0 temp=-11.01 hum=84.21 prs=1013.75 Log=142793 Err=0
id=790464 time=13.11.2019 22:28:24 Vmax=2.9 Vmin=1.6 Vmid=2.6 Napr=48 uakb=12.66 usb=0 temp=-11.01 hum=84.21 prs=1013.73 Log=142792 Err=0
id=790463 time=13.11.2019 22:27:14 Vmax=3 Vmin=2.6 Vmid=2.8 Napr=49 uakb=12.66 usb=0 temp=-10.99 hum=84.23 prs=1013.76 Log=142791 Err=0
id=790462 time=13.11.2019 22:26:04 Vmax=4.3 Vmin=2.3 Vmid=3 Napr=46 uakb=12.66 usb=0 temp=-10.99 hum=84.24 prs=1013.78 Log=142790 Err=0
id=790461 time=13.11.2019 22:24:56 Vmax=3.3 Vmin=2.1 Vmid=2.8 Napr=53 uakb=12.66 usb=0 temp=-11 hum=84.25 prs=1013.72 Log=142789 Err=0
id=790460 time=13.11.2019 22:23:45 Vmax=3.4 Vmin=2 Vmid=2.7 Napr=54 uakb=12.66 usb=0 temp=-10.99 hum=84.22 prs=1013.71 Log=142788 Err=0
id=790459 time=13.11.2019 22:22:36 Vmax=3.5 Vmin=2.2 Vmid=2.9 Napr=51 uakb=12.66 usb=0 temp=-10.97 hum=84.25 prs=1013.77 Log=142787 Err=0
id=790458 time=13.11.2019 22:21:26 Vmax=2.8 Vmin=1.5 Vmid=2.2 Napr=50 uakb=12.66 usb=0 temp=-10.97 hum=84.25 prs=1013.78 Log=142786 Err=0
id=790457 time=13.11.2019 22:20:16 Vmax=3.3 Vmin=1.4 Vmid=2.3 Napr=49 uakb=12.66 usb=0 temp=-10.96 hum=84.28 prs=1013.77 Log=142785 Err=0
id=790456 time=13.11.2019 22:19:07 Vmax=2.8 Vmin=1.2 Vmid=1.9 Napr=50 uakb=12.66 usb=0 temp=-10.95 hum=84.25 prs=1013.78 Log=142784 Err=0
id=790455 time=13.11.2019 22:17:57 Vmax=3.6 Vmin=1.9 Vmid=2.7 Napr=54 uakb=12.66 usb=0 temp=-10.93 hum=84.26 prs=1013.8 Log=142783 Err=0
id=790454 time=13.11.2019 22:16:48 Vmax=3.5 Vmin=2.5 Vmid=2.9 Napr=57 uakb=12.66 usb=0 temp=-10.92 hum=84.28 prs=1013.78 Log=142782 Err=0
id=790453 time=13.11.2019 22:15:37 Vmax=3 Vmin=1.6 Vmid=2.2 Napr=60 uakb=12.68 usb=0 temp=-10.91 hum=84.26 prs=1013.8 Log=142781 Err=0
id=790452 time=13.11.2019 22:14:28 Vmax=3.3 Vmin=1.4 Vmid=2.2 Napr=65 uakb=12.68 usb=0 temp=-10.88 hum=84.27 prs=1013.78 Log=142780 Err=0
id=790451 time=13.11.2019 22:13:18 Vmax=2.2 Vmin=1.5 Vmid=1.9 Napr=66 uakb=12.66 usb=0 temp=-10.84 hum=84.27 prs=1013.77 Log=142779 Err=0
id=790450 time=13.11.2019 22:12:09 Vmax=3 Vmin=1.4 Vmid=2.2 Napr=61 uakb=12.66 usb=0 temp=-10.82 hum=84.29 prs=1013.78 Log=142778 Err=0
id=790449 time=13.11.2019 22:11:00 Vmax=2.5 Vmin=1.5 Vmid=1.9 Napr=48 uakb=12.68 usb=0 temp=-10.81 hum=84.31 prs=1013.8 Log=142777 Err=0
id=790448 time=13.11.2019 22:09:49 Vmax=3.3 Vmin=2 Vmid=2.6 Napr=54 uakb=12.66 usb=0 temp=-10.81 hum=84.33 prs=1013.83 Log=142776 Err=0
id=790447 time=13.11.2019 22:08:40 Vmax=3.5 Vmin=1.6 Vmid=2.9 Napr=56 uakb=12.66 usb=0 temp=-10.81 hum=84.32 prs=1013.85 Log=142775 Err=0
id=790446 time=13.11.2019 22:07:30 Vmax=2.8 Vmin=1.8 Vmid=2.1 Napr=60 uakb=12.66 usb=0 temp=-10.8 hum=84.33 prs=1013.87 Log=142774 Err=0
id=790445 time=13.11.2019 22:06:21 Vmax=2.7 Vmin=0.9 Vmid=1.6 Napr=61 uakb=12.68 usb=0 temp=-10.79 hum=84.32 prs=1013.85 Log=142773 Err=0
id=790444 time=13.11.2019 22:05:10 Vmax=4.2 Vmin=2 Vmid=2.9 Napr=59 uakb=12.66 usb=0 temp=-10.78 hum=84.34 prs=1013.84 Log=142772 Err=0
id=790443 time=13.11.2019 22:04:01 Vmax=3.7 Vmin=2.3 Vmid=2.9 Napr=64 uakb=12.68 usb=0 temp=-10.76 hum=84.33 prs=1013.84 Log=142771 Err=0
id=790442 time=13.11.2019 22:02:52 Vmax=2.6 Vmin=1.2 Vmid=1.9 Napr=59 uakb=12.66 usb=0 temp=-10.74 hum=84.34 prs=1013.81 Log=142770 Err=0
id=790441 time=13.11.2019 22:01:42 Vmax=2.7 Vmin=1.8 Vmid=2 Napr=64 uakb=12.66 usb=0 temp=-10.71 hum=84.34 prs=1013.81 Log=142769 Err=0
id=790440 time=13.11.2019 22:00:32 Vmax=2.8 Vmin=2.1 Vmid=2.5 Napr=58 uakb=12.68 usb=0 temp=-10.68 hum=84.35 prs=1013.82 Log=142768 Err=0
id=790439 time=13.11.2019 21:59:22 Vmax=2.8 Vmin=2.1 Vmid=2.3 Napr=49 uakb=12.66 usb=0 temp=-10.65 hum=84.37 prs=1013.86 Log=142767 Err=0
id=790438 time=13.11.2019 21:58:13 Vmax=3 Vmin=1.4 Vmid=2.2 Napr=57 uakb=12.68 usb=0 temp=-10.64 hum=84.38 prs=1013.83 Log=142766 Err=0
id=790437 time=13.11.2019 21:57:03 Vmax=2.6 Vmin=1.8 Vmid=2.1 Napr=54 uakb=12.68 usb=0 temp=-10.61 hum=84.36 prs=1013.81 Log=142765 Err=0
id=790436 time=13.11.2019 21:55:54 Vmax=2 Vmin=1.5 Vmid=1.8 Napr=59 uakb=12.66 usb=0 temp=-10.58 hum=84.4 prs=1013.81 Log=142764 Err=0
id=790435 time=13.11.2019 21:54:44 Vmax=4.3 Vmin=1.9 Vmid=2.8 Napr=54 uakb=12.66 usb=0 temp=-10.56 hum=84.4 prs=1013.77 Log=142763 Err=0
id=790434 time=13.11.2019 21:53:34 Vmax=3 Vmin=1.6 Vmid=2.3 Napr=55 uakb=12.66 usb=0 temp=-10.55 hum=84.4 prs=1013.75 Log=142762 Err=0
id=790433 time=13.11.2019 21:52:25 Vmax=3.4 Vmin=2.6 Vmid=2.8 Napr=57 uakb=12.68 usb=0 temp=-10.54 hum=84.42 prs=1013.7 Log=142761 Err=0
id=790432 time=13.11.2019 21:51:15 Vmax=2.3 Vmin=1.8 Vmid=2.1 Napr=60 uakb=12.68 usb=0 temp=-10.55 hum=84.42 prs=1013.7 Log=142760 Err=0
id=790431 time=13.11.2019 21:50:05 Vmax=3.6 Vmin=1.8 Vmid=2.8 Napr=58 uakb=12.68 usb=0 temp=-10.53 hum=84.42 prs=1013.66 Log=142759 Err=0
id=790430 time=13.11.2019 21:48:56 Vmax=2.6 Vmin=2.2 Vmid=2.3 Napr=46 uakb=12.68 usb=0 temp=-10.53 hum=84.44 prs=1013.68 Log=142758 Err=0
id=790429 time=13.11.2019 21:47:46 Vmax=3.5 Vmin=2 Vmid=2.5 Napr=50 uakb=12.66 usb=0 temp=-10.53 hum=84.44 prs=1013.66 Log=142757 Err=0
id=790428 time=13.11.2019 21:46:36 Vmax=3.7 Vmin=2.5 Vmid=3 Napr=54 uakb=12.68 usb=0 temp=-10.55 hum=84.46 prs=1013.71 Log=142756 Err=0
id=790427 time=13.11.2019 21:45:28 Vmax=4.6 Vmin=2.1 Vmid=2.9 Napr=53 uakb=12.68 usb=0 temp=-10.56 hum=84.46 prs=1013.7 Log=142755 Err=0
id=790426 time=13.11.2019 21:44:17 Vmax=3 Vmin=2 Vmid=2.2 Napr=60 uakb=12.68 usb=0 temp=-10.55 hum=84.43 prs=1013.7 Log=142754 Err=0
id=790425 time=13.11.2019 21:43:07 Vmax=3 Vmin=1.8 Vmid=2.3 Napr=59 uakb=12.66 usb=0 temp=-10.51 hum=84.45 prs=1013.76 Log=142753 Err=0
id=790424 time=13.11.2019 21:41:58 Vmax=4.4 Vmin=1.5 Vmid=2.8 Napr=57 uakb=12.66 usb=0 temp=-10.49 hum=84.45 prs=1013.75 Log=142752 Err=0
id=790423 time=13.11.2019 21:40:48 Vmax=3.2 Vmin=1.6 Vmid=2.2 Napr=56 uakb=12.68 usb=0 temp=-10.46 hum=84.47 prs=1013.76 Log=142751 Err=0
id=790422 time=13.11.2019 21:39:38 Vmax=3.9 Vmin=1.9 Vmid=2.6 Napr=50 uakb=12.68 usb=0 temp=-10.47 hum=84.5 prs=1013.75 Log=142750 Err=0
id=790421 time=13.11.2019 21:38:29 Vmax=3.5 Vmin=1.9 Vmid=2.5 Napr=53 uakb=12.68 usb=0 temp=-10.45 hum=84.47 prs=1013.73 Log=142749 Err=0
id=790420 time=13.11.2019 21:37:19 Vmax=1.8 Vmin=1.2 Vmid=1.3 Napr=53 uakb=12.68 usb=0 temp=-10.42 hum=84.49 prs=1013.71 Log=142748 Err=0
id=790419 time=13.11.2019 21:35:00 Vmax=3.6 Vmin=1.9 Vmid=2.7 Napr=57 uakb=12.68 usb=0 temp=-10.39 hum=84.49 prs=1013.71 Log=142746 Err=0
id=790418 time=13.11.2019 21:33:50 Vmax=3.2 Vmin=2.2 Vmid=2.6 Napr=62 uakb=12.68 usb=0 temp=-10.4 hum=84.52 prs=1013.71 Log=142745 Err=0
id=790417 time=13.11.2019 21:32:41 Vmax=3.6 Vmin=2.6 Vmid=3.2 Napr=49 uakb=12.68 usb=0 temp=-10.39 hum=84.52 prs=1013.73 Log=142744 Err=0
id=790416 time=13.11.2019 21:31:31 Vmax=3 Vmin=1.3 Vmid=2.1 Napr=51 uakb=12.68 usb=0 temp=-10.39 hum=84.51 prs=1013.72 Log=142743 Err=0
id=790415 time=13.11.2019 21:30:21 Vmax=3.5 Vmin=1.6 Vmid=2.2 Napr=61 uakb=12.68 usb=0 temp=-10.39 hum=84.54 prs=1013.7 Log=142742 Err=0
id=790414 time=13.11.2019 21:29:11 Vmax=2.7 Vmin=1.4 Vmid=2 Napr=68 uakb=12.68 usb=0 temp=-10.38 hum=84.52 prs=1013.67 Log=142741 Err=0
id=790413 time=13.11.2019 21:28:02 Vmax=2.5 Vmin=1.4 Vmid=1.8 Napr=64 uakb=12.68 usb=0 temp=-10.36 hum=84.55 prs=1013.72 Log=142740 Err=0
id=790412 time=13.11.2019 21:26:52 Vmax=3.3 Vmin=2.1 Vmid=2.6 Napr=63 uakb=12.68 usb=0 temp=-10.34 hum=84.53 prs=1013.72 Log=142739 Err=0
id=790411 time=13.11.2019 21:25:43 Vmax=3.3 Vmin=2.3 Vmid=2.7 Napr=59 uakb=12.66 usb=0 temp=-10.31 hum=84.56 prs=1013.71 Log=142738 Err=0
id=790410 time=13.11.2019 21:24:33 Vmax=2.3 Vmin=1.8 Vmid=2 Napr=66 uakb=12.68 usb=0 temp=-10.29 hum=84.55 prs=1013.75 Log=142737 Err=0
id=790409 time=13.11.2019 21:23:24 Vmax=2.7 Vmin=1.6 Vmid=2 Napr=64 uakb=12.68 usb=0 temp=-10.25 hum=84.57 prs=1013.72 Log=142736 Err=0
id=790408 time=13.11.2019 21:22:14 Vmax=3.4 Vmin=2 Vmid=2.5 Napr=55 uakb=12.68 usb=0 temp=-10.23 hum=84.58 prs=1013.7 Log=142735 Err=0
id=790407 time=13.11.2019 21:21:04 Vmax=2.9 Vmin=1.4 Vmid=2.1 Napr=50 uakb=12.68 usb=0 temp=-10.21 hum=84.58 prs=1013.7 Log=142734 Err=0
id=790406 time=13.11.2019 21:19:54 Vmax=2.7 Vmin=2 Vmid=2.3 Napr=60 uakb=12.68 usb=0 temp=-10.21 hum=84.6 prs=1013.7 Log=142733 Err=0
id=790405 time=13.11.2019 21:18:45 Vmax=3.4 Vmin=1.8 Vmid=2.6 Napr=61 uakb=12.68 usb=0 temp=-10.19 hum=84.6 prs=1013.66 Log=142732 Err=0
id=790404 time=13.11.2019 21:17:35 Vmax=3.4 Vmin=1.6 Vmid=2.3 Napr=56 uakb=12.68 usb=0 temp=-10.16 hum=84.61 prs=1013.62 Log=142731 Err=0
id=790403 time=13.11.2019 21:16:25 Vmax=2.3 Vmin=1.1 Vmid=1.6 Napr=50 uakb=12.7 usb=0 temp=-10.12 hum=84.61 prs=1013.6 Log=142730 Err=0
id=790402 time=13.11.2019 21:15:16 Vmax=1.5 Vmin=1.1 Vmid=1.3 Napr=50 uakb=12.68 usb=0 temp=-10.07 hum=84.61 prs=1013.57 Log=142729 Err=0
id=790401 time=13.11.2019 21:14:06 Vmax=2.2 Vmin=0.8 Vmid=1.5 Napr=51 uakb=12.68 usb=0 temp=-10.02 hum=84.62 prs=1013.57 Log=142728 Err=0
id=790400 time=13.11.2019 21:12:56 Vmax=3 Vmin=2 Vmid=2.5 Napr=56 uakb=12.68 usb=0 temp=-9.99 hum=84.64 prs=1013.55 Log=142727 Err=0
id=790399 time=13.11.2019 21:11:46 Vmax=2.8 Vmin=0.9 Vmid=1.5 Napr=68 uakb=12.7 usb=0 temp=-9.96 hum=84.66 prs=1013.55 Log=142726 Err=0
id=790398 time=13.11.2019 21:10:37 Vmax=2.5 Vmin=1.6 Vmid=2 Napr=68 uakb=12.68 usb=0 temp=-9.93 hum=84.65 prs=1013.55 Log=142725 Err=0
id=790397 time=13.11.2019 21:09:27 Vmax=3.6 Vmin=2.1 Vmid=2.9 Napr=56 uakb=12.68 usb=0 temp=-9.9 hum=84.68 prs=1013.57 Log=142724 Err=0
id=790396 time=13.11.2019 21:08:18 Vmax=3.6 Vmin=1.6 Vmid=2.3 Napr=59 uakb=12.68 usb=0 temp=-9.88 hum=84.66 prs=1013.54 Log=142723 Err=0
id=790395 time=13.11.2019 21:07:08 Vmax=3.9 Vmin=1.6 Vmid=2.7 Napr=55 uakb=12.7 usb=0 temp=-9.86 hum=84.69 prs=1013.54 Log=142722 Err=0
id=790394 time=13.11.2019 21:05:58 Vmax=3.3 Vmin=2 Vmid=2.6 Napr=55 uakb=12.68 usb=0 temp=-9.84 hum=84.7 prs=1013.54 Log=142721 Err=0
id=790393 time=13.11.2019 21:04:49 Vmax=4.3 Vmin=3.3 Vmid=3.6 Napr=49 uakb=12.7 usb=0 temp=-9.85 hum=84.72 prs=1013.54 Log=142720 Err=0
id=790392 time=13.11.2019 21:03:39 Vmax=3.5 Vmin=2.1 Vmid=2.9 Napr=50 uakb=12.68 usb=0 temp=-9.87 hum=84.71 prs=1013.49 Log=142719 Err=0
id=790391 time=13.11.2019 21:02:29 Vmax=3.6 Vmin=2.2 Vmid=2.9 Napr=50 uakb=12.68 usb=0 temp=-9.88 hum=84.73 prs=1013.5 Log=142718 Err=0
id=790390 time=13.11.2019 21:01:19 Vmax=2.5 Vmin=1.6 Vmid=2 Napr=48 uakb=12.7 usb=0 temp=-9.88 hum=84.71 prs=1013.45 Log=142717 Err=0
id=790389 time=13.11.2019 21:00:09 Vmax=3.3 Vmin=2 Vmid=2.6 Napr=53 uakb=12.7 usb=0 temp=-9.87 hum=84.75 prs=1013.45 Log=142716 Err=0
id=790388 time=13.11.2019 20:59:00 Vmax=4 Vmin=2.6 Vmid=3.3 Napr=48 uakb=12.68 usb=0 temp=-9.87 hum=84.73 prs=1013.47 Log=142715 Err=0
id=790387 time=13.11.2019 20:57:51 Vmax=2.7 Vmin=1.8 Vmid=2.1 Napr=50 uakb=12.68 usb=0 temp=-9.89 hum=84.73 prs=1013.46 Log=142714 Err=0
id=790386 time=13.11.2019 20:56:40 Vmax=3.4 Vmin=1.6 Vmid=2.6 Napr=44 uakb=12.68 usb=0 temp=-9.9 hum=84.75 prs=1013.47 Log=142713 Err=0
id=790385 time=13.11.2019 20:55:31 Vmax=2.9 Vmin=2.3 Vmid=2.6 Napr=60 uakb=12.68 usb=0 temp=-9.89 hum=84.74 prs=1013.47 Log=142712 Err=0
id=790384 time=13.11.2019 20:54:22 Vmax=3.3 Vmin=1.4 Vmid=2.5 Napr=65 uakb=12.68 usb=0 temp=-9.88 hum=84.74 prs=1013.44 Log=142711 Err=0
id=790383 time=13.11.2019 20:53:11 Vmax=2.2 Vmin=1.3 Vmid=1.5 Napr=67 uakb=12.7 usb=0 temp=-9.86 hum=84.75 prs=1013.4 Log=142710 Err=0
id=790382 time=13.11.2019 20:52:02 Vmax=3.3 Vmin=1.4 Vmid=2 Napr=59 uakb=12.68 usb=0 temp=-9.84 hum=84.74 prs=1013.41 Log=142709 Err=0
id=790381 time=13.11.2019 20:50:53 Vmax=3.3 Vmin=2 Vmid=2.5 Napr=61 uakb=12.7 usb=0 temp=-9.84 hum=84.8 prs=1013.44 Log=142708 Err=0
id=790380 time=13.11.2019 20:49:42 Vmax=2.5 Vmin=1.4 Vmid=2.1 Napr=65 uakb=12.7 usb=0 temp=-9.83 hum=84.79 prs=1013.41 Log=142707 Err=0
id=790379 time=13.11.2019 20:48:33 Vmax=2.6 Vmin=1.6 Vmid=2 Napr=61 uakb=12.68 usb=0 temp=-9.8 hum=84.79 prs=1013.41 Log=142706 Err=0
id=790378 time=13.11.2019 20:47:24 Vmax=2.6 Vmin=1.4 Vmid=1.9 Napr=59 uakb=12.7 usb=0 temp=-9.77 hum=84.79 prs=1013.39 Log=142705 Err=0
id=790377 time=13.11.2019 20:46:14 Vmax=2.3 Vmin=0.7 Vmid=1.4 Napr=66 uakb=12.7 usb=0 temp=-9.74 hum=84.79 prs=1013.46 Log=142704 Err=0
id=790376 time=13.11.2019 20:45:04 Vmax=1.8 Vmin=1.2 Vmid=1.5 Napr=63 uakb=12.7 usb=0 temp=-9.71 hum=84.81 prs=1013.46 Log=142703 Err=0
id=790375 time=13.11.2019 20:43:54 Vmax=2.7 Vmin=1.9 Vmid=2.2 Napr=63 uakb=12.7 usb=0 temp=-9.7 hum=84.81 prs=1013.45 Log=142702 Err=0
id=790374 time=13.11.2019 20:42:45 Vmax=2.1 Vmin=0.7 Vmid=1.5 Napr=56 uakb=12.7 usb=0 temp=-9.69 hum=84.82 prs=1013.45 Log=142701 Err=0
id=790373 time=13.11.2019 20:41:35 Vmax=1.5 Vmin=0.9 Vmid=1.2 Napr=57 uakb=12.7 usb=0 temp=-9.66 hum=84.83 prs=1013.44 Log=142700 Err=0
id=790372 time=13.11.2019 20:40:25 Vmax=2.7 Vmin=1.3 Vmid=1.9 Napr=61 uakb=12.7 usb=0 temp=-9.62 hum=84.82 prs=1013.42 Log=142699 Err=0
id=790371 time=13.11.2019 20:39:16 Vmax=2.7 Vmin=1.3 Vmid=1.9 Napr=71 uakb=12.7 usb=0 temp=-9.6 hum=84.84 prs=1013.44 Log=142698 Err=0
id=790370 time=13.11.2019 20:38:06 Vmax=1.9 Vmin=1.1 Vmid=1.4 Napr=66 uakb=12.7 usb=0 temp=-9.56 hum=84.86 prs=1013.39 Log=142697 Err=0
id=790369 time=13.11.2019 20:36:57 Vmax=2.2 Vmin=1.4 Vmid=1.8 Napr=50 uakb=12.7 usb=0 temp=-9.53 hum=84.87 prs=1013.38 Log=142696 Err=0
id=790368 time=13.11.2019 20:35:47 Vmax=1.6 Vmin=1.1 Vmid=1.3 Napr=51 uakb=12.7 usb=0 temp=-9.5 hum=84.88 prs=1013.37 Log=142695 Err=0
id=790367 time=13.11.2019 20:34:37 Vmax=3.6 Vmin=2.1 Vmid=2.7 Napr=55 uakb=12.7 usb=0 temp=-9.48 hum=84.88 prs=1013.36 Log=142694 Err=0
id=790366 time=13.11.2019 20:33:27 Vmax=2.8 Vmin=1.8 Vmid=2.3 Napr=66 uakb=12.7 usb=0 temp=-9.45 hum=84.89 prs=1013.33 Log=142693 Err=0
id=790365 time=13.11.2019 20:32:17 Vmax=2.6 Vmin=1.9 Vmid=2.1 Napr=66 uakb=12.7 usb=0 temp=-9.42 hum=84.88 prs=1013.36 Log=142692 Err=0
id=790364 time=13.11.2019 20:31:08 Vmax=2.9 Vmin=2 Vmid=2.5 Napr=55 uakb=12.7 usb=0 temp=-9.38 hum=84.91 prs=1013.37 Log=142691 Err=0
id=790363 time=13.11.2019 20:29:58 Vmax=2.2 Vmin=0.7 Vmid=1.4 Napr=50 uakb=12.7 usb=0 temp=-9.35 hum=84.9 prs=1013.37 Log=142690 Err=0
id=790362 time=13.11.2019 20:28:48 Vmax=2.3 Vmin=1.6 Vmid=2 Napr=50 uakb=12.7 usb=0 temp=-9.32 hum=84.92 prs=1013.33 Log=142689 Err=0
id=790361 time=13.11.2019 20:27:39 Vmax=2.9 Vmin=1.4 Vmid=2.5 Napr=49 uakb=12.72 usb=0 temp=-9.31 hum=84.92 prs=1013.36 Log=142688 Err=0
id=790360 time=13.11.2019 20:26:29 Vmax=2.6 Vmin=0.7 Vmid=1.5 Napr=46 uakb=12.7 usb=0 temp=-9.28 hum=84.92 prs=1013.32 Log=142687 Err=0
id=790359 time=13.11.2019 20:25:20 Vmax=2.1 Vmin=1.6 Vmid=1.9 Napr=45 uakb=12.7 usb=0 temp=-9.24 hum=84.95 prs=1013.32 Log=142686 Err=0
id=790358 time=13.11.2019 20:24:09 Vmax=2 Vmin=1.3 Vmid=1.6 Napr=45 uakb=12.72 usb=0 temp=-9.23 hum=84.97 prs=1013.27 Log=142685 Err=0
id=790357 time=13.11.2019 20:23:00 Vmax=3.7 Vmin=2 Vmid=2.9 Napr=49 uakb=12.72 usb=0 temp=-9.21 hum=84.97 prs=1013.24 Log=142684 Err=0
id=790356 time=13.11.2019 20:21:50 Vmax=2.6 Vmin=1.5 Vmid=1.9 Napr=56 uakb=12.72 usb=0 temp=-9.18 hum=84.96 prs=1013.22 Log=142683 Err=0
id=790355 time=13.11.2019 20:20:40 Vmax=2.9 Vmin=1.9 Vmid=2.3 Napr=53 uakb=12.72 usb=0 temp=-9.15 hum=84.99 prs=1013.2 Log=142682 Err=0
id=790354 time=13.11.2019 20:19:31 Vmax=2.8 Vmin=1.4 Vmid=2.1 Napr=60 uakb=12.72 usb=0 temp=-9.11 hum=84.98 prs=1013.21 Log=142681 Err=0
id=790353 time=13.11.2019 20:18:21 Vmax=2.2 Vmin=1.5 Vmid=1.8 Napr=65 uakb=12.7 usb=0 temp=-9.07 hum=85 prs=1013.17 Log=142680 Err=0
id=790352 time=13.11.2019 20:17:11 Vmax=2.8 Vmin=1.8 Vmid=2.5 Napr=65 uakb=12.7 usb=0 temp=-9.05 hum=85.02 prs=1013.18 Log=142679 Err=0
id=790351 time=13.11.2019 20:16:01 Vmax=3.5 Vmin=2 Vmid=2.6 Napr=64 uakb=12.7 usb=0 temp=-9.01 hum=85.01 prs=1013.19 Log=142678 Err=0
id=790350 time=13.11.2019 20:14:51 Vmax=3.7 Vmin=1.5 Vmid=2.5 Napr=63 uakb=12.7 usb=0 temp=-8.97 hum=85 prs=1013.16 Log=142677 Err=0
id=790349 time=13.11.2019 20:13:42 Vmax=3 Vmin=2.1 Vmid=2.5 Napr=53 uakb=12.7 usb=0 temp=-8.93 hum=85.03 prs=1013.19 Log=142676 Err=0
id=790348 time=13.11.2019 20:12:32 Vmax=3.5 Vmin=2.1 Vmid=2.6 Napr=55 uakb=12.72 usb=0 temp=-8.9 hum=85.04 prs=1013.19 Log=142675 Err=0
id=790347 time=13.11.2019 20:11:23 Vmax=2.5 Vmin=1.5 Vmid=2 Napr=57 uakb=12.72 usb=0 temp=-8.87 hum=85.05 prs=1013.16 Log=142674 Err=0
id=790346 time=13.11.2019 20:10:13 Vmax=2.9 Vmin=1.9 Vmid=2.3 Napr=64 uakb=12.72 usb=0 temp=-8.82 hum=85.04 prs=1013.16 Log=142673 Err=0
id=790345 time=13.11.2019 20:09:03 Vmax=3.3 Vmin=1.8 Vmid=2.3 Napr=59 uakb=12.72 usb=0 temp=-8.78 hum=85.08 prs=1013.12 Log=142672 Err=0
id=790344 time=13.11.2019 20:07:53 Vmax=2.7 Vmin=1.3 Vmid=2.1 Napr=52 uakb=12.72 usb=0 temp=-8.76 hum=85.08 prs=1013.08 Log=142671 Err=0
id=790343 time=13.11.2019 20:06:43 Vmax=3.4 Vmin=1.2 Vmid=2 Napr=49 uakb=12.72 usb=0 temp=-8.72 hum=85.08 prs=1013.08 Log=142670 Err=0
id=790342 time=13.11.2019 20:05:34 Vmax=3 Vmin=1.6 Vmid=2.3 Napr=52 uakb=12.72 usb=0 temp=-8.69 hum=85.11 prs=1013.09 Log=142669 Err=0
id=790341 time=13.11.2019 20:04:25 Vmax=3.3 Vmin=2.2 Vmid=2.7 Napr=52 uakb=12.72 usb=0 temp=-8.66 hum=85.1 prs=1013.06 Log=142668 Err=0
id=790340 time=13.11.2019 20:03:15 Vmax=3.3 Vmin=2.6 Vmid=2.8 Napr=53 uakb=12.72 usb=0 temp=-8.62 hum=85.12 prs=1013.03 Log=142667 Err=0
id=790339 time=13.11.2019 20:02:04 Vmax=4 Vmin=2.3 Vmid=3 Napr=50 uakb=12.72 usb=0 temp=-8.58 hum=85.14 prs=1013.01 Log=142666 Err=0
id=790338 time=13.11.2019 20:00:55 Vmax=4.7 Vmin=2.7 Vmid=3.7 Napr=50 uakb=12.7 usb=0 temp=-8.55 hum=85.13 prs=1013.01 Log=142665 Err=0
id=790337 time=13.11.2019 19:59:46 Vmax=3.4 Vmin=2.1 Vmid=2.5 Napr=48 uakb=12.72 usb=0 temp=-8.53 hum=85.17 prs=1012.98 Log=142664 Err=0
id=790336 time=13.11.2019 19:58:36 Vmax=2.6 Vmin=1.5 Vmid=2 Napr=50 uakb=12.72 usb=0 temp=-8.51 hum=85.15 prs=1012.98 Log=142663 Err=0
id=790335 time=13.11.2019 19:57:26 Vmax=3.2 Vmin=1.8 Vmid=2.6 Napr=53 uakb=12.72 usb=0 temp=-8.47 hum=85.15 prs=1012.97 Log=142662 Err=0
id=790334 time=13.11.2019 19:56:18 Vmax=3.3 Vmin=1.9 Vmid=2.6 Napr=48 uakb=12.72 usb=0 temp=-8.45 hum=85.17 prs=1012.95 Log=142661 Err=0
id=790333 time=13.11.2019 19:55:07 Vmax=3.5 Vmin=2.7 Vmid=2.9 Napr=50 uakb=12.72 usb=0 temp=-8.42 hum=85.18 prs=1012.88 Log=142660 Err=0
id=790332 time=13.11.2019 19:53:57 Vmax=2.7 Vmin=1.8 Vmid=2.1 Napr=53 uakb=12.72 usb=0 temp=-8.39 hum=85.18 prs=1012.89 Log=142659 Err=0
id=790331 time=13.11.2019 19:52:47 Vmax=3.3 Vmin=2.3 Vmid=2.8 Napr=50 uakb=12.72 usb=0 temp=-8.37 hum=85.19 prs=1012.87 Log=142658 Err=0
id=790330 time=13.11.2019 19:51:37 Vmax=4.2 Vmin=2.8 Vmid=3.5 Napr=46 uakb=12.74 usb=0 temp=-8.34 hum=85.19 prs=1012.93 Log=142657 Err=0
id=790329 time=13.11.2019 19:50:28 Vmax=4 Vmin=1.6 Vmid=2.9 Napr=47 uakb=12.72 usb=0 temp=-8.31 hum=85.21 prs=1012.88 Log=142656 Err=0
id=790328 time=13.11.2019 19:49:18 Vmax=2.9 Vmin=1.8 Vmid=2.6 Napr=46 uakb=12.72 usb=0 temp=-8.29 hum=85.22 prs=1012.89 Log=142655 Err=0
id=790327 time=13.11.2019 19:48:08 Vmax=4.6 Vmin=2.7 Vmid=3.5 Napr=49 uakb=12.72 usb=0 temp=-8.28 hum=85.22 prs=1012.91 Log=142654 Err=0
id=790326 time=13.11.2019 19:46:59 Vmax=4.2 Vmin=1.2 Vmid=2.5 Napr=51 uakb=12.74 usb=0 temp=-8.25 hum=85.25 prs=1012.86 Log=142653 Err=0
id=790325 time=13.11.2019 19:45:49 Vmax=2.1 Vmin=1.6 Vmid=1.8 Napr=50 uakb=12.72 usb=0 temp=-8.23 hum=85.24 prs=1012.82 Log=142652 Err=0
id=790324 time=13.11.2019 19:44:39 Vmax=3.9 Vmin=2.5 Vmid=3.3 Napr=46 uakb=12.72 usb=0 temp=-8.21 hum=85.27 prs=1012.82 Log=142651 Err=0
id=790323 time=13.11.2019 19:43:29 Vmax=4.1 Vmin=2.1 Vmid=3.3 Napr=47 uakb=12.74 usb=0 temp=-8.2 hum=85.28 prs=1012.83 Log=142650 Err=0
id=790322 time=13.11.2019 19:42:20 Vmax=2.5 Vmin=1.2 Vmid=1.8 Napr=55 uakb=12.74 usb=0 temp=-8.17 hum=85.28 prs=1012.79 Log=142649 Err=0
id=790321 time=13.11.2019 19:41:10 Vmax=2.9 Vmin=1.8 Vmid=2.2 Napr=60 uakb=12.74 usb=0 temp=-8.15 hum=85.29 prs=1012.76 Log=142648 Err=0
id=790320 time=13.11.2019 19:40:00 Vmax=3.9 Vmin=2.8 Vmid=3.2 Napr=54 uakb=12.74 usb=0 temp=-8.13 hum=85.29 prs=1012.75 Log=142647 Err=0
id=790319 time=13.11.2019 19:38:50 Vmax=4.8 Vmin=2.8 Vmid=3.6 Napr=50 uakb=12.74 usb=0 temp=-8.11 hum=85.3 prs=1012.74 Log=142646 Err=0
id=790318 time=13.11.2019 19:37:41 Vmax=2.9 Vmin=2.1 Vmid=2.6 Napr=48 uakb=12.72 usb=0 temp=-8.1 hum=85.32 prs=1012.71 Log=142645 Err=0
id=790317 time=13.11.2019 19:36:31 Vmax=2.9 Vmin=1.5 Vmid=2.1 Napr=49 uakb=12.74 usb=0 temp=-8.09 hum=85.31 prs=1012.69 Log=142644 Err=0
id=790316 time=13.11.2019 19:35:21 Vmax=3.3 Vmin=1.6 Vmid=2.5 Napr=53 uakb=12.74 usb=0 temp=-8.06 hum=85.34 prs=1012.71 Log=142643 Err=0
id=790315 time=13.11.2019 19:34:11 Vmax=2.9 Vmin=1.3 Vmid=1.9 Napr=60 uakb=12.74 usb=0 temp=-8.06 hum=85.33 prs=1012.68 Log=142642 Err=0
id=790314 time=13.11.2019 19:33:02 Vmax=2.3 Vmin=1.5 Vmid=1.9 Napr=56 uakb=12.74 usb=0 temp=-8.02 hum=85.33 prs=1012.66 Log=142641 Err=0
id=790313 time=13.11.2019 19:31:52 Vmax=2.7 Vmin=1.2 Vmid=2 Napr=51 uakb=12.74 usb=0 temp=-7.99 hum=85.34 prs=1012.63 Log=142640 Err=0
id=790312 time=13.11.2019 19:30:43 Vmax=3.2 Vmin=2 Vmid=2.6 Napr=50 uakb=12.74 usb=0 temp=-7.96 hum=85.37 prs=1012.59 Log=142639 Err=0
id=790311 time=13.11.2019 19:29:33 Vmax=4.1 Vmin=1.5 Vmid=3 Napr=53 uakb=12.74 usb=0 temp=-7.94 hum=85.35 prs=1012.56 Log=142638 Err=0
id=790310 time=13.11.2019 19:28:22 Vmax=3.2 Vmin=1.4 Vmid=2.2 Napr=60 uakb=12.76 usb=0 temp=-7.91 hum=85.36 prs=1012.53 Log=142637 Err=0
id=790309 time=13.11.2019 19:27:13 Vmax=3.2 Vmin=2 Vmid=2.6 Napr=49 uakb=12.74 usb=0 temp=-7.89 hum=85.38 prs=1012.55 Log=142636 Err=0
id=790308 time=13.11.2019 19:26:03 Vmax=3 Vmin=1.8 Vmid=2.2 Napr=56 uakb=12.74 usb=0 temp=-7.89 hum=85.37 prs=1012.53 Log=142635 Err=0
id=790307 time=13.11.2019 19:24:54 Vmax=3.9 Vmin=1.8 Vmid=2.6 Napr=55 uakb=12.74 usb=0 temp=-7.86 hum=85.39 prs=1012.52 Log=142634 Err=0
id=790306 time=13.11.2019 19:23:44 Vmax=3.7 Vmin=2.3 Vmid=2.8 Napr=50 uakb=12.74 usb=0 temp=-7.84 hum=85.4 prs=1012.52 Log=142633 Err=0
id=790305 time=13.11.2019 19:22:34 Vmax=3 Vmin=2.2 Vmid=2.6 Napr=49 uakb=12.76 usb=0 temp=-7.83 hum=85.42 prs=1012.52 Log=142632 Err=0
id=790304 time=13.11.2019 19:21:24 Vmax=3.3 Vmin=2.3 Vmid=2.9 Napr=52 uakb=12.76 usb=0 temp=-7.82 hum=85.41 prs=1012.52 Log=142631 Err=0
id=790303 time=13.11.2019 19:20:15 Vmax=3 Vmin=1.8 Vmid=2.3 Napr=49 uakb=12.76 usb=0 temp=-7.83 hum=85.44 prs=1012.54 Log=142630 Err=0
id=790302 time=13.11.2019 19:19:04 Vmax=2.2 Vmin=0.7 Vmid=1.3 Napr=54 uakb=12.76 usb=0 temp=-7.83 hum=85.41 prs=1012.53 Log=142629 Err=0
id=790301 time=13.11.2019 19:17:55 Vmax=1.5 Vmin=0.9 Vmid=1.3 Napr=54 uakb=12.76 usb=0 temp=-7.8 hum=85.43 prs=1012.55 Log=142628 Err=0
id=790300 time=13.11.2019 19:16:45 Vmax=3.2 Vmin=1.9 Vmid=2.2 Napr=54 uakb=12.76 usb=0 temp=-7.78 hum=85.44 prs=1012.52 Log=142627 Err=0
id=790299 time=13.11.2019 19:15:35 Vmax=2.3 Vmin=1.3 Vmid=1.6 Napr=51 uakb=12.76 usb=0 temp=-7.76 hum=85.44 prs=1012.52 Log=142626 Err=0
id=790298 time=13.11.2019 19:14:25 Vmax=3.6 Vmin=1.3 Vmid=2.2 Napr=53 uakb=12.76 usb=0 temp=-7.75 hum=85.45 prs=1012.51 Log=142625 Err=0
id=790297 time=13.11.2019 19:13:16 Vmax=2.9 Vmin=1.9 Vmid=2.3 Napr=49 uakb=12.76 usb=0 temp=-7.74 hum=85.48 prs=1012.56 Log=142624 Err=0
id=790296 time=13.11.2019 19:12:06 Vmax=3.3 Vmin=1.6 Vmid=2.3 Napr=55 uakb=12.76 usb=0 temp=-7.73 hum=85.48 prs=1012.57 Log=142623 Err=0
id=790295 time=13.11.2019 19:10:57 Vmax=3.3 Vmin=1.4 Vmid=2.5 Napr=59 uakb=12.76 usb=0 temp=-7.72 hum=85.48 prs=1012.57 Log=142622 Err=0
id=790294 time=13.11.2019 19:09:48 Vmax=3.9 Vmin=2.5 Vmid=2.9 Napr=64 uakb=12.76 usb=0 temp=-7.69 hum=85.47 prs=1012.53 Log=142621 Err=0
id=790293 time=13.11.2019 19:08:37 Vmax=2.7 Vmin=2.1 Vmid=2.5 Napr=62 uakb=12.76 usb=0 temp=-7.67 hum=85.5 prs=1012.55 Log=142620 Err=0
id=790292 time=13.11.2019 19:07:27 Vmax=3.3 Vmin=0.7 Vmid=2.3 Napr=53 uakb=12.78 usb=0 temp=-7.65 hum=85.49 prs=1012.52 Log=142619 Err=0
id=790291 time=13.11.2019 19:06:18 Vmax=1.6 Vmin=1.1 Vmid=1.3 Napr=45 uakb=12.76 usb=0 temp=-7.62 hum=85.5 prs=1012.53 Log=142618 Err=0
id=790290 time=13.11.2019 19:05:07 Vmax=2 Vmin=1.1 Vmid=1.5 Napr=45 uakb=12.78 usb=0 temp=-7.6 hum=85.52 prs=1012.57 Log=142617 Err=0
id=790289 time=13.11.2019 19:03:58 Vmax=2.2 Vmin=1.3 Vmid=1.8 Napr=46 uakb=12.78 usb=0 temp=-7.59 hum=85.53 prs=1012.56 Log=142616 Err=0
id=790288 time=13.11.2019 19:02:48 Vmax=2.5 Vmin=1.2 Vmid=1.9 Napr=50 uakb=12.78 usb=0 temp=-7.57 hum=85.54 prs=1012.53 Log=142615 Err=0
id=790287 time=13.11.2019 19:01:39 Vmax=2.5 Vmin=1.4 Vmid=1.8 Napr=55 uakb=12.78 usb=0 temp=-7.56 hum=85.53 prs=1012.52 Log=142614 Err=0
id=790286 time=13.11.2019 19:00:29 Vmax=3.6 Vmin=2 Vmid=2.6 Napr=55 uakb=12.8 usb=0 temp=-7.54 hum=85.55 prs=1012.5 Log=142613 Err=0
id=790285 time=13.11.2019 18:59:19 Vmax=3.3 Vmin=2.3 Vmid=2.8 Napr=56 uakb=12.8 usb=0 temp=-7.53 hum=85.55 prs=1012.49 Log=142612 Err=0
id=790284 time=13.11.2019 18:58:09 Vmax=2.6 Vmin=1.8 Vmid=2.1 Napr=61 uakb=12.8 usb=0 temp=-7.53 hum=85.55 prs=1012.5 Log=142611 Err=0
id=790283 time=13.11.2019 18:56:59 Vmax=2.1 Vmin=0.9 Vmid=1.5 Napr=53 uakb=12.78 usb=0 temp=-7.51 hum=85.56 prs=1012.49 Log=142610 Err=0
id=790282 time=13.11.2019 18:55:50 Vmax=2.5 Vmin=1.9 Vmid=2.1 Napr=52 uakb=12.8 usb=0 temp=-7.5 hum=85.57 prs=1012.45 Log=142609 Err=0
id=790281 time=13.11.2019 18:54:40 Vmax=3.5 Vmin=2 Vmid=2.5 Napr=48 uakb=12.8 usb=0 temp=-7.5 hum=85.59 prs=1012.46 Log=142608 Err=0
id=790280 time=13.11.2019 18:53:30 Vmax=3.3 Vmin=2 Vmid=2.6 Napr=52 uakb=12.8 usb=0 temp=-7.49 hum=85.59 prs=1012.44 Log=142607 Err=0
id=790279 time=13.11.2019 18:52:20 Vmax=3.5 Vmin=2.2 Vmid=2.7 Napr=56 uakb=12.8 usb=0 temp=-7.48 hum=85.58 prs=1012.43 Log=142606 Err=0
id=790278 time=13.11.2019 18:51:10 Vmax=2.6 Vmin=1.2 Vmid=1.8 Napr=48 uakb=12.8 usb=0 temp=-7.47 hum=85.59 prs=1012.4 Log=142605 Err=0
id=790277 time=13.11.2019 18:50:01 Vmax=4 Vmin=3.3 Vmid=3.6 Napr=54 uakb=12.8 usb=0 temp=-7.46 hum=85.62 prs=1012.41 Log=142604 Err=0
id=790276 time=13.11.2019 18:48:51 Vmax=4.4 Vmin=2.8 Vmid=3.5 Napr=63 uakb=12.82 usb=0 temp=-7.43 hum=85.62 prs=1012.42 Log=142603 Err=0
id=790275 time=13.11.2019 18:47:41 Vmax=4.3 Vmin=2.5 Vmid=3.5 Napr=70 uakb=12.82 usb=0 temp=-7.4 hum=85.62 prs=1012.42 Log=142602 Err=0
id=790274 time=13.11.2019 18:46:32 Vmax=2.6 Vmin=1.5 Vmid=2 Napr=71 uakb=12.82 usb=0 temp=-7.38 hum=85.61 prs=1012.4 Log=142601 Err=0
id=790273 time=13.11.2019 18:45:21 Vmax=3.2 Vmin=1.8 Vmid=2.2 Napr=78 uakb=12.82 usb=0 temp=-7.35 hum=85.63 prs=1012.37 Log=142600 Err=0
id=790272 time=13.11.2019 18:44:12 Vmax=3 Vmin=1.9 Vmid=2.5 Napr=80 uakb=12.84 usb=0 temp=-7.32 hum=85.63 prs=1012.36 Log=142599 Err=0
id=790271 time=13.11.2019 18:43:02 Vmax=2.9 Vmin=2.1 Vmid=2.3 Napr=71 uakb=12.84 usb=0 temp=-7.29 hum=85.63 prs=1012.39 Log=142598 Err=0
id=790270 time=13.11.2019 18:41:53 Vmax=3.3 Vmin=0.8 Vmid=2.3 Napr=63 uakb=12.82 usb=0 temp=-7.27 hum=85.65 prs=1012.33 Log=142597 Err=0
id=790269 time=13.11.2019 18:40:42 Vmax=1.6 Vmin=0.2 Vmid=0.8 Napr=45 uakb=12.84 usb=0 temp=-7.25 hum=85.65 prs=1012.3 Log=142596 Err=0
id=790268 time=13.11.2019 18:39:33 Vmax=1.9 Vmin=0.8 Vmid=1.2 Napr=45 uakb=12.84 usb=0 temp=-7.22 hum=85.67 prs=1012.29 Log=142595 Err=0
id=790267 time=13.11.2019 18:38:23 Vmax=2.6 Vmin=1.4 Vmid=2 Napr=47 uakb=12.84 usb=0 temp=-7.2 hum=85.68 prs=1012.24 Log=142594 Err=0
id=790266 time=13.11.2019 18:37:13 Vmax=3.2 Vmin=2 Vmid=2.5 Napr=52 uakb=12.86 usb=0 temp=-7.19 hum=85.69 prs=1012.21 Log=142593 Err=0
id=790265 time=13.11.2019 18:36:04 Vmax=4.4 Vmin=2.6 Vmid=3.6 Napr=57 uakb=12.86 usb=0 temp=-7.18 hum=85.7 prs=1012.21 Log=142592 Err=0
id=790264 time=13.11.2019 18:34:54 Vmax=4.1 Vmin=1.6 Vmid=2.5 Napr=67 uakb=12.86 usb=0 temp=-7.16 hum=85.69 prs=1012.23 Log=142591 Err=0
id=790263 time=13.11.2019 18:33:44 Vmax=2.5 Vmin=1.5 Vmid=1.9 Napr=65 uakb=12.86 usb=0 temp=-7.15 hum=85.7 prs=1012.16 Log=142590 Err=0
id=790262 time=13.11.2019 18:32:34 Vmax=2.3 Vmin=1.4 Vmid=1.8 Napr=77 uakb=12.88 usb=0 temp=-7.13 hum=85.69 prs=1012.1 Log=142589 Err=0
id=790261 time=13.11.2019 18:31:24 Vmax=3.6 Vmin=2.2 Vmid=2.7 Napr=63 uakb=12.88 usb=0 temp=-7.1 hum=85.72 prs=1012.13 Log=142588 Err=0
id=790260 time=13.11.2019 18:30:15 Vmax=2.8 Vmin=2.1 Vmid=2.5 Napr=67 uakb=12.88 usb=0 temp=-7.08 hum=85.74 prs=1012.1 Log=142587 Err=0
id=790259 time=13.11.2019 18:29:04 Vmax=3.9 Vmin=2.5 Vmid=2.9 Napr=67 uakb=12.9 usb=0 temp=-7.06 hum=85.73 prs=1012.09 Log=142586 Err=0
id=790258 time=13.11.2019 18:27:55 Vmax=3.2 Vmin=2.3 Vmid=2.7 Napr=62 uakb=12.9 usb=0 temp=-7.03 hum=85.75 prs=1012.04 Log=142585 Err=0
id=790257 time=13.11.2019 18:26:45 Vmax=3.4 Vmin=1.1 Vmid=2.5 Napr=69 uakb=12.9 usb=0 temp=-7 hum=85.74 prs=1012.03 Log=142584 Err=0
id=790256 time=13.11.2019 18:25:35 Vmax=1.6 Vmin=0.5 Vmid=0.8 Napr=62 uakb=12.9 usb=0 temp=-6.99 hum=85.75 prs=1012.01 Log=142583 Err=0
id=790255 time=13.11.2019 18:24:26 Vmax=3 Vmin=2 Vmid=2.3 Napr=62 uakb=12.92 usb=0 temp=-6.97 hum=85.77 prs=1012.05 Log=142582 Err=0
id=790254 time=13.11.2019 18:23:16 Vmax=2.5 Vmin=1.6 Vmid=1.9 Napr=69 uakb=12.92 usb=0 temp=-6.95 hum=85.75 prs=1012.04 Log=142581 Err=0
id=790253 time=13.11.2019 18:22:07 Vmax=3.3 Vmin=1.6 Vmid=2.2 Napr=65 uakb=12.94 usb=0 temp=-6.93 hum=85.78 prs=1011.97 Log=142580 Err=0
id=790252 time=13.11.2019 18:20:57 Vmax=4.2 Vmin=1.8 Vmid=3 Napr=58 uakb=12.94 usb=0 temp=-6.9 hum=85.78 prs=1011.95 Log=142579 Err=0
id=790251 time=13.11.2019 18:19:46 Vmax=3.2 Vmin=1.6 Vmid=2.6 Napr=59 uakb=12.96 usb=0 temp=-6.88 hum=85.79 prs=1012.01 Log=142578 Err=0
id=790250 time=13.11.2019 18:18:37 Vmax=3.5 Vmin=1.9 Vmid=2.8 Napr=63 uakb=12.96 usb=0 temp=-6.86 hum=85.79 prs=1011.97 Log=142577 Err=0
id=790249 time=13.11.2019 18:17:26 Vmax=4.6 Vmin=2.6 Vmid=3.5 Napr=63 uakb=12.96 usb=0 temp=-6.83 hum=85.8 prs=1011.92 Log=142576 Err=0
id=790248 time=13.11.2019 18:16:17 Vmax=3.5 Vmin=1.5 Vmid=2.3 Napr=55 uakb=12.98 usb=0 temp=-6.8 hum=85.81 prs=1011.95 Log=142575 Err=0
id=790247 time=13.11.2019 18:15:07 Vmax=3.3 Vmin=1.6 Vmid=2.3 Napr=66 uakb=12.98 usb=0 temp=-6.79 hum=85.82 prs=1011.94 Log=142574 Err=0
id=790246 time=13.11.2019 18:13:57 Vmax=3.4 Vmin=1.6 Vmid=2.2 Napr=61 uakb=12.98 usb=0 temp=-6.77 hum=85.83 prs=1011.94 Log=142573 Err=0
id=790245 time=13.11.2019 18:12:48 Vmax=2.3 Vmin=1.6 Vmid=2 Napr=64 uakb=13 usb=0 temp=-6.76 hum=85.82 prs=1011.91 Log=142572 Err=0
id=790244 time=13.11.2019 18:11:38 Vmax=3.2 Vmin=1.3 Vmid=2.3 Napr=65 uakb=13 usb=0 temp=-6.74 hum=85.85 prs=1011.91 Log=142571 Err=0
id=790243 time=13.11.2019 18:10:28 Vmax=2.6 Vmin=1.6 Vmid=1.9 Napr=66 uakb=13.02 usb=0 temp=-6.72 hum=85.84 prs=1011.88 Log=142570 Err=0
id=790242 time=13.11.2019 18:09:19 Vmax=3 Vmin=1.5 Vmid=2.3 Napr=53 uakb=13.02 usb=0 temp=-6.69 hum=85.85 prs=1011.88 Log=142569 Err=0
id=790241 time=13.11.2019 18:08:09 Vmax=2.3 Vmin=1.6 Vmid=1.9 Napr=45 uakb=13.04 usb=0 temp=-6.68 hum=85.86 prs=1011.89 Log=142568 Err=0
id=790240 time=13.11.2019 18:06:59 Vmax=3 Vmin=1.9 Vmid=2.2 Napr=45 uakb=13.02 usb=0 temp=-6.67 hum=85.88 prs=1011.95 Log=142567 Err=0
id=790239 time=13.11.2019 18:05:48 Vmax=3.2 Vmin=1.5 Vmid=2.2 Napr=47 uakb=13.04 usb=0 temp=-6.66 hum=85.88 prs=1011.92 Log=142566 Err=0
id=790238 time=13.11.2019 18:04:39 Vmax=3.6 Vmin=2.5 Vmid=3.2 Napr=46 uakb=13.06 usb=0 temp=-6.64 hum=85.88 prs=1011.91 Log=142565 Err=0
id=790237 time=13.11.2019 18:03:29 Vmax=4.1 Vmin=2.2 Vmid=3 Napr=48 uakb=13.06 usb=0 temp=-6.62 hum=85.88 prs=1011.91 Log=142564 Err=0
id=790236 time=13.11.2019 18:02:19 Vmax=4.7 Vmin=1.4 Vmid=3 Napr=51 uakb=13.08 usb=0 temp=-6.59 hum=85.89 prs=1011.87 Log=142563 Err=0
id=790235 time=13.11.2019 18:01:10 Vmax=4.4 Vmin=2.6 Vmid=3.3 Napr=53 uakb=13.08 usb=0 temp=-6.56 hum=85.91 prs=1011.82 Log=142562 Err=0
id=790234 time=13.11.2019 18:00:00 Vmax=3.5 Vmin=2.6 Vmid=3 Napr=46 uakb=13.1 usb=0 temp=-6.55 hum=85.9 prs=1011.82 Log=142561 Err=0
id=790233 time=13.11.2019 17:58:50 Vmax=3.7 Vmin=2.8 Vmid=3.3 Napr=48 uakb=13.1 usb=0 temp=-6.53 hum=85.91 prs=1011.81 Log=142560 Err=0
id=790232 time=13.11.2019 17:57:40 Vmax=3.5 Vmin=2.7 Vmid=3 Napr=47 uakb=13.12 usb=0 temp=-6.51 hum=85.93 prs=1011.79 Log=142559 Err=0
id=790231 time=13.11.2019 17:56:30 Vmax=4.4 Vmin=2.6 Vmid=3.3 Napr=48 uakb=13.12 usb=0 temp=-6.5 hum=85.94 prs=1011.75 Log=142558 Err=0
id=790230 time=13.11.2019 17:55:21 Vmax=2.3 Vmin=1.8 Vmid=2 Napr=50 uakb=13.12 usb=0 temp=-6.49 hum=85.93 prs=1011.69 Log=142557 Err=0
id=790229 time=13.11.2019 17:54:12 Vmax=2.5 Vmin=1.2 Vmid=1.6 Napr=53 uakb=13.14 usb=0 temp=-6.47 hum=85.93 prs=1011.71 Log=142556 Err=0
id=790228 time=13.11.2019 17:53:01 Vmax=3.3 Vmin=1.5 Vmid=2.2 Napr=48 uakb=13.14 usb=0 temp=-6.46 hum=85.96 prs=1011.68 Log=142555 Err=0
id=790227 time=13.11.2019 17:51:51 Vmax=3.4 Vmin=1.9 Vmid=2.6 Napr=50 uakb=13.16 usb=0 temp=-6.46 hum=85.96 prs=1011.66 Log=142554 Err=0
id=790226 time=13.11.2019 17:50:42 Vmax=1.9 Vmin=1.5 Vmid=1.6 Napr=57 uakb=13.16 usb=0 temp=-6.45 hum=85.96 prs=1011.64 Log=142553 Err=0
id=790225 time=13.11.2019 17:49:32 Vmax=2.2 Vmin=1.3 Vmid=1.8 Napr=53 uakb=13.18 usb=0 temp=-6.43 hum=85.96 prs=1011.66 Log=142552 Err=0
id=790224 time=13.11.2019 17:48:22 Vmax=3.7 Vmin=1.5 Vmid=2.3 Napr=50 uakb=13.18 usb=0 temp=-6.42 hum=85.98 prs=1011.67 Log=142551 Err=0
id=790223 time=13.11.2019 17:47:12 Vmax=3.4 Vmin=2.5 Vmid=2.9 Napr=43 uakb=13.2 usb=2.08 temp=-6.42 hum=86 prs=1011.64 Log=142550 Err=0
id=790222 time=13.11.2019 17:46:02 Vmax=4.8 Vmin=3.7 Vmid=4.1 Napr=40 uakb=13.2 usb=0.99 temp=-6.41 hum=85.98 prs=1011.67 Log=142549 Err=0
id=790221 time=13.11.2019 17:44:53 Vmax=3.4 Vmin=2.8 Vmid=3.2 Napr=47 uakb=13.2 usb=2.1 temp=-6.4 hum=86.02 prs=1011.67 Log=142548 Err=0
id=790220 time=13.11.2019 17:43:42 Vmax=3 Vmin=2 Vmid=2.6 Napr=51 uakb=13.22 usb=2.34 temp=-6.39 hum=86 prs=1011.65 Log=142547 Err=0
id=790219 time=13.11.2019 17:42:33 Vmax=2.9 Vmin=2.1 Vmid=2.6 Napr=49 uakb=13.24 usb=1.55 temp=-6.39 hum=86.02 prs=1011.66 Log=142546 Err=0
id=790218 time=13.11.2019 17:41:23 Vmax=3.2 Vmin=2.6 Vmid=2.8 Napr=49 uakb=13.26 usb=2.7 temp=-6.38 hum=86.02 prs=1011.64 Log=142545 Err=0
id=790217 time=13.11.2019 17:40:13 Vmax=2.8 Vmin=1.6 Vmid=2.1 Napr=49 uakb=13.26 usb=3.61 temp=-6.38 hum=86.04 prs=1011.62 Log=142544 Err=0
id=790216 time=13.11.2019 17:39:04 Vmax=2.6 Vmin=1.8 Vmid=2.1 Napr=49 uakb=13.28 usb=4.82 temp=-6.37 hum=86.03 prs=1011.61 Log=142543 Err=0
id=790215 time=13.11.2019 17:37:53 Vmax=3 Vmin=2.3 Vmid=2.7 Napr=49 uakb=13.28 usb=5.97 temp=-6.37 hum=86.02 prs=1011.64 Log=142542 Err=0
id=790214 time=13.11.2019 17:36:44 Vmax=3.5 Vmin=2.2 Vmid=2.7 Napr=49 uakb=13.3 usb=7.4 temp=-6.35 hum=86.03 prs=1011.62 Log=142541 Err=0
id=790213 time=13.11.2019 17:35:34 Vmax=2.8 Vmin=1.2 Vmid=1.8 Napr=51 uakb=13.32 usb=7.99 temp=-6.35 hum=86.03 prs=1011.58 Log=142540 Err=0
id=790212 time=13.11.2019 17:34:24 Vmax=3.4 Vmin=2.5 Vmid=2.8 Napr=46 uakb=13.32 usb=8.11 temp=-6.35 hum=86.05 prs=1011.62 Log=142539 Err=0
id=790211 time=13.11.2019 17:33:15 Vmax=3.7 Vmin=2.1 Vmid=2.9 Napr=47 uakb=13.34 usb=9.6 temp=-6.33 hum=86.05 prs=1011.61 Log=142538 Err=0
id=790210 time=13.11.2019 17:32:05 Vmax=3.9 Vmin=2.1 Vmid=2.9 Napr=41 uakb=13.34 usb=10.33 temp=-6.33 hum=86.08 prs=1011.62 Log=142537 Err=0
id=790209 time=13.11.2019 17:30:55 Vmax=3.2 Vmin=2.7 Vmid=2.9 Napr=52 uakb=13.36 usb=9.93 temp=-6.31 hum=86.05 prs=1011.59 Log=142536 Err=0
id=790208 time=13.11.2019 17:29:45 Vmax=3.2 Vmin=2 Vmid=2.5 Napr=48 uakb=13.38 usb=10.67 temp=-6.3 hum=86.08 prs=1011.59 Log=142535 Err=0
id=790207 time=13.11.2019 17:28:35 Vmax=3.2 Vmin=2.3 Vmid=2.7 Napr=44 uakb=13.38 usb=11.88 temp=-6.29 hum=86.06 prs=1011.55 Log=142534 Err=0
id=790206 time=13.11.2019 17:27:26 Vmax=3.7 Vmin=2.5 Vmid=2.9 Napr=47 uakb=13.4 usb=12.24 temp=-6.28 hum=86.08 prs=1011.58 Log=142533 Err=0
id=790205 time=13.11.2019 17:25:06 Vmax=3.4 Vmin=2.6 Vmid=2.9 Napr=46 uakb=13.42 usb=12.57 temp=-6.28 hum=86.11 prs=1011.56 Log=142531 Err=0
id=790204 time=13.11.2019 17:23:57 Vmax=2.7 Vmin=1.8 Vmid=2.3 Napr=45 uakb=13.44 usb=12.51 temp=-6.29 hum=86.1 prs=1011.51 Log=142530 Err=0
id=790203 time=13.11.2019 17:22:47 Vmax=3.7 Vmin=2.6 Vmid=2.9 Napr=45 uakb=13.44 usb=12.85 temp=-6.27 hum=86.11 prs=1011.5 Log=142529 Err=0
id=790202 time=13.11.2019 17:21:37 Vmax=3.5 Vmin=2.1 Vmid=2.6 Napr=45 uakb=13.44 usb=12.83 temp=-6.25 hum=86.09 prs=1011.49 Log=142528 Err=0
id=790201 time=13.11.2019 17:20:27 Vmax=2.7 Vmin=2 Vmid=2.2 Napr=44 uakb=13.46 usb=12.67 temp=-6.23 hum=86.1 prs=1011.45 Log=142527 Err=0
id=790200 time=13.11.2019 17:19:17 Vmax=3.2 Vmin=2.3 Vmid=2.8 Napr=44 uakb=13.48 usb=12.85 temp=-6.23 hum=86.13 prs=1011.46 Log=142526 Err=0
id=790199 time=13.11.2019 17:18:08 Vmax=2.9 Vmin=2.1 Vmid=2.5 Napr=41 uakb=13.5 usb=12.89 temp=-6.2 hum=86.11 prs=1011.41 Log=142525 Err=0
id=790198 time=13.11.2019 17:16:57 Vmax=3.9 Vmin=2.9 Vmid=3.3 Napr=34 uakb=13.52 usb=13.01 temp=-6.18 hum=86.12 prs=1011.43 Log=142524 Err=0
id=790197 time=13.11.2019 17:15:48 Vmax=3.4 Vmin=2.5 Vmid=2.9 Napr=39 uakb=13.52 usb=12.93 temp=-6.18 hum=86.14 prs=1011.4 Log=142523 Err=0
id=790196 time=13.11.2019 17:14:38 Vmax=3.9 Vmin=2.8 Vmid=3.3 Napr=42 uakb=13.52 usb=12.55 temp=-6.19 hum=86.14 prs=1011.44 Log=142522 Err=0
id=790195 time=13.11.2019 17:13:28 Vmax=4.2 Vmin=2.3 Vmid=3.2 Napr=48 uakb=13.54 usb=12.69 temp=-6.18 hum=86.15 prs=1011.39 Log=142521 Err=0
id=790194 time=13.11.2019 17:12:19 Vmax=2.9 Vmin=1.9 Vmid=2.5 Napr=48 uakb=13.56 usb=13.09 temp=-6.16 hum=86.15 prs=1011.37 Log=142520 Err=0
id=790193 time=13.11.2019 17:11:09 Vmax=2.8 Vmin=2 Vmid=2.5 Napr=48 uakb=13.56 usb=13.01 temp=-6.15 hum=86.16 prs=1011.35 Log=142519 Err=0
id=790192 time=13.11.2019 17:09:59 Vmax=4 Vmin=1.8 Vmid=2.8 Napr=45 uakb=13.6 usb=13.07 temp=-6.13 hum=86.16 prs=1011.31 Log=142518 Err=0
id=790191 time=13.11.2019 17:08:49 Vmax=4.2 Vmin=2.3 Vmid=3.2 Napr=33 uakb=13.6 usb=12.91 temp=-6.11 hum=86.16 prs=1011.34 Log=142517 Err=0
id=790190 time=13.11.2019 17:07:39 Vmax=3.4 Vmin=2.2 Vmid=2.9 Napr=47 uakb=13.62 usb=12.83 temp=-6.09 hum=86.17 prs=1011.28 Log=142516 Err=0
id=790189 time=13.11.2019 17:06:30 Vmax=3.5 Vmin=2.8 Vmid=3.2 Napr=44 uakb=13.62 usb=12.77 temp=-6.07 hum=86.19 prs=1011.27 Log=142515 Err=0
id=790188 time=13.11.2019 17:05:19 Vmax=4 Vmin=2.7 Vmid=3.4 Napr=49 uakb=13.64 usb=13.23 temp=-6.05 hum=86.19 prs=1011.24 Log=142514 Err=0
id=790187 time=13.11.2019 17:04:10 Vmax=4.6 Vmin=3.5 Vmid=3.9 Napr=48 uakb=13.66 usb=12.87 temp=-6.03 hum=86.19 prs=1011.29 Log=142513 Err=0
id=790186 time=13.11.2019 17:03:00 Vmax=4.2 Vmin=2.2 Vmid=3.5 Napr=45 uakb=13.66 usb=13.23 temp=-6.01 hum=86.21 prs=1011.28 Log=142512 Err=0
id=790185 time=13.11.2019 17:01:50 Vmax=3.3 Vmin=2.2 Vmid=2.7 Napr=49 uakb=13.68 usb=12.89 temp=-5.99 hum=86.2 prs=1011.24 Log=142511 Err=0
id=790184 time=13.11.2019 17:00:41 Vmax=4.1 Vmin=3.2 Vmid=3.5 Napr=45 uakb=13.7 usb=13.31 temp=-5.98 hum=86.21 prs=1011.25 Log=142510 Err=0
id=790183 time=13.11.2019 16:59:30 Vmax=4.3 Vmin=3.4 Vmid=3.6 Napr=45 uakb=13.7 usb=13.05 temp=-5.97 hum=86.22 prs=1011.22 Log=142509 Err=0
id=790182 time=13.11.2019 16:58:21 Vmax=4.4 Vmin=3 Vmid=3.5 Napr=43 uakb=13.68 usb=13.31 temp=-5.94 hum=86.22 prs=1011.23 Log=142508 Err=0
id=790181 time=13.11.2019 16:57:11 Vmax=4 Vmin=2.6 Vmid=3.2 Napr=47 uakb=13.74 usb=13.41 temp=-5.93 hum=86.21 prs=1011.25 Log=142507 Err=0
id=790180 time=13.11.2019 16:56:01 Vmax=3 Vmin=1.9 Vmid=2.5 Napr=48 uakb=13.74 usb=13.39 temp=-5.91 hum=86.23 prs=1011.19 Log=142506 Err=0
id=790179 time=13.11.2019 16:54:52 Vmax=3.7 Vmin=3 Vmid=3.4 Napr=48 uakb=13.74 usb=13.42 temp=-5.88 hum=86.24 prs=1011.19 Log=142505 Err=0
id=790178 time=13.11.2019 16:53:42 Vmax=3.9 Vmin=2.8 Vmid=3.3 Napr=47 uakb=13.76 usb=13.15 temp=-5.86 hum=86.24 prs=1011.16 Log=142504 Err=0
id=790177 time=13.11.2019 16:52:32 Vmax=3.4 Vmin=2.1 Vmid=2.6 Napr=51 uakb=13.78 usb=13.46 temp=-5.84 hum=86.24 prs=1011.12 Log=142503 Err=0
id=790176 time=13.11.2019 16:51:22 Vmax=3.4 Vmin=2 Vmid=2.5 Napr=49 uakb=13.8 usb=13.46 temp=-5.82 hum=86.26 prs=1011.13 Log=142502 Err=0
id=790175 time=13.11.2019 16:50:12 Vmax=3.2 Vmin=2.7 Vmid=2.8 Napr=49 uakb=13.82 usb=13.44 temp=-5.81 hum=86.26 prs=1011.1 Log=142501 Err=0
id=790174 time=13.11.2019 16:49:03 Vmax=3.6 Vmin=2.2 Vmid=2.8 Napr=45 uakb=13.82 usb=13.21 temp=-5.8 hum=86.25 prs=1011.09 Log=142500 Err=0
id=790173 time=13.11.2019 16:47:52 Vmax=3.9 Vmin=3 Vmid=3.4 Napr=45 uakb=13.84 usb=13.48 temp=-5.79 hum=86.28 prs=1011.04 Log=142499 Err=0
id=790172 time=13.11.2019 16:46:43 Vmax=3 Vmin=1.3 Vmid=2.2 Napr=46 uakb=13.86 usb=13.56 temp=-5.79 hum=86.27 prs=1011.03 Log=142498 Err=0
id=790171 time=13.11.2019 16:45:33 Vmax=3.9 Vmin=2.5 Vmid=3 Napr=49 uakb=13.86 usb=13.62 temp=-5.77 hum=86.26 prs=1011.01 Log=142497 Err=0
id=790170 time=13.11.2019 16:44:23 Vmax=3.4 Vmin=2.6 Vmid=2.9 Napr=47 uakb=13.88 usb=13.54 temp=-5.76 hum=86.28 prs=1010.99 Log=142496 Err=0
id=790169 time=13.11.2019 16:43:13 Vmax=3.9 Vmin=3.2 Vmid=3.5 Napr=46 uakb=13.9 usb=13.64 temp=-5.73 hum=86.29 prs=1011.06 Log=142495 Err=0
id=790168 time=13.11.2019 16:42:03 Vmax=4.1 Vmin=3.2 Vmid=3.6 Napr=41 uakb=13.9 usb=13.39 temp=-5.73 hum=86.33 prs=1011.05 Log=142494 Err=0
id=790167 time=13.11.2019 16:40:54 Vmax=3.7 Vmin=2.8 Vmid=3.4 Napr=40 uakb=13.92 usb=13.74 temp=-5.72 hum=86.3 prs=1011 Log=142493 Err=0
id=790166 time=13.11.2019 16:39:44 Vmax=4.3 Vmin=3.3 Vmid=3.7 Napr=44 uakb=13.92 usb=13.54 temp=-5.71 hum=86.31 prs=1011.03 Log=142492 Err=0
id=790165 time=13.11.2019 16:38:34 Vmax=4.4 Vmin=3 Vmid=3.9 Napr=41 uakb=13.94 usb=13.76 temp=-5.69 hum=86.31 prs=1011.01 Log=142491 Err=0
id=790164 time=13.11.2019 16:37:25 Vmax=4 Vmin=1.6 Vmid=2.6 Napr=46 uakb=13.96 usb=13.68 temp=-5.67 hum=86.32 prs=1010.99 Log=142490 Err=0
id=790163 time=13.11.2019 16:36:15 Vmax=3.4 Vmin=2.7 Vmid=3 Napr=42 uakb=13.94 usb=13.5 temp=-5.66 hum=86.33 prs=1011 Log=142489 Err=0
id=790162 time=13.11.2019 16:35:05 Vmax=4.2 Vmin=3.5 Vmid=3.9 Napr=42 uakb=13.98 usb=13.6 temp=-5.66 hum=86.34 prs=1010.98 Log=142488 Err=0
id=790161 time=13.11.2019 16:33:56 Vmax=4 Vmin=2.9 Vmid=3.5 Napr=43 uakb=13.98 usb=13.74 temp=-5.64 hum=86.33 prs=1011 Log=142487 Err=0
id=790160 time=13.11.2019 16:32:45 Vmax=4.3 Vmin=2.6 Vmid=3.5 Napr=48 uakb=14 usb=13.9 temp=-5.62 hum=86.35 prs=1010.98 Log=142486 Err=0
id=790159 time=13.11.2019 16:31:36 Vmax=3.6 Vmin=2.5 Vmid=2.8 Napr=51 uakb=14 usb=13.88 temp=-5.61 hum=86.34 prs=1010.95 Log=142485 Err=0
id=790158 time=13.11.2019 16:30:26 Vmax=3.2 Vmin=2.2 Vmid=2.6 Napr=53 uakb=14.02 usb=13.9 temp=-5.59 hum=86.35 prs=1010.96 Log=142484 Err=0
id=790157 time=13.11.2019 16:29:16 Vmax=3.2 Vmin=2.1 Vmid=2.7 Napr=53 uakb=14 usb=13.9 temp=-5.6 hum=86.35 prs=1010.95 Log=142483 Err=0
id=790156 time=13.11.2019 16:28:06 Vmax=3 Vmin=2.3 Vmid=2.7 Napr=49 uakb=14.02 usb=13.88 temp=-5.59 hum=86.36 prs=1010.97 Log=142482 Err=0
id=790155 time=13.11.2019 16:26:56 Vmax=4.6 Vmin=3 Vmid=4 Napr=42 uakb=14.02 usb=13.88 temp=-5.58 hum=86.32 prs=1010.92 Log=142481 Err=0
id=790154 time=13.11.2019 16:25:47 Vmax=4.9 Vmin=2.5 Vmid=3.4 Napr=35 uakb=14.02 usb=13.94 temp=-5.56 hum=86.37 prs=1010.92 Log=142480 Err=0
id=790153 time=13.11.2019 16:23:27 Vmax=4.7 Vmin=3.9 Vmid=4.2 Napr=42 uakb=14.04 usb=13.8 temp=-5.53 hum=86.35 prs=1010.88 Log=142478 Err=0
id=790152 time=13.11.2019 16:22:18 Vmax=3.6 Vmin=2.7 Vmid=2.9 Napr=48 uakb=14.08 usb=13.98 temp=-5.52 hum=86.37 prs=1010.85 Log=142477 Err=0
id=790151 time=13.11.2019 16:21:07 Vmax=3.4 Vmin=2.7 Vmid=2.9 Napr=46 uakb=14.08 usb=13.96 temp=-5.52 hum=86.36 prs=1010.81 Log=142476 Err=0
id=790150 time=13.11.2019 16:19:58 Vmax=3.7 Vmin=3 Vmid=3.3 Napr=45 uakb=14.1 usb=14.08 temp=-5.52 hum=86.37 prs=1010.83 Log=142475 Err=0
id=790149 time=13.11.2019 16:18:48 Vmax=4.7 Vmin=3.2 Vmid=3.7 Napr=37 uakb=14.1 usb=14.1 temp=-5.5 hum=86.37 prs=1010.81 Log=142474 Err=0
id=790148 time=13.11.2019 16:17:38 Vmax=4.8 Vmin=3.4 Vmid=3.9 Napr=36 uakb=14.12 usb=14.28 temp=-5.48 hum=86.39 prs=1010.75 Log=142473 Err=0
id=790147 time=13.11.2019 16:16:29 Vmax=4.2 Vmin=2.8 Vmid=3.4 Napr=33 uakb=14.14 usb=14.32 temp=-5.46 hum=86.38 prs=1010.75 Log=142472 Err=0
id=790146 time=13.11.2019 16:15:19 Vmax=3.5 Vmin=2.8 Vmid=3 Napr=40 uakb=14.14 usb=14.28 temp=-5.45 hum=86.4 prs=1010.77 Log=142471 Err=0
id=790145 time=13.11.2019 16:14:09 Vmax=4.6 Vmin=2.9 Vmid=3.5 Napr=34 uakb=14.14 usb=14.34 temp=-5.44 hum=86.41 prs=1010.72 Log=142470 Err=0
id=790144 time=13.11.2019 16:12:59 Vmax=4.4 Vmin=2.7 Vmid=3.7 Napr=30 uakb=14.14 usb=14.12 temp=-5.42 hum=86.4 prs=1010.75 Log=142469 Err=0
id=790143 time=13.11.2019 16:11:49 Vmax=3.4 Vmin=2 Vmid=2.6 Napr=26 uakb=14.16 usb=14.46 temp=-5.4 hum=86.4 prs=1010.71 Log=142468 Err=0
id=790142 time=13.11.2019 16:10:40 Vmax=3.6 Vmin=2.5 Vmid=3 Napr=47 uakb=14.16 usb=14.46 temp=-5.39 hum=86.4 prs=1010.71 Log=142467 Err=0
id=790141 time=13.11.2019 16:09:30 Vmax=3.7 Vmin=2.6 Vmid=3.3 Napr=45 uakb=14.18 usb=14.48 temp=-5.37 hum=86.41 prs=1010.7 Log=142466 Err=0
id=790140 time=13.11.2019 16:08:20 Vmax=3.4 Vmin=2.6 Vmid=2.9 Napr=42 uakb=14.18 usb=14.5 temp=-5.37 hum=86.41 prs=1010.67 Log=142465 Err=0
id=790139 time=13.11.2019 16:07:10 Vmax=3.4 Vmin=1.9 Vmid=2.9 Napr=43 uakb=14.18 usb=14.48 temp=-5.36 hum=86.42 prs=1010.67 Log=142464 Err=0
id=790138 time=13.11.2019 16:06:00 Vmax=3.7 Vmin=2.6 Vmid=3 Napr=42 uakb=14.18 usb=14.5 temp=-5.36 hum=86.43 prs=1010.66 Log=142463 Err=0
id=790137 time=13.11.2019 16:03:41 Vmax=4.4 Vmin=3.2 Vmid=3.7 Napr=29 uakb=14.18 usb=14.5 temp=-5.32 hum=86.45 prs=1010.64 Log=142461 Err=0
id=790136 time=13.11.2019 16:02:31 Vmax=3.4 Vmin=2.5 Vmid=3 Napr=44 uakb=14.18 usb=14.5 temp=-5.32 hum=86.43 prs=1010.64 Log=142460 Err=0
id=790135 time=13.11.2019 16:01:22 Vmax=3.7 Vmin=2.9 Vmid=3.4 Napr=42 uakb=14.18 usb=14.48 temp=-5.31 hum=86.43 prs=1010.65 Log=142459 Err=0
id=790134 time=13.11.2019 16:00:11 Vmax=2.9 Vmin=2.2 Vmid=2.5 Napr=45 uakb=14.18 usb=14.5 temp=-5.3 hum=86.44 prs=1010.62 Log=142458 Err=0
id=790133 time=13.11.2019 15:59:02 Vmax=2.8 Vmin=1.9 Vmid=2.2 Napr=44 uakb=14.18 usb=14.5 temp=-5.29 hum=86.45 prs=1010.63 Log=142457 Err=0
id=790132 time=13.11.2019 15:57:52 Vmax=4 Vmin=2.3 Vmid=3 Napr=41 uakb=14.18 usb=14.48 temp=-5.29 hum=86.44 prs=1010.63 Log=142456 Err=0
id=790131 time=13.11.2019 15:56:42 Vmax=3.2 Vmin=2.3 Vmid=2.8 Napr=50 uakb=14.18 usb=14.48 temp=-5.29 hum=86.46 prs=1010.62 Log=142455 Err=0
id=790130 time=13.11.2019 15:55:33 Vmax=3.7 Vmin=3 Vmid=3.3 Napr=48 uakb=14.18 usb=14.5 temp=-5.28 hum=86.44 prs=1010.57 Log=142454 Err=0
id=790129 time=13.11.2019 15:54:23 Vmax=3.4 Vmin=2.8 Vmid=3.2 Napr=48 uakb=14.16 usb=14.48 temp=-5.27 hum=86.45 prs=1010.59 Log=142453 Err=0
id=790128 time=13.11.2019 15:53:13 Vmax=3.3 Vmin=2.3 Vmid=2.8 Napr=47 uakb=14.16 usb=14.46 temp=-5.25 hum=86.46 prs=1010.58 Log=142452 Err=0
id=790127 time=13.11.2019 15:52:03 Vmax=3.3 Vmin=2.7 Vmid=3 Napr=48 uakb=14.12 usb=14.06 temp=-5.24 hum=86.47 prs=1010.58 Log=142451 Err=0
id=790126 time=13.11.2019 15:50:54 Vmax=2.8 Vmin=1.8 Vmid=2.2 Napr=45 uakb=14.08 usb=13.9 temp=-5.24 hum=86.46 prs=1010.56 Log=142450 Err=0
id=790125 time=13.11.2019 15:49:44 Vmax=1.9 Vmin=1.3 Vmid=1.5 Napr=48 uakb=14.06 usb=13.86 temp=-5.23 hum=86.46 prs=1010.51 Log=142449 Err=0
id=790124 time=13.11.2019 15:48:34 Vmax=3.2 Vmin=1.9 Vmid=2.5 Napr=48 uakb=14.04 usb=13.8 temp=-5.23 hum=86.47 prs=1010.46 Log=142448 Err=0
id=790123 time=13.11.2019 15:47:24 Vmax=3.6 Vmin=2.3 Vmid=2.9 Napr=48 uakb=14.04 usb=13.92 temp=-5.22 hum=86.46 prs=1010.49 Log=142447 Err=0
id=790122 time=13.11.2019 15:46:14 Vmax=3.2 Vmin=2.5 Vmid=2.7 Napr=54 uakb=14.04 usb=13.98 temp=-5.21 hum=86.47 prs=1010.49 Log=142446 Err=0
id=790121 time=13.11.2019 15:45:04 Vmax=2.6 Vmin=1.6 Vmid=2.1 Napr=62 uakb=14.04 usb=13.72 temp=-5.19 hum=86.48 prs=1010.46 Log=142445 Err=0
id=790120 time=13.11.2019 15:43:54 Vmax=2.7 Vmin=2 Vmid=2.2 Napr=57 uakb=14.06 usb=14 temp=-5.18 hum=86.47 prs=1010.44 Log=142444 Err=0
id=790119 time=13.11.2019 15:42:45 Vmax=3 Vmin=2.2 Vmid=2.6 Napr=56 uakb=14.14 usb=14.2 temp=-5.15 hum=86.46 prs=1010.42 Log=142443 Err=0
id=790118 time=13.11.2019 15:41:35 Vmax=3.2 Vmin=1.4 Vmid=2.2 Napr=48 uakb=14.2 usb=14.48 temp=-5.13 hum=86.48 prs=1010.41 Log=142442 Err=0
id=790117 time=13.11.2019 15:40:26 Vmax=2.9 Vmin=2.2 Vmid=2.5 Napr=51 uakb=14.16 usb=14.5 temp=-5.13 hum=86.49 prs=1010.38 Log=142441 Err=0
id=790116 time=13.11.2019 15:39:16 Vmax=3.5 Vmin=2.7 Vmid=3.2 Napr=51 uakb=14.18 usb=14.5 temp=-5.13 hum=86.49 prs=1010.36 Log=142440 Err=0
id=790115 time=13.11.2019 15:38:06 Vmax=4.2 Vmin=1.8 Vmid=2.9 Napr=54 uakb=14.18 usb=14.48 temp=-5.12 hum=86.48 prs=1010.31 Log=142439 Err=0
id=790114 time=13.11.2019 15:36:56 Vmax=4 Vmin=0.9 Vmid=2.1 Napr=48 uakb=14.18 usb=14.5 temp=-5.09 hum=86.49 prs=1010.34 Log=142438 Err=0
id=790113 time=13.11.2019 15:35:46 Vmax=3.2 Vmin=1.6 Vmid=2.1 Napr=50 uakb=14.18 usb=14.48 temp=-5.09 hum=86.5 prs=1010.32 Log=142437 Err=0
id=790112 time=13.11.2019 15:34:36 Vmax=3.5 Vmin=2.6 Vmid=2.9 Napr=41 uakb=14.18 usb=14.48 temp=-5.09 hum=86.49 prs=1010.31 Log=142436 Err=0
id=790111 time=13.11.2019 15:33:26 Vmax=3.3 Vmin=2.2 Vmid=2.8 Napr=48 uakb=14.18 usb=14.5 temp=-5.09 hum=86.5 prs=1010.31 Log=142435 Err=0
id=790110 time=13.11.2019 15:32:17 Vmax=4 Vmin=2.1 Vmid=3.2 Napr=48 uakb=14.18 usb=14.5 temp=-5.07 hum=86.5 prs=1010.3 Log=142434 Err=0
id=790109 time=13.11.2019 15:31:07 Vmax=3.3 Vmin=2.8 Vmid=3 Napr=47 uakb=14.18 usb=14.48 temp=-5.06 hum=86.5 prs=1010.3 Log=142433 Err=0
id=790108 time=13.11.2019 15:29:57 Vmax=4 Vmin=2.6 Vmid=3.3 Napr=47 uakb=14.18 usb=14.48 temp=-5.04 hum=86.5 prs=1010.29 Log=142432 Err=0
id=790107 time=13.11.2019 15:28:47 Vmax=2.7 Vmin=2.5 Vmid=2.6 Napr=46 uakb=14.18 usb=14.48 temp=-5.03 hum=86.51 prs=1010.26 Log=142431 Err=0
id=790106 time=13.11.2019 15:27:37 Vmax=4.1 Vmin=1.5 Vmid=2.7 Napr=48 uakb=14.18 usb=14.48 temp=-5.02 hum=86.51 prs=1010.24 Log=142430 Err=0
id=790105 time=13.11.2019 15:26:28 Vmax=2.8 Vmin=1.9 Vmid=2.3 Napr=50 uakb=14.18 usb=14.48 temp=-5.02 hum=86.52 prs=1010.21 Log=142429 Err=0
id=790104 time=13.11.2019 15:25:18 Vmax=2.9 Vmin=2.5 Vmid=2.6 Napr=51 uakb=14.18 usb=14.48 temp=-5.02 hum=86.5 prs=1010.18 Log=142428 Err=0
id=790103 time=13.11.2019 15:24:08 Vmax=3.6 Vmin=2.5 Vmid=3.2 Napr=46 uakb=14.18 usb=14.48 temp=-5.01 hum=86.52 prs=1010.16 Log=142427 Err=0
id=790102 time=13.11.2019 15:22:58 Vmax=3.2 Vmin=2 Vmid=2.7 Napr=42 uakb=14.16 usb=14.5 temp=-5 hum=86.53 prs=1010.14 Log=142426 Err=0
id=790101 time=13.11.2019 15:21:49 Vmax=4 Vmin=2.7 Vmid=3.3 Napr=41 uakb=14.18 usb=14.48 temp=-5 hum=86.52 prs=1010.14 Log=142425 Err=0
id=790100 time=13.11.2019 15:20:39 Vmax=2.8 Vmin=1.5 Vmid=2.1 Napr=48 uakb=14.18 usb=14.48 temp=-4.99 hum=86.52 prs=1010.14 Log=142424 Err=0
id=790099 time=13.11.2019 15:19:29 Vmax=3.2 Vmin=2.1 Vmid=2.5 Napr=43 uakb=14.18 usb=14.48 temp=-5.01 hum=86.53 prs=1010.13 Log=142423 Err=0
id=790098 time=13.11.2019 15:18:20 Vmax=3.7 Vmin=2.5 Vmid=3 Napr=35 uakb=14.18 usb=14.5 temp=-5.03 hum=86.53 prs=1010.09 Log=142422 Err=0
id=790097 time=13.11.2019 15:17:09 Vmax=4 Vmin=2.7 Vmid=3.4 Napr=44 uakb=14.18 usb=14.48 temp=-5.03 hum=86.51 prs=1010.05 Log=142421 Err=0
id=790096 time=13.11.2019 15:15:59 Vmax=2.8 Vmin=2.3 Vmid=2.6 Napr=49 uakb=14.18 usb=14.48 temp=-5.02 hum=86.52 prs=1010.07 Log=142420 Err=0
id=790095 time=13.11.2019 15:14:50 Vmax=3 Vmin=2.3 Vmid=2.5 Napr=44 uakb=14.18 usb=14.48 temp=-5.01 hum=86.52 prs=1010.04 Log=142419 Err=0
id=790094 time=13.11.2019 15:13:39 Vmax=3 Vmin=2 Vmid=2.6 Napr=44 uakb=14.18 usb=14.48 temp=-5 hum=86.53 prs=1010.02 Log=142418 Err=0
id=790093 time=13.11.2019 15:12:30 Vmax=3.9 Vmin=2.7 Vmid=3.2 Napr=46 uakb=14.18 usb=14.48 temp=-4.99 hum=86.51 prs=1010.04 Log=142417 Err=0
id=790092 time=13.11.2019 15:11:20 Vmax=3.3 Vmin=2.8 Vmid=2.9 Napr=48 uakb=14.18 usb=14.48 temp=-4.97 hum=86.53 prs=1010.01 Log=142416 Err=0
id=790091 time=13.11.2019 15:10:11 Vmax=2.8 Vmin=2.5 Vmid=2.6 Napr=48 uakb=14.18 usb=14.48 temp=-4.97 hum=86.53 prs=1010.01 Log=142415 Err=0
id=790090 time=13.11.2019 15:09:00 Vmax=3.4 Vmin=2.1 Vmid=2.8 Napr=48 uakb=14.18 usb=14.48 temp=-4.96 hum=86.52 prs=1009.99 Log=142414 Err=0
id=790089 time=13.11.2019 15:07:51 Vmax=3 Vmin=1.8 Vmid=2.3 Napr=45 uakb=14.18 usb=14.48 temp=-4.95 hum=86.53 prs=1010 Log=142413 Err=0
id=790088 time=13.11.2019 15:06:41 Vmax=2.9 Vmin=2.5 Vmid=2.6 Napr=46 uakb=14.18 usb=14.48 temp=-4.96 hum=86.53 prs=1009.92 Log=142412 Err=0
id=790087 time=13.11.2019 15:05:31 Vmax=3.4 Vmin=2.3 Vmid=2.8 Napr=49 uakb=14.18 usb=14.48 temp=-4.94 hum=86.53 prs=1009.94 Log=142411 Err=0
id=790086 time=13.11.2019 15:04:23 Vmax=3 Vmin=2.1 Vmid=2.6 Napr=52 uakb=14.18 usb=14.48 temp=-4.94 hum=86.53 prs=1009.94 Log=142410 Err=0
id=790085 time=13.11.2019 15:03:11 Vmax=2.3 Vmin=1.5 Vmid=2 Napr=53 uakb=14.18 usb=14.48 temp=-4.95 hum=86.55 prs=1009.95 Log=142409 Err=0
id=790084 time=13.11.2019 15:02:02 Vmax=2.8 Vmin=2.2 Vmid=2.5 Napr=53 uakb=14.18 usb=14.48 temp=-4.97 hum=86.54 prs=1009.93 Log=142408 Err=0
id=790083 time=13.11.2019 15:00:52 Vmax=3.6 Vmin=1.6 Vmid=2.7 Napr=50 uakb=14.18 usb=14.48 temp=-4.96 hum=86.52 prs=1009.91 Log=142407 Err=0
id=790082 time=13.11.2019 14:59:43 Vmax=2.9 Vmin=2 Vmid=2.3 Napr=46 uakb=14.18 usb=14.48 temp=-4.96 hum=86.53 prs=1009.87 Log=142406 Err=0
id=790081 time=13.11.2019 14:58:33 Vmax=3.3 Vmin=2.3 Vmid=2.7 Napr=46 uakb=14.18 usb=14.48 temp=-4.97 hum=86.54 prs=1009.88 Log=142405 Err=0
id=790080 time=13.11.2019 14:57:22 Vmax=3.2 Vmin=1.9 Vmid=2.6 Napr=48 uakb=14.18 usb=14.48 temp=-4.97 hum=86.54 prs=1009.8 Log=142404 Err=0
id=790079 time=13.11.2019 14:56:13 Vmax=3.6 Vmin=2.5 Vmid=3 Napr=46 uakb=14.18 usb=14.5 temp=-4.97 hum=86.54 prs=1009.76 Log=142403 Err=0
id=790078 time=13.11.2019 14:55:03 Vmax=3.9 Vmin=2.1 Vmid=2.7 Napr=46 uakb=14.18 usb=14.48 temp=-4.96 hum=86.54 prs=1009.75 Log=142402 Err=0
id=790077 time=13.11.2019 14:53:53 Vmax=3.3 Vmin=2 Vmid=2.6 Napr=47 uakb=14.18 usb=14.5 temp=-4.97 hum=86.54 prs=1009.74 Log=142401 Err=0
id=790076 time=13.11.2019 14:52:44 Vmax=4.2 Vmin=2.9 Vmid=3.6 Napr=46 uakb=14.18 usb=14.48 temp=-4.94 hum=86.53 prs=1009.73 Log=142400 Err=0
id=790075 time=13.11.2019 14:51:33 Vmax=3.9 Vmin=2.2 Vmid=2.9 Napr=48 uakb=14.18 usb=14.5 temp=-4.93 hum=86.54 prs=1009.74 Log=142399 Err=0
id=790074 time=13.11.2019 14:50:24 Vmax=3.4 Vmin=2.6 Vmid=2.9 Napr=47 uakb=14.18 usb=14.5 temp=-4.93 hum=86.55 prs=1009.75 Log=142398 Err=0
id=790073 time=13.11.2019 14:49:14 Vmax=3.7 Vmin=2.9 Vmid=3.2 Napr=44 uakb=14.16 usb=14.5 temp=-4.95 hum=86.54 prs=1009.76 Log=142397 Err=0
id=790072 time=13.11.2019 14:48:05 Vmax=3 Vmin=2.7 Vmid=2.8 Napr=49 uakb=14.18 usb=14.48 temp=-4.96 hum=86.54 prs=1009.7 Log=142396 Err=0
id=790071 time=13.11.2019 14:46:55 Vmax=3.4 Vmin=2.8 Vmid=3 Napr=59 uakb=14.2 usb=14.48 temp=-4.96 hum=86.53 prs=1009.72 Log=142395 Err=0
id=790070 time=13.11.2019 14:45:45 Vmax=4 Vmin=3 Vmid=3.5 Napr=57 uakb=14.18 usb=14.48 temp=-4.97 hum=86.55 prs=1009.73 Log=142394 Err=0
id=790069 time=13.11.2019 14:44:35 Vmax=3.5 Vmin=2.6 Vmid=2.9 Napr=47 uakb=14.18 usb=14.48 temp=-4.97 hum=86.53 prs=1009.7 Log=142393 Err=0
id=790068 time=13.11.2019 14:43:25 Vmax=3.6 Vmin=2.1 Vmid=2.8 Napr=48 uakb=14.18 usb=14.48 temp=-4.94 hum=86.54 prs=1009.72 Log=142392 Err=0
id=790067 time=13.11.2019 14:42:15 Vmax=4.1 Vmin=2.5 Vmid=3.3 Napr=47 uakb=14.18 usb=14.48 temp=-4.94 hum=86.54 prs=1009.71 Log=142391 Err=0
id=790066 time=13.11.2019 14:41:06 Vmax=3.4 Vmin=2.5 Vmid=2.8 Napr=47 uakb=14.18 usb=14.48 temp=-4.94 hum=86.56 prs=1009.69 Log=142390 Err=0
id=790065 time=13.11.2019 14:39:55 Vmax=3.7 Vmin=2.7 Vmid=3.2 Napr=46 uakb=14.18 usb=14.48 temp=-4.94 hum=86.55 prs=1009.68 Log=142389 Err=0
id=790064 time=13.11.2019 14:38:46 Vmax=3.7 Vmin=2.5 Vmid=3 Napr=53 uakb=14.08 usb=14.2 temp=-4.93 hum=86.55 prs=1009.67 Log=142388 Err=0
id=790063 time=13.11.2019 14:37:36 Vmax=3 Vmin=2.5 Vmid=2.7 Napr=51 uakb=13.84 usb=13.58 temp=-4.94 hum=86.57 prs=1009.68 Log=142387 Err=0
id=790062 time=13.11.2019 14:36:26 Vmax=4.1 Vmin=3 Vmid=3.5 Napr=48 uakb=13.84 usb=13.74 temp=-4.93 hum=86.53 prs=1009.69 Log=142386 Err=0
id=790061 time=13.11.2019 14:34:07 Vmax=4.2 Vmin=2.1 Vmid=3.2 Napr=46 uakb=13.98 usb=13.96 temp=-4.87 hum=86.54 prs=1009.66 Log=142384 Err=0
id=790060 time=13.11.2019 14:32:57 Vmax=4.1 Vmin=3.3 Vmid=3.6 Napr=44 uakb=13.94 usb=13.76 temp=-4.85 hum=86.57 prs=1009.66 Log=142383 Err=0
id=790059 time=13.11.2019 14:31:48 Vmax=4.1 Vmin=2.7 Vmid=3.2 Napr=41 uakb=14.08 usb=13.96 temp=-4.83 hum=86.53 prs=1009.63 Log=142382 Err=0
id=790058 time=13.11.2019 14:30:37 Vmax=4.1 Vmin=2.6 Vmid=3.4 Napr=33 uakb=14.18 usb=14.48 temp=-4.8 hum=86.57 prs=1009.62 Log=142381 Err=0
id=790057 time=13.11.2019 14:29:28 Vmax=4.6 Vmin=2.8 Vmid=3.5 Napr=28 uakb=14.18 usb=14.48 temp=-4.79 hum=86.56 prs=1009.63 Log=142380 Err=0
id=790056 time=13.11.2019 14:28:19 Vmax=3.9 Vmin=2.8 Vmid=3.5 Napr=38 uakb=14.18 usb=14.48 temp=-4.81 hum=86.56 prs=1009.6 Log=142379 Err=0
id=790055 time=13.11.2019 14:27:09 Vmax=3.7 Vmin=3 Vmid=3.4 Napr=40 uakb=14.18 usb=14.48 temp=-4.78 hum=86.55 prs=1009.61 Log=142378 Err=0
id=790054 time=13.11.2019 14:25:59 Vmax=4.4 Vmin=3.2 Vmid=3.9 Napr=31 uakb=14.18 usb=14.48 temp=-4.76 hum=86.58 prs=1009.6 Log=142377 Err=0
id=790053 time=13.11.2019 14:24:49 Vmax=4 Vmin=3.3 Vmid=3.6 Napr=30 uakb=14.18 usb=14.48 temp=-4.76 hum=86.58 prs=1009.6 Log=142376 Err=0
id=790052 time=13.11.2019 14:23:39 Vmax=3.6 Vmin=2.7 Vmid=3 Napr=36 uakb=14.18 usb=14.48 temp=-4.75 hum=86.58 prs=1009.61 Log=142375 Err=0
id=790051 time=13.11.2019 14:22:29 Vmax=4 Vmin=2.5 Vmid=3.3 Napr=40 uakb=14.18 usb=14.48 temp=-4.75 hum=86.55 prs=1009.58 Log=142374 Err=0
id=790050 time=13.11.2019 14:21:19 Vmax=3.9 Vmin=3.4 Vmid=3.6 Napr=33 uakb=14.18 usb=14.48 temp=-4.73 hum=86.57 prs=1009.57 Log=142373 Err=0
id=790049 time=13.11.2019 14:20:10 Vmax=3.6 Vmin=2.6 Vmid=3 Napr=16 uakb=14.18 usb=14.48 temp=-4.72 hum=86.58 prs=1009.55 Log=142372 Err=0
id=790048 time=13.11.2019 14:18:59 Vmax=2.9 Vmin=2.2 Vmid=2.5 Napr=2 uakb=14.18 usb=14.48 temp=-4.73 hum=86.59 prs=1009.53 Log=142371 Err=0
id=790047 time=13.11.2019 14:17:50 Vmax=3.3 Vmin=2.5 Vmid=2.8 Napr=2 uakb=14.18 usb=14.48 temp=-4.75 hum=86.59 prs=1009.54 Log=142370 Err=0
id=790046 time=13.11.2019 14:16:40 Vmax=3.3 Vmin=2.3 Vmid=2.8 Napr=4 uakb=14.18 usb=14.48 temp=-4.77 hum=86.61 prs=1009.56 Log=142369 Err=0
id=790045 time=13.11.2019 14:15:30 Vmax=3.9 Vmin=3 Vmid=3.4 Napr=356 uakb=14.16 usb=14.48 temp=-4.77 hum=86.56 prs=1009.56 Log=142368 Err=0
id=790044 time=13.11.2019 14:14:20 Vmax=4 Vmin=2.3 Vmid=3 Napr=19 uakb=14.18 usb=14.48 temp=-4.8 hum=86.6 prs=1009.51 Log=142367 Err=0
id=790043 time=13.11.2019 14:13:11 Vmax=2.7 Vmin=2.2 Vmid=2.5 Napr=24 uakb=14.18 usb=14.48 temp=-4.81 hum=86.56 prs=1009.54 Log=142366 Err=0
id=790042 time=13.11.2019 14:12:01 Vmax=4.6 Vmin=2.8 Vmid=3.9 Napr=13 uakb=14.18 usb=14.48 temp=-4.81 hum=86.58 prs=1009.53 Log=142365 Err=0
id=790041 time=13.11.2019 14:10:51 Vmax=3.4 Vmin=2.9 Vmid=3.2 Napr=11 uakb=14.18 usb=14.48 temp=-4.8 hum=86.58 prs=1009.57 Log=142364 Err=0
id=790040 time=13.11.2019 14:09:41 Vmax=3.9 Vmin=2.7 Vmid=3.2 Napr=15 uakb=14.18 usb=14.48 temp=-4.79 hum=86.57 prs=1009.56 Log=142363 Err=0
id=790039 time=13.11.2019 14:08:32 Vmax=3 Vmin=2.3 Vmid=2.7 Napr=16 uakb=14.16 usb=14.48 temp=-4.78 hum=86.58 prs=1009.53 Log=142362 Err=0
id=790038 time=13.11.2019 14:07:22 Vmax=3.7 Vmin=3.4 Vmid=3.5 Napr=14 uakb=14.16 usb=14.48 temp=-4.78 hum=86.56 prs=1009.53 Log=142361 Err=0
id=790037 time=13.11.2019 14:06:12 Vmax=3.4 Vmin=2.7 Vmid=2.9 Napr=16 uakb=14.18 usb=14.48 temp=-4.77 hum=86.57 prs=1009.51 Log=142360 Err=0
id=790036 time=13.11.2019 14:05:02 Vmax=3.7 Vmin=2.7 Vmid=3.2 Napr=9 uakb=14.18 usb=14.48 temp=-4.76 hum=86.58 prs=1009.49 Log=142359 Err=0
id=790035 time=13.11.2019 14:03:53 Vmax=3.2 Vmin=2.6 Vmid=2.7 Napr=355 uakb=14.16 usb=14.48 temp=-4.75 hum=86.56 prs=1009.42 Log=142358 Err=0
id=790034 time=13.11.2019 14:02:43 Vmax=3.3 Vmin=2.2 Vmid=2.9 Napr=6 uakb=14.18 usb=14.48 temp=-4.74 hum=86.59 prs=1009.42 Log=142357 Err=0
id=790033 time=13.11.2019 14:01:33 Vmax=2.8 Vmin=2 Vmid=2.2 Napr=15 uakb=14.18 usb=14.48 temp=-4.74 hum=86.6 prs=1009.45 Log=142356 Err=0
id=790032 time=13.11.2019 14:00:23 Vmax=3.2 Vmin=2.1 Vmid=2.7 Napr=20 uakb=14.18 usb=14.48 temp=-4.75 hum=86.58 prs=1009.42 Log=142355 Err=0
id=790031 time=13.11.2019 13:59:15 Vmax=3 Vmin=2.1 Vmid=2.5 Napr=18 uakb=14.16 usb=14.5 temp=-4.78 hum=86.59 prs=1009.42 Log=142354 Err=0
id=790030 time=13.11.2019 13:58:03 Vmax=3.7 Vmin=2.7 Vmid=3.2 Napr=28 uakb=14.18 usb=14.48 temp=-4.78 hum=86.56 prs=1009.38 Log=142353 Err=0
id=790029 time=13.11.2019 13:56:53 Vmax=2.7 Vmin=1.9 Vmid=2.3 Napr=48 uakb=14.18 usb=14.48 temp=-4.77 hum=86.57 prs=1009.34 Log=142352 Err=0
id=790028 time=13.11.2019 13:55:44 Vmax=2.9 Vmin=1.5 Vmid=2.2 Napr=42 uakb=14.18 usb=14.48 temp=-4.77 hum=86.58 prs=1009.31 Log=142351 Err=0
id=790027 time=13.11.2019 13:54:34 Vmax=3.5 Vmin=2.1 Vmid=3 Napr=27 uakb=14.16 usb=14.48 temp=-4.78 hum=86.57 prs=1009.33 Log=142350 Err=0
id=790026 time=13.11.2019 13:53:24 Vmax=2.9 Vmin=2.1 Vmid=2.5 Napr=37 uakb=14.18 usb=14.48 temp=-4.78 hum=86.57 prs=1009.37 Log=142349 Err=0
id=790025 time=13.11.2019 13:52:15 Vmax=4.2 Vmin=3.3 Vmid=3.7 Napr=29 uakb=14.18 usb=14.48 temp=-4.77 hum=86.56 prs=1009.37 Log=142348 Err=0
id=790024 time=13.11.2019 13:51:05 Vmax=3.3 Vmin=2.3 Vmid=2.8 Napr=41 uakb=14.18 usb=14.48 temp=-4.77 hum=86.57 prs=1009.35 Log=142347 Err=0
id=790023 time=13.11.2019 13:49:55 Vmax=4.3 Vmin=3.3 Vmid=3.9 Napr=35 uakb=14.16 usb=14.5 temp=-4.74 hum=86.54 prs=1009.32 Log=142346 Err=0
id=790022 time=13.11.2019 13:47:35 Vmax=3.9 Vmin=2.7 Vmid=3.3 Napr=16 uakb=13.96 usb=13.98 temp=-4.71 hum=86.58 prs=1009.32 Log=142344 Err=0
id=790021 time=13.11.2019 13:46:25 Vmax=4.2 Vmin=3 Vmid=3.6 Napr=12 uakb=13.88 usb=13.64 temp=-4.7 hum=86.58 prs=1009.32 Log=142343 Err=0
id=790020 time=13.11.2019 13:45:16 Vmax=5.1 Vmin=3.4 Vmid=4.6 Napr=3 uakb=13.82 usb=13.78 temp=-4.72 hum=86.59 prs=1009.36 Log=142342 Err=0
id=790019 time=13.11.2019 13:44:06 Vmax=4.7 Vmin=4.1 Vmid=4.2 Napr=9 uakb=13.78 usb=13.66 temp=-4.73 hum=86.57 prs=1009.31 Log=142341 Err=0
id=790018 time=13.11.2019 13:42:56 Vmax=5 Vmin=3.5 Vmid=4.3 Napr=19 uakb=13.72 usb=13.52 temp=-4.72 hum=86.56 prs=1009.34 Log=142340 Err=0
id=790017 time=13.11.2019 13:41:47 Vmax=4.3 Vmin=3.5 Vmid=4 Napr=18 uakb=13.8 usb=13.8 temp=-4.7 hum=86.57 prs=1009.33 Log=142339 Err=0
id=790016 time=13.11.2019 13:40:36 Vmax=5.5 Vmin=4.6 Vmid=5 Napr=16 uakb=13.76 usb=13.76 temp=-4.68 hum=86.59 prs=1009.36 Log=142338 Err=0
id=790015 time=13.11.2019 13:39:27 Vmax=5.4 Vmin=3.9 Vmid=4.7 Napr=15 uakb=13.7 usb=13.52 temp=-4.69 hum=86.57 prs=1009.36 Log=142337 Err=0
id=790014 time=13.11.2019 13:38:17 Vmax=4.2 Vmin=3.6 Vmid=3.9 Napr=28 uakb=13.66 usb=13.62 temp=-4.67 hum=86.57 prs=1009.34 Log=142336 Err=0
id=790013 time=13.11.2019 13:37:07 Vmax=4.3 Vmin=2.5 Vmid=3.5 Napr=24 uakb=13.68 usb=13.58 temp=-4.66 hum=86.56 prs=1009.35 Log=142335 Err=0
id=790012 time=13.11.2019 13:35:58 Vmax=4.8 Vmin=4.3 Vmid=4.6 Napr=16 uakb=13.78 usb=13.76 temp=-4.64 hum=86.58 prs=1009.31 Log=142334 Err=0
id=790011 time=13.11.2019 13:34:48 Vmax=4.7 Vmin=2.9 Vmid=3.7 Napr=27 uakb=13.96 usb=13.74 temp=-4.63 hum=86.58 prs=1009.27 Log=142333 Err=0
id=790010 time=13.11.2019 13:33:38 Vmax=3.2 Vmin=2.5 Vmid=2.7 Napr=43 uakb=14.18 usb=14.48 temp=-4.63 hum=86.57 prs=1009.26 Log=142332 Err=0
id=790009 time=13.11.2019 13:32:28 Vmax=4.1 Vmin=3.2 Vmid=3.5 Napr=36 uakb=14.16 usb=14.48 temp=-4.61 hum=86.56 prs=1009.27 Log=142331 Err=0
id=790008 time=13.11.2019 13:31:19 Vmax=2.9 Vmin=2.1 Vmid=2.6 Napr=42 uakb=14.18 usb=14.48 temp=-4.59 hum=86.57 prs=1009.25 Log=142330 Err=0
id=790007 time=13.11.2019 13:30:08 Vmax=3.7 Vmin=3 Vmid=3.3 Napr=41 uakb=14.16 usb=14.48 temp=-4.56 hum=86.57 prs=1009.25 Log=142329 Err=0
id=790006 time=13.11.2019 13:28:59 Vmax=2.7 Vmin=1.9 Vmid=2.2 Napr=43 uakb=14.18 usb=14.48 temp=-4.55 hum=86.57 prs=1009.22 Log=142328 Err=0
id=790005 time=13.11.2019 13:27:49 Vmax=2.5 Vmin=1.9 Vmid=2.1 Napr=27 uakb=14.16 usb=14.48 temp=-4.55 hum=86.57 prs=1009.21 Log=142327 Err=0
id=790004 time=13.11.2019 13:26:39 Vmax=3.5 Vmin=2.2 Vmid=2.6 Napr=23 uakb=14.18 usb=14.48 temp=-4.54 hum=86.56 prs=1009.22 Log=142326 Err=0
id=790003 time=13.11.2019 13:25:30 Vmax=4 Vmin=2.3 Vmid=3 Napr=16 uakb=14.18 usb=14.48 temp=-4.51 hum=86.6 prs=1009.19 Log=142325 Err=0
id=790002 time=13.11.2019 13:24:19 Vmax=2.8 Vmin=1.2 Vmid=2 Napr=29 uakb=14.16 usb=14.48 temp=-4.53 hum=86.6 prs=1009.24 Log=142324 Err=0
id=790001 time=13.11.2019 13:23:10 Vmax=2.5 Vmin=1.1 Vmid=1.9 Napr=39 uakb=14.16 usb=14.5 temp=-4.55 hum=86.58 prs=1009.23 Log=142323 Err=0
id=790000 time=13.11.2019 13:22:00 Vmax=2.3 Vmin=1.5 Vmid=2 Napr=21 uakb=14.18 usb=14.48 temp=-4.56 hum=86.58 prs=1009.22 Log=142322 Err=0
id=789999 time=13.11.2019 13:20:50 Vmax=2.9 Vmin=1.6 Vmid=2.3 Napr=10 uakb=14.16 usb=14.48 temp=-4.57 hum=86.57 prs=1009.26 Log=142321 Err=0
id=789998 time=13.11.2019 13:19:40 Vmax=3.4 Vmin=2.3 Vmid=2.8 Napr=355 uakb=14.18 usb=14.48 temp=-4.58 hum=86.56 prs=1009.25 Log=142320 Err=0
id=789997 time=13.11.2019 13:18:31 Vmax=2.3 Vmin=1.5 Vmid=1.9 Napr=16 uakb=14.16 usb=14.48 temp=-4.6 hum=86.6 prs=1009.29 Log=142319 Err=0
id=789996 time=13.11.2019 13:17:20 Vmax=3.2 Vmin=2 Vmid=2.6 Napr=29 uakb=14.16 usb=14.48 temp=-4.64 hum=86.59 prs=1009.29 Log=142318 Err=0
id=789995 time=13.11.2019 13:16:11 Vmax=2.7 Vmin=1.6 Vmid=2.1 Napr=36 uakb=14.18 usb=14.48 temp=-4.64 hum=86.57 prs=1009.28 Log=142317 Err=0
id=789994 time=13.11.2019 13:15:01 Vmax=3 Vmin=2 Vmid=2.3 Napr=28 uakb=14.16 usb=14.48 temp=-4.65 hum=86.58 prs=1009.34 Log=142316 Err=0
id=789993 time=13.11.2019 13:13:51 Vmax=3.3 Vmin=2.6 Vmid=2.9 Napr=16 uakb=14.18 usb=14.5 temp=-4.68 hum=86.58 prs=1009.3 Log=142315 Err=0
id=789992 time=13.11.2019 13:12:41 Vmax=3.7 Vmin=3.2 Vmid=3.4 Napr=12 uakb=14.18 usb=14.48 temp=-4.7 hum=86.57 prs=1009.34 Log=142314 Err=0
id=789991 time=13.11.2019 13:11:32 Vmax=2.7 Vmin=2.5 Vmid=2.6 Napr=30 uakb=14.18 usb=14.48 temp=-4.72 hum=86.56 prs=1009.31 Log=142313 Err=0
id=789990 time=13.11.2019 13:10:22 Vmax=3.6 Vmin=2.8 Vmid=3.3 Napr=33 uakb=14 usb=14.2 temp=-4.72 hum=86.55 prs=1009.32 Log=142312 Err=0
id=789989 time=13.11.2019 13:09:12 Vmax=4.2 Vmin=2.3 Vmid=3.3 Napr=41 uakb=13.6 usb=13.48 temp=-4.72 hum=86.55 prs=1009.31 Log=142311 Err=0
id=789988 time=13.11.2019 13:08:02 Vmax=4.1 Vmin=2.7 Vmid=3.5 Napr=33 uakb=13.52 usb=13.37 temp=-4.71 hum=86.54 prs=1009.34 Log=142310 Err=0
id=789987 time=13.11.2019 13:06:53 Vmax=5 Vmin=2.8 Vmid=3.7 Napr=33 uakb=13.54 usb=13.5 temp=-4.69 hum=86.55 prs=1009.34 Log=142309 Err=0
id=789986 time=13.11.2019 13:05:43 Vmax=2.9 Vmin=2.2 Vmid=2.3 Napr=37 uakb=13.52 usb=13.44 temp=-4.69 hum=86.54 prs=1009.28 Log=142308 Err=0
id=789985 time=13.11.2019 13:04:33 Vmax=3.9 Vmin=2.3 Vmid=3.2 Napr=30 uakb=13.54 usb=13.52 temp=-4.68 hum=86.56 prs=1009.26 Log=142307 Err=0
id=789984 time=13.11.2019 13:03:23 Vmax=4.2 Vmin=2.7 Vmid=3.4 Napr=22 uakb=13.5 usb=13.23 temp=-4.68 hum=86.57 prs=1009.28 Log=142306 Err=0
id=789983 time=13.11.2019 13:02:13 Vmax=4.1 Vmin=2.7 Vmid=3.4 Napr=27 uakb=13.48 usb=13.17 temp=-4.67 hum=86.55 prs=1009.24 Log=142305 Err=0
id=789982 time=13.11.2019 13:01:03 Vmax=4.3 Vmin=2.9 Vmid=3.9 Napr=13 uakb=13.48 usb=13.41 temp=-4.67 hum=86.54 prs=1009.27 Log=142304 Err=0
id=789981 time=13.11.2019 12:59:53 Vmax=4.1 Vmin=3 Vmid=3.5 Napr=24 uakb=13.48 usb=13.39 temp=-4.65 hum=86.55 prs=1009.29 Log=142303 Err=0
id=789980 time=13.11.2019 12:58:44 Vmax=4.1 Vmin=2.3 Vmid=3.4 Napr=14 uakb=13.46 usb=13.19 temp=-4.65 hum=86.55 prs=1009.3 Log=142302 Err=0
id=789979 time=13.11.2019 12:57:34 Vmax=4.7 Vmin=2.6 Vmid=3.6 Napr=10 uakb=13.48 usb=13.41 temp=-4.62 hum=86.54 prs=1009.31 Log=142301 Err=0